<?xml version="1.0" encoding="UTF-8" standalone="no" ?>
<gpx xmlns="http://www.topografix.com/GPX/1/1" xmlns:xsi="http://www.w3.org/2001/XMLSchema-instance" xsi:schemaLocation="http://www.topografix.com/GPX/1/1 http://www.topografix.com/GPX/1/1/gpx.xsd" version="1.1" creator="VisuGPX - https://www.visugpx.com">
  <metadata>
    <name>2021-01-14-Piovosa valle Maira</name>
  </metadata>
  <trk>
    <name><![CDATA[2021-01-14 16:17:30]]></name>
    <trkseg>
      <trkpt lat="44.44156" lon="7.10469">
        <ele>1545.46</ele>
        <time>2021-01-14T08:46:02Z</time>
      </trkpt>
      <trkpt lat="44.44156" lon="7.10468">
        <ele>1543.05</ele>
        <time>2021-01-14T08:46:24Z</time>
      </trkpt>
      <trkpt lat="44.4415" lon="7.10462">
        <ele>1543.05</ele>
        <time>2021-01-14T08:46:39Z</time>
      </trkpt>
      <trkpt lat="44.44147" lon="7.1046">
        <ele>1543.53</ele>
        <time>2021-01-14T08:46:44Z</time>
      </trkpt>
      <trkpt lat="44.44138" lon="7.10451">
        <ele>1544.98</ele>
        <time>2021-01-14T08:46:57Z</time>
      </trkpt>
      <trkpt lat="44.44135" lon="7.10446">
        <ele>1546.9</ele>
        <time>2021-01-14T08:47:07Z</time>
      </trkpt>
      <trkpt lat="44.44131" lon="7.10442">
        <ele>1547.86</ele>
        <time>2021-01-14T08:47:12Z</time>
      </trkpt>
      <trkpt lat="44.44123" lon="7.10434">
        <ele>1549.3</ele>
        <time>2021-01-14T08:47:21Z</time>
      </trkpt>
      <trkpt lat="44.44111" lon="7.10433">
        <ele>1548.82</ele>
        <time>2021-01-14T08:47:35Z</time>
      </trkpt>
      <trkpt lat="44.44105" lon="7.10434">
        <ele>1549.78</ele>
        <time>2021-01-14T08:47:47Z</time>
      </trkpt>
      <trkpt lat="44.44105" lon="7.10435">
        <ele>1550.74</ele>
        <time>2021-01-14T08:48:04Z</time>
      </trkpt>
      <trkpt lat="44.441" lon="7.10438">
        <ele>1552.67</ele>
        <time>2021-01-14T08:48:16Z</time>
      </trkpt>
      <trkpt lat="44.44094" lon="7.10441">
        <ele>1554.59</ele>
        <time>2021-01-14T08:48:27Z</time>
      </trkpt>
      <trkpt lat="44.44083" lon="7.10444">
        <ele>1556.03</ele>
        <time>2021-01-14T08:48:39Z</time>
      </trkpt>
      <trkpt lat="44.44074" lon="7.10447">
        <ele>1557.95</ele>
        <time>2021-01-14T08:48:52Z</time>
      </trkpt>
      <trkpt lat="44.44064" lon="7.10449">
        <ele>1561.8</ele>
        <time>2021-01-14T08:49:09Z</time>
      </trkpt>
      <trkpt lat="44.44058" lon="7.10451">
        <ele>1562.76</ele>
        <time>2021-01-14T08:49:21Z</time>
      </trkpt>
      <trkpt lat="44.44054" lon="7.10452">
        <ele>1564.2</ele>
        <time>2021-01-14T08:49:33Z</time>
      </trkpt>
      <trkpt lat="44.44053" lon="7.10453">
        <ele>1563.24</ele>
        <time>2021-01-14T08:49:40Z</time>
      </trkpt>
      <trkpt lat="44.44048" lon="7.10457">
        <ele>1566.61</ele>
        <time>2021-01-14T08:49:53Z</time>
      </trkpt>
      <trkpt lat="44.4404" lon="7.10457">
        <ele>1568.05</ele>
        <time>2021-01-14T08:50:07Z</time>
      </trkpt>
      <trkpt lat="44.44033" lon="7.10457">
        <ele>1570.93</ele>
        <time>2021-01-14T08:50:24Z</time>
      </trkpt>
      <trkpt lat="44.44024" lon="7.10458">
        <ele>1571.89</ele>
        <time>2021-01-14T08:50:41Z</time>
      </trkpt>
      <trkpt lat="44.44024" lon="7.10459">
        <ele>1571.41</ele>
        <time>2021-01-14T08:50:46Z</time>
      </trkpt>
      <trkpt lat="44.44013" lon="7.10461">
        <ele>1573.82</ele>
        <time>2021-01-14T08:51:01Z</time>
      </trkpt>
      <trkpt lat="44.44004" lon="7.10463">
        <ele>1573.33</ele>
        <time>2021-01-14T08:51:15Z</time>
      </trkpt>
      <trkpt lat="44.43995" lon="7.10463">
        <ele>1578.14</ele>
        <time>2021-01-14T08:51:33Z</time>
      </trkpt>
      <trkpt lat="44.43987" lon="7.10465">
        <ele>1579.1</ele>
        <time>2021-01-14T08:51:47Z</time>
      </trkpt>
      <trkpt lat="44.4398" lon="7.10468">
        <ele>1579.58</ele>
        <time>2021-01-14T08:52:00Z</time>
      </trkpt>
      <trkpt lat="44.43974" lon="7.10467">
        <ele>1582.95</ele>
        <time>2021-01-14T08:52:14Z</time>
      </trkpt>
      <trkpt lat="44.43968" lon="7.10472">
        <ele>1584.87</ele>
        <time>2021-01-14T08:52:30Z</time>
      </trkpt>
      <trkpt lat="44.43969" lon="7.10481">
        <ele>1587.27</ele>
        <time>2021-01-14T08:52:44Z</time>
      </trkpt>
      <trkpt lat="44.43975" lon="7.10489">
        <ele>1589.2</ele>
        <time>2021-01-14T08:52:58Z</time>
      </trkpt>
      <trkpt lat="44.43981" lon="7.10498">
        <ele>1592.08</ele>
        <time>2021-01-14T08:53:13Z</time>
      </trkpt>
      <trkpt lat="44.43987" lon="7.10506">
        <ele>1594.96</ele>
        <time>2021-01-14T08:53:27Z</time>
      </trkpt>
      <trkpt lat="44.43992" lon="7.10512">
        <ele>1597.37</ele>
        <time>2021-01-14T08:53:36Z</time>
      </trkpt>
      <trkpt lat="44.44" lon="7.10521">
        <ele>1600.25</ele>
        <time>2021-01-14T08:53:52Z</time>
      </trkpt>
      <trkpt lat="44.44008" lon="7.10535">
        <ele>1599.29</ele>
        <time>2021-01-14T08:54:08Z</time>
      </trkpt>
      <trkpt lat="44.4401" lon="7.1054">
        <ele>1600.25</ele>
        <time>2021-01-14T08:54:19Z</time>
      </trkpt>
      <trkpt lat="44.44013" lon="7.10543">
        <ele>1601.69</ele>
        <time>2021-01-14T08:54:31Z</time>
      </trkpt>
      <trkpt lat="44.44015" lon="7.10547">
        <ele>1603.62</ele>
        <time>2021-01-14T08:54:37Z</time>
      </trkpt>
      <trkpt lat="44.44018" lon="7.10563">
        <ele>1604.1</ele>
        <time>2021-01-14T08:54:52Z</time>
      </trkpt>
      <trkpt lat="44.44015" lon="7.10568">
        <ele>1606.02</ele>
        <time>2021-01-14T08:55:07Z</time>
      </trkpt>
      <trkpt lat="44.44012" lon="7.10574">
        <ele>1608.9</ele>
        <time>2021-01-14T08:55:24Z</time>
      </trkpt>
      <trkpt lat="44.44015" lon="7.10587">
        <ele>1610.83</ele>
        <time>2021-01-14T08:55:37Z</time>
      </trkpt>
      <trkpt lat="44.4402" lon="7.10598">
        <ele>1613.71</ele>
        <time>2021-01-14T08:55:51Z</time>
      </trkpt>
      <trkpt lat="44.44023" lon="7.10614">
        <ele>1619</ele>
        <time>2021-01-14T08:56:09Z</time>
      </trkpt>
      <trkpt lat="44.44028" lon="7.10622">
        <ele>1620.92</ele>
        <time>2021-01-14T08:56:21Z</time>
      </trkpt>
      <trkpt lat="44.44034" lon="7.10628">
        <ele>1621.88</ele>
        <time>2021-01-14T08:56:35Z</time>
      </trkpt>
      <trkpt lat="44.44034" lon="7.10631">
        <ele>1621.88</ele>
        <time>2021-01-14T08:56:49Z</time>
      </trkpt>
      <trkpt lat="44.4403" lon="7.10634">
        <ele>1622.36</ele>
        <time>2021-01-14T08:57:03Z</time>
      </trkpt>
      <trkpt lat="44.44035" lon="7.10641">
        <ele>1623.32</ele>
        <time>2021-01-14T08:57:16Z</time>
      </trkpt>
      <trkpt lat="44.44039" lon="7.10647">
        <ele>1626.21</ele>
        <time>2021-01-14T08:57:25Z</time>
      </trkpt>
      <trkpt lat="44.44049" lon="7.10651">
        <ele>1629.57</ele>
        <time>2021-01-14T08:57:37Z</time>
      </trkpt>
      <trkpt lat="44.44052" lon="7.10659">
        <ele>1629.09</ele>
        <time>2021-01-14T08:57:51Z</time>
      </trkpt>
      <trkpt lat="44.44056" lon="7.10667">
        <ele>1630.05</ele>
        <time>2021-01-14T08:58:04Z</time>
      </trkpt>
      <trkpt lat="44.44059" lon="7.10672">
        <ele>1631.98</ele>
        <time>2021-01-14T08:58:18Z</time>
      </trkpt>
      <trkpt lat="44.44054" lon="7.10676">
        <ele>1633.42</ele>
        <time>2021-01-14T08:58:29Z</time>
      </trkpt>
      <trkpt lat="44.44048" lon="7.10679">
        <ele>1634.86</ele>
        <time>2021-01-14T08:58:41Z</time>
      </trkpt>
      <trkpt lat="44.44041" lon="7.10678">
        <ele>1636.3</ele>
        <time>2021-01-14T08:58:53Z</time>
      </trkpt>
      <trkpt lat="44.44033" lon="7.10682">
        <ele>1637.74</ele>
        <time>2021-01-14T08:59:07Z</time>
      </trkpt>
      <trkpt lat="44.4403" lon="7.10686">
        <ele>1640.63</ele>
        <time>2021-01-14T08:59:19Z</time>
      </trkpt>
      <trkpt lat="44.44033" lon="7.10693">
        <ele>1643.51</ele>
        <time>2021-01-14T08:59:32Z</time>
      </trkpt>
      <trkpt lat="44.4403" lon="7.10694">
        <ele>1645.91</ele>
        <time>2021-01-14T08:59:45Z</time>
      </trkpt>
      <trkpt lat="44.44021" lon="7.10697">
        <ele>1648.32</ele>
        <time>2021-01-14T09:00:00Z</time>
      </trkpt>
      <trkpt lat="44.44012" lon="7.107">
        <ele>1651.68</ele>
        <time>2021-01-14T09:00:17Z</time>
      </trkpt>
      <trkpt lat="44.44006" lon="7.10705">
        <ele>1652.64</ele>
        <time>2021-01-14T09:00:33Z</time>
      </trkpt>
      <trkpt lat="44.44006" lon="7.10712">
        <ele>1655.53</ele>
        <time>2021-01-14T09:00:45Z</time>
      </trkpt>
      <trkpt lat="44.44012" lon="7.10721">
        <ele>1656.97</ele>
        <time>2021-01-14T09:00:58Z</time>
      </trkpt>
      <trkpt lat="44.44018" lon="7.10728">
        <ele>1656.97</ele>
        <time>2021-01-14T09:01:10Z</time>
      </trkpt>
      <trkpt lat="44.44022" lon="7.10736">
        <ele>1660.81</ele>
        <time>2021-01-14T09:01:23Z</time>
      </trkpt>
      <trkpt lat="44.44025" lon="7.10745">
        <ele>1663.7</ele>
        <time>2021-01-14T09:01:37Z</time>
      </trkpt>
      <trkpt lat="44.44027" lon="7.10753">
        <ele>1666.58</ele>
        <time>2021-01-14T09:01:50Z</time>
      </trkpt>
      <trkpt lat="44.44034" lon="7.10757">
        <ele>1667.54</ele>
        <time>2021-01-14T09:02:04Z</time>
      </trkpt>
      <trkpt lat="44.44038" lon="7.10766">
        <ele>1668.51</ele>
        <time>2021-01-14T09:02:16Z</time>
      </trkpt>
      <trkpt lat="44.4403" lon="7.10772">
        <ele>1670.43</ele>
        <time>2021-01-14T09:02:32Z</time>
      </trkpt>
      <trkpt lat="44.44021" lon="7.10777">
        <ele>1671.87</ele>
        <time>2021-01-14T09:02:43Z</time>
      </trkpt>
      <trkpt lat="44.44016" lon="7.10778">
        <ele>1673.79</ele>
        <time>2021-01-14T09:02:59Z</time>
      </trkpt>
      <trkpt lat="44.44011" lon="7.10788">
        <ele>1676.68</ele>
        <time>2021-01-14T09:03:20Z</time>
      </trkpt>
      <trkpt lat="44.44" lon="7.10789">
        <ele>1678.12</ele>
        <time>2021-01-14T09:03:38Z</time>
      </trkpt>
      <trkpt lat="44.43993" lon="7.10796">
        <ele>1681.96</ele>
        <time>2021-01-14T09:03:57Z</time>
      </trkpt>
      <trkpt lat="44.43989" lon="7.10801">
        <ele>1685.33</ele>
        <time>2021-01-14T09:04:08Z</time>
      </trkpt>
      <trkpt lat="44.43982" lon="7.10801">
        <ele>1687.73</ele>
        <time>2021-01-14T09:04:24Z</time>
      </trkpt>
      <trkpt lat="44.43976" lon="7.10809">
        <ele>1688.69</ele>
        <time>2021-01-14T09:04:37Z</time>
      </trkpt>
      <trkpt lat="44.43971" lon="7.10816">
        <ele>1688.69</ele>
        <time>2021-01-14T09:04:50Z</time>
      </trkpt>
      <trkpt lat="44.43966" lon="7.10823">
        <ele>1694.46</ele>
        <time>2021-01-14T09:05:07Z</time>
      </trkpt>
      <trkpt lat="44.43961" lon="7.1083">
        <ele>1695.9</ele>
        <time>2021-01-14T09:05:21Z</time>
      </trkpt>
      <trkpt lat="44.43955" lon="7.10838">
        <ele>1698.31</ele>
        <time>2021-01-14T09:05:34Z</time>
      </trkpt>
      <trkpt lat="44.43954" lon="7.10847">
        <ele>1697.83</ele>
        <time>2021-01-14T09:05:44Z</time>
      </trkpt>
      <trkpt lat="44.43954" lon="7.10848">
        <ele>1697.83</ele>
        <time>2021-01-14T09:05:45Z</time>
      </trkpt>
      <trkpt lat="44.4395" lon="7.10853">
        <ele>1700.23</ele>
        <time>2021-01-14T09:05:59Z</time>
      </trkpt>
      <trkpt lat="44.43947" lon="7.10864">
        <ele>1704.55</ele>
        <time>2021-01-14T09:06:19Z</time>
      </trkpt>
      <trkpt lat="44.43948" lon="7.10875">
        <ele>1707.92</ele>
        <time>2021-01-14T09:06:34Z</time>
      </trkpt>
      <trkpt lat="44.43948" lon="7.10882">
        <ele>1711.28</ele>
        <time>2021-01-14T09:06:48Z</time>
      </trkpt>
      <trkpt lat="44.4395" lon="7.10883">
        <ele>1712.73</ele>
        <time>2021-01-14T09:07:00Z</time>
      </trkpt>
      <trkpt lat="44.43953" lon="7.10888">
        <ele>1713.21</ele>
        <time>2021-01-14T09:07:28Z</time>
      </trkpt>
      <trkpt lat="44.43952" lon="7.10886">
        <ele>1719.46</ele>
        <time>2021-01-14T09:07:47Z</time>
      </trkpt>
      <trkpt lat="44.43956" lon="7.10881">
        <ele>1724.26</ele>
        <time>2021-01-14T09:08:13Z</time>
      </trkpt>
      <trkpt lat="44.43953" lon="7.10887">
        <ele>1726.18</ele>
        <time>2021-01-14T09:08:28Z</time>
      </trkpt>
      <trkpt lat="44.43952" lon="7.10892">
        <ele>1728.11</ele>
        <time>2021-01-14T09:08:45Z</time>
      </trkpt>
      <trkpt lat="44.43953" lon="7.10895">
        <ele>1728.59</ele>
        <time>2021-01-14T09:08:57Z</time>
      </trkpt>
      <trkpt lat="44.43954" lon="7.10894">
        <ele>1730.51</ele>
        <time>2021-01-14T09:09:17Z</time>
      </trkpt>
      <trkpt lat="44.43954" lon="7.1089">
        <ele>1735.8</ele>
        <time>2021-01-14T09:09:41Z</time>
      </trkpt>
      <trkpt lat="44.43952" lon="7.10892">
        <ele>1732.91</ele>
        <time>2021-01-14T09:10:08Z</time>
      </trkpt>
      <trkpt lat="44.4395" lon="7.10896">
        <ele>1730.03</ele>
        <time>2021-01-14T09:10:34Z</time>
      </trkpt>
      <trkpt lat="44.43952" lon="7.10895">
        <ele>1727.15</ele>
        <time>2021-01-14T09:10:55Z</time>
      </trkpt>
      <trkpt lat="44.43948" lon="7.10903">
        <ele>1723.3</ele>
        <time>2021-01-14T09:11:10Z</time>
      </trkpt>
      <trkpt lat="44.43948" lon="7.10907">
        <ele>1724.74</ele>
        <time>2021-01-14T09:11:25Z</time>
      </trkpt>
      <trkpt lat="44.43951" lon="7.10903">
        <ele>1726.18</ele>
        <time>2021-01-14T09:11:52Z</time>
      </trkpt>
      <trkpt lat="44.43949" lon="7.10909">
        <ele>1729.07</ele>
        <time>2021-01-14T09:12:13Z</time>
      </trkpt>
      <trkpt lat="44.4395" lon="7.10905">
        <ele>1730.51</ele>
        <time>2021-01-14T09:12:36Z</time>
      </trkpt>
      <trkpt lat="44.4395" lon="7.10907">
        <ele>1736.28</ele>
        <time>2021-01-14T09:13:01Z</time>
      </trkpt>
      <trkpt lat="44.43947" lon="7.10916">
        <ele>1733.88</ele>
        <time>2021-01-14T09:13:14Z</time>
      </trkpt>
      <trkpt lat="44.43942" lon="7.10922">
        <ele>1730.51</ele>
        <time>2021-01-14T09:13:29Z</time>
      </trkpt>
      <trkpt lat="44.43943" lon="7.10931">
        <ele>1730.99</ele>
        <time>2021-01-14T09:13:41Z</time>
      </trkpt>
      <trkpt lat="44.43937" lon="7.10929">
        <ele>1730.99</ele>
        <time>2021-01-14T09:13:59Z</time>
      </trkpt>
      <trkpt lat="44.43935" lon="7.10943">
        <ele>1730.99</ele>
        <time>2021-01-14T09:14:16Z</time>
      </trkpt>
      <trkpt lat="44.43939" lon="7.10956">
        <ele>1734.36</ele>
        <time>2021-01-14T09:14:32Z</time>
      </trkpt>
      <trkpt lat="44.43937" lon="7.1096">
        <ele>1735.8</ele>
        <time>2021-01-14T09:14:43Z</time>
      </trkpt>
      <trkpt lat="44.43935" lon="7.10965">
        <ele>1735.8</ele>
        <time>2021-01-14T09:14:57Z</time>
      </trkpt>
      <trkpt lat="44.43924" lon="7.10961">
        <ele>1738.2</ele>
        <time>2021-01-14T09:15:13Z</time>
      </trkpt>
      <trkpt lat="44.4392" lon="7.10969">
        <ele>1740.6</ele>
        <time>2021-01-14T09:15:31Z</time>
      </trkpt>
      <trkpt lat="44.43913" lon="7.10973">
        <ele>1743.49</ele>
        <time>2021-01-14T09:15:47Z</time>
      </trkpt>
      <trkpt lat="44.4391" lon="7.10977">
        <ele>1745.41</ele>
        <time>2021-01-14T09:15:59Z</time>
      </trkpt>
      <trkpt lat="44.43907" lon="7.10982">
        <ele>1749.74</ele>
        <time>2021-01-14T09:16:13Z</time>
      </trkpt>
      <trkpt lat="44.43905" lon="7.10988">
        <ele>1751.66</ele>
        <time>2021-01-14T09:16:33Z</time>
      </trkpt>
      <trkpt lat="44.43899" lon="7.10987">
        <ele>1753.58</ele>
        <time>2021-01-14T09:16:45Z</time>
      </trkpt>
      <trkpt lat="44.43898" lon="7.10988">
        <ele>1754.06</ele>
        <time>2021-01-14T09:16:48Z</time>
      </trkpt>
      <trkpt lat="44.4389" lon="7.10992">
        <ele>1756.47</ele>
        <time>2021-01-14T09:17:04Z</time>
      </trkpt>
      <trkpt lat="44.43879" lon="7.11001">
        <ele>1758.87</ele>
        <time>2021-01-14T09:17:24Z</time>
      </trkpt>
      <trkpt lat="44.43878" lon="7.11013">
        <ele>1758.87</ele>
        <time>2021-01-14T09:17:40Z</time>
      </trkpt>
      <trkpt lat="44.43881" lon="7.11026">
        <ele>1764.16</ele>
        <time>2021-01-14T09:17:57Z</time>
      </trkpt>
      <trkpt lat="44.43881" lon="7.11033">
        <ele>1763.2</ele>
        <time>2021-01-14T09:18:14Z</time>
      </trkpt>
      <trkpt lat="44.43876" lon="7.11035">
        <ele>1767.52</ele>
        <time>2021-01-14T09:18:29Z</time>
      </trkpt>
      <trkpt lat="44.43875" lon="7.11047">
        <ele>1768.48</ele>
        <time>2021-01-14T09:18:42Z</time>
      </trkpt>
      <trkpt lat="44.43877" lon="7.11061">
        <ele>1770.41</ele>
        <time>2021-01-14T09:19:01Z</time>
      </trkpt>
      <trkpt lat="44.43885" lon="7.11066">
        <ele>1772.81</ele>
        <time>2021-01-14T09:19:16Z</time>
      </trkpt>
      <trkpt lat="44.4389" lon="7.11078">
        <ele>1777.13</ele>
        <time>2021-01-14T09:19:34Z</time>
      </trkpt>
      <trkpt lat="44.43895" lon="7.11092">
        <ele>1776.65</ele>
        <time>2021-01-14T09:19:52Z</time>
      </trkpt>
      <trkpt lat="44.43895" lon="7.11104">
        <ele>1775.21</ele>
        <time>2021-01-14T09:20:05Z</time>
      </trkpt>
      <trkpt lat="44.43897" lon="7.11118">
        <ele>1776.17</ele>
        <time>2021-01-14T09:20:21Z</time>
      </trkpt>
      <trkpt lat="44.43898" lon="7.11126">
        <ele>1777.61</ele>
        <time>2021-01-14T09:20:33Z</time>
      </trkpt>
      <trkpt lat="44.43898" lon="7.11139">
        <ele>1777.13</ele>
        <time>2021-01-14T09:20:48Z</time>
      </trkpt>
      <trkpt lat="44.43898" lon="7.11152">
        <ele>1776.65</ele>
        <time>2021-01-14T09:21:02Z</time>
      </trkpt>
      <trkpt lat="44.43896" lon="7.11169">
        <ele>1780.5</ele>
        <time>2021-01-14T09:21:17Z</time>
      </trkpt>
      <trkpt lat="44.43898" lon="7.11189">
        <ele>1786.75</ele>
        <time>2021-01-14T09:21:35Z</time>
      </trkpt>
      <trkpt lat="44.43901" lon="7.11192">
        <ele>1787.71</ele>
        <time>2021-01-14T09:21:39Z</time>
      </trkpt>
      <trkpt lat="44.43906" lon="7.112">
        <ele>1789.15</ele>
        <time>2021-01-14T09:21:50Z</time>
      </trkpt>
      <trkpt lat="44.43904" lon="7.11216">
        <ele>1793</ele>
        <time>2021-01-14T09:22:07Z</time>
      </trkpt>
      <trkpt lat="44.43907" lon="7.11217">
        <ele>1793.48</ele>
        <time>2021-01-14T09:22:19Z</time>
      </trkpt>
      <trkpt lat="44.43906" lon="7.11224">
        <ele>1795.4</ele>
        <time>2021-01-14T09:22:34Z</time>
      </trkpt>
      <trkpt lat="44.43905" lon="7.11233">
        <ele>1795.4</ele>
        <time>2021-01-14T09:22:47Z</time>
      </trkpt>
      <trkpt lat="44.43901" lon="7.11248">
        <ele>1795.88</ele>
        <time>2021-01-14T09:23:04Z</time>
      </trkpt>
      <trkpt lat="44.43899" lon="7.11255">
        <ele>1798.28</ele>
        <time>2021-01-14T09:23:20Z</time>
      </trkpt>
      <trkpt lat="44.43893" lon="7.1125">
        <ele>1798.28</ele>
        <time>2021-01-14T09:23:33Z</time>
      </trkpt>
      <trkpt lat="44.43891" lon="7.11258">
        <ele>1804.53</ele>
        <time>2021-01-14T09:23:52Z</time>
      </trkpt>
      <trkpt lat="44.43885" lon="7.11268">
        <ele>1806.45</ele>
        <time>2021-01-14T09:24:06Z</time>
      </trkpt>
      <trkpt lat="44.4388" lon="7.11276">
        <ele>1807.42</ele>
        <time>2021-01-14T09:24:20Z</time>
      </trkpt>
      <trkpt lat="44.43878" lon="7.11287">
        <ele>1812.7</ele>
        <time>2021-01-14T09:24:37Z</time>
      </trkpt>
      <trkpt lat="44.43874" lon="7.1129">
        <ele>1815.11</ele>
        <time>2021-01-14T09:24:53Z</time>
      </trkpt>
      <trkpt lat="44.4387" lon="7.11296">
        <ele>1819.43</ele>
        <time>2021-01-14T09:25:08Z</time>
      </trkpt>
      <trkpt lat="44.43867" lon="7.11308">
        <ele>1821.35</ele>
        <time>2021-01-14T09:25:21Z</time>
      </trkpt>
      <trkpt lat="44.43865" lon="7.1131">
        <ele>1823.76</ele>
        <time>2021-01-14T09:25:36Z</time>
      </trkpt>
      <trkpt lat="44.43862" lon="7.11323">
        <ele>1827.6</ele>
        <time>2021-01-14T09:25:51Z</time>
      </trkpt>
      <trkpt lat="44.43855" lon="7.11331">
        <ele>1830.49</ele>
        <time>2021-01-14T09:26:04Z</time>
      </trkpt>
      <trkpt lat="44.43852" lon="7.11339">
        <ele>1835.77</ele>
        <time>2021-01-14T09:26:20Z</time>
      </trkpt>
      <trkpt lat="44.43854" lon="7.11361">
        <ele>1838.18</ele>
        <time>2021-01-14T09:26:39Z</time>
      </trkpt>
      <trkpt lat="44.43854" lon="7.11371">
        <ele>1837.7</ele>
        <time>2021-01-14T09:26:51Z</time>
      </trkpt>
      <trkpt lat="44.43858" lon="7.1138">
        <ele>1838.66</ele>
        <time>2021-01-14T09:27:05Z</time>
      </trkpt>
      <trkpt lat="44.43861" lon="7.11392">
        <ele>1841.06</ele>
        <time>2021-01-14T09:27:24Z</time>
      </trkpt>
      <trkpt lat="44.43862" lon="7.11405">
        <ele>1843.95</ele>
        <time>2021-01-14T09:27:41Z</time>
      </trkpt>
      <trkpt lat="44.43859" lon="7.11417">
        <ele>1844.43</ele>
        <time>2021-01-14T09:28:00Z</time>
      </trkpt>
      <trkpt lat="44.4386" lon="7.11426">
        <ele>1843.95</ele>
        <time>2021-01-14T09:28:15Z</time>
      </trkpt>
      <trkpt lat="44.4386" lon="7.11436">
        <ele>1847.79</ele>
        <time>2021-01-14T09:28:31Z</time>
      </trkpt>
      <trkpt lat="44.43858" lon="7.11448">
        <ele>1850.19</ele>
        <time>2021-01-14T09:28:47Z</time>
      </trkpt>
      <trkpt lat="44.43855" lon="7.11459">
        <ele>1851.16</ele>
        <time>2021-01-14T09:29:05Z</time>
      </trkpt>
      <trkpt lat="44.43851" lon="7.11471">
        <ele>1851.16</ele>
        <time>2021-01-14T09:29:22Z</time>
      </trkpt>
      <trkpt lat="44.43847" lon="7.11477">
        <ele>1856.92</ele>
        <time>2021-01-14T09:29:38Z</time>
      </trkpt>
      <trkpt lat="44.43841" lon="7.11491">
        <ele>1859.81</ele>
        <time>2021-01-14T09:29:54Z</time>
      </trkpt>
      <trkpt lat="44.43838" lon="7.11498">
        <ele>1862.69</ele>
        <time>2021-01-14T09:30:08Z</time>
      </trkpt>
      <trkpt lat="44.43834" lon="7.11498">
        <ele>1863.65</ele>
        <time>2021-01-14T09:30:24Z</time>
      </trkpt>
      <trkpt lat="44.43834" lon="7.11496">
        <ele>1864.13</ele>
        <time>2021-01-14T09:30:41Z</time>
      </trkpt>
      <trkpt lat="44.43843" lon="7.11501">
        <ele>1860.29</ele>
        <time>2021-01-14T09:31:14Z</time>
      </trkpt>
      <trkpt lat="44.43847" lon="7.11506">
        <ele>1864.61</ele>
        <time>2021-01-14T09:31:41Z</time>
      </trkpt>
      <trkpt lat="44.43844" lon="7.11494">
        <ele>1867.5</ele>
        <time>2021-01-14T09:32:07Z</time>
      </trkpt>
      <trkpt lat="44.43836" lon="7.115">
        <ele>1864.13</ele>
        <time>2021-01-14T09:32:29Z</time>
      </trkpt>
      <trkpt lat="44.4384" lon="7.115">
        <ele>1855</ele>
        <time>2021-01-14T09:32:49Z</time>
      </trkpt>
      <trkpt lat="44.43835" lon="7.11497">
        <ele>1861.73</ele>
        <time>2021-01-14T09:33:10Z</time>
      </trkpt>
      <trkpt lat="44.43831" lon="7.11501">
        <ele>1869.42</ele>
        <time>2021-01-14T09:33:33Z</time>
      </trkpt>
      <trkpt lat="44.43829" lon="7.11507">
        <ele>1870.38</ele>
        <time>2021-01-14T09:33:48Z</time>
      </trkpt>
      <trkpt lat="44.43828" lon="7.11513">
        <ele>1869.9</ele>
        <time>2021-01-14T09:34:14Z</time>
      </trkpt>
      <trkpt lat="44.43829" lon="7.11516">
        <ele>1872.79</ele>
        <time>2021-01-14T09:34:37Z</time>
      </trkpt>
      <trkpt lat="44.43827" lon="7.11516">
        <ele>1874.71</ele>
        <time>2021-01-14T09:34:57Z</time>
      </trkpt>
      <trkpt lat="44.43827" lon="7.11521">
        <ele>1877.59</ele>
        <time>2021-01-14T09:35:17Z</time>
      </trkpt>
      <trkpt lat="44.43827" lon="7.11524">
        <ele>1876.63</ele>
        <time>2021-01-14T09:35:31Z</time>
      </trkpt>
      <trkpt lat="44.43824" lon="7.11535">
        <ele>1876.63</ele>
        <time>2021-01-14T09:35:46Z</time>
      </trkpt>
      <trkpt lat="44.43826" lon="7.11538">
        <ele>1877.59</ele>
        <time>2021-01-14T09:36:03Z</time>
      </trkpt>
      <trkpt lat="44.43821" lon="7.11551">
        <ele>1876.63</ele>
        <time>2021-01-14T09:36:16Z</time>
      </trkpt>
      <trkpt lat="44.43816" lon="7.11559">
        <ele>1877.11</ele>
        <time>2021-01-14T09:36:34Z</time>
      </trkpt>
      <trkpt lat="44.43808" lon="7.11569">
        <ele>1876.63</ele>
        <time>2021-01-14T09:36:50Z</time>
      </trkpt>
      <trkpt lat="44.43805" lon="7.11575">
        <ele>1878.07</ele>
        <time>2021-01-14T09:37:04Z</time>
      </trkpt>
      <trkpt lat="44.43799" lon="7.11583">
        <ele>1880.48</ele>
        <time>2021-01-14T09:37:17Z</time>
      </trkpt>
      <trkpt lat="44.43794" lon="7.11595">
        <ele>1886.24</ele>
        <time>2021-01-14T09:37:32Z</time>
      </trkpt>
      <trkpt lat="44.43794" lon="7.11596">
        <ele>1887.21</ele>
        <time>2021-01-14T09:37:35Z</time>
      </trkpt>
      <trkpt lat="44.43786" lon="7.11605">
        <ele>1890.09</ele>
        <time>2021-01-14T09:37:54Z</time>
      </trkpt>
      <trkpt lat="44.43781" lon="7.11616">
        <ele>1892.97</ele>
        <time>2021-01-14T09:38:13Z</time>
      </trkpt>
      <trkpt lat="44.43777" lon="7.11628">
        <ele>1895.38</ele>
        <time>2021-01-14T09:38:29Z</time>
      </trkpt>
      <trkpt lat="44.43775" lon="7.1164">
        <ele>1896.34</ele>
        <time>2021-01-14T09:38:43Z</time>
      </trkpt>
      <trkpt lat="44.4377" lon="7.11654">
        <ele>1896.82</ele>
        <time>2021-01-14T09:39:02Z</time>
      </trkpt>
      <trkpt lat="44.43768" lon="7.11662">
        <ele>1897.3</ele>
        <time>2021-01-14T09:39:15Z</time>
      </trkpt>
      <trkpt lat="44.43763" lon="7.11675">
        <ele>1899.7</ele>
        <time>2021-01-14T09:39:32Z</time>
      </trkpt>
      <trkpt lat="44.43761" lon="7.11688">
        <ele>1901.14</ele>
        <time>2021-01-14T09:39:47Z</time>
      </trkpt>
      <trkpt lat="44.43755" lon="7.11699">
        <ele>1902.11</ele>
        <time>2021-01-14T09:40:02Z</time>
      </trkpt>
      <trkpt lat="44.43754" lon="7.1171">
        <ele>1906.91</ele>
        <time>2021-01-14T09:40:17Z</time>
      </trkpt>
      <trkpt lat="44.43747" lon="7.11724">
        <ele>1909.8</ele>
        <time>2021-01-14T09:40:35Z</time>
      </trkpt>
      <trkpt lat="44.43741" lon="7.11738">
        <ele>1913.16</ele>
        <time>2021-01-14T09:40:54Z</time>
      </trkpt>
      <trkpt lat="44.43735" lon="7.11749">
        <ele>1913.64</ele>
        <time>2021-01-14T09:41:09Z</time>
      </trkpt>
      <trkpt lat="44.43732" lon="7.11763">
        <ele>1916.04</ele>
        <time>2021-01-14T09:41:25Z</time>
      </trkpt>
      <trkpt lat="44.4373" lon="7.11765">
        <ele>1919.41</ele>
        <time>2021-01-14T09:41:39Z</time>
      </trkpt>
      <trkpt lat="44.43731" lon="7.11764">
        <ele>1921.33</ele>
        <time>2021-01-14T09:41:56Z</time>
      </trkpt>
      <trkpt lat="44.43728" lon="7.11765">
        <ele>1925.66</ele>
        <time>2021-01-14T09:42:14Z</time>
      </trkpt>
      <trkpt lat="44.43728" lon="7.11767">
        <ele>1928.06</ele>
        <time>2021-01-14T09:42:32Z</time>
      </trkpt>
      <trkpt lat="44.43727" lon="7.11769">
        <ele>1930.46</ele>
        <time>2021-01-14T09:42:49Z</time>
      </trkpt>
      <trkpt lat="44.43729" lon="7.11767">
        <ele>1936.23</ele>
        <time>2021-01-14T09:43:11Z</time>
      </trkpt>
      <trkpt lat="44.4373" lon="7.11766">
        <ele>1938.16</ele>
        <time>2021-01-14T09:43:30Z</time>
      </trkpt>
      <trkpt lat="44.43739" lon="7.11762">
        <ele>1938.16</ele>
        <time>2021-01-14T09:43:49Z</time>
      </trkpt>
      <trkpt lat="44.43738" lon="7.11766">
        <ele>1941.04</ele>
        <time>2021-01-14T09:44:21Z</time>
      </trkpt>
      <trkpt lat="44.43742" lon="7.11759">
        <ele>1942.96</ele>
        <time>2021-01-14T09:44:50Z</time>
      </trkpt>
      <trkpt lat="44.43745" lon="7.1177">
        <ele>1945.36</ele>
        <time>2021-01-14T09:45:04Z</time>
      </trkpt>
      <trkpt lat="44.43744" lon="7.11778">
        <ele>1942.96</ele>
        <time>2021-01-14T09:45:18Z</time>
      </trkpt>
      <trkpt lat="44.43735" lon="7.11791">
        <ele>1943.44</ele>
        <time>2021-01-14T09:45:32Z</time>
      </trkpt>
      <trkpt lat="44.4373" lon="7.11802">
        <ele>1943.44</ele>
        <time>2021-01-14T09:45:46Z</time>
      </trkpt>
      <trkpt lat="44.43731" lon="7.11814">
        <ele>1944.88</ele>
        <time>2021-01-14T09:46:02Z</time>
      </trkpt>
      <trkpt lat="44.43735" lon="7.11824">
        <ele>1944.88</ele>
        <time>2021-01-14T09:46:17Z</time>
      </trkpt>
      <trkpt lat="44.43733" lon="7.11837">
        <ele>1948.73</ele>
        <time>2021-01-14T09:46:36Z</time>
      </trkpt>
      <trkpt lat="44.43732" lon="7.11843">
        <ele>1951.13</ele>
        <time>2021-01-14T09:46:52Z</time>
      </trkpt>
      <trkpt lat="44.43721" lon="7.11841">
        <ele>1953.06</ele>
        <time>2021-01-14T09:47:10Z</time>
      </trkpt>
      <trkpt lat="44.43717" lon="7.11846">
        <ele>1955.46</ele>
        <time>2021-01-14T09:47:25Z</time>
      </trkpt>
      <trkpt lat="44.43706" lon="7.11848">
        <ele>1961.23</ele>
        <time>2021-01-14T09:47:45Z</time>
      </trkpt>
      <trkpt lat="44.43703" lon="7.11859">
        <ele>1959.78</ele>
        <time>2021-01-14T09:48:00Z</time>
      </trkpt>
      <trkpt lat="44.43701" lon="7.1186">
        <ele>1962.67</ele>
        <time>2021-01-14T09:48:17Z</time>
      </trkpt>
      <trkpt lat="44.43697" lon="7.11871">
        <ele>1963.15</ele>
        <time>2021-01-14T09:48:36Z</time>
      </trkpt>
      <trkpt lat="44.43691" lon="7.11884">
        <ele>1964.59</ele>
        <time>2021-01-14T09:48:53Z</time>
      </trkpt>
      <trkpt lat="44.43684" lon="7.11888">
        <ele>1966.03</ele>
        <time>2021-01-14T09:49:08Z</time>
      </trkpt>
      <trkpt lat="44.4366" lon="7.11905">
        <ele>1953.06</ele>
        <time>2021-01-14T09:49:26Z</time>
      </trkpt>
      <trkpt lat="44.43655" lon="7.11914">
        <ele>1954.5</ele>
        <time>2021-01-14T09:49:44Z</time>
      </trkpt>
      <trkpt lat="44.4365" lon="7.1193">
        <ele>1958.34</ele>
        <time>2021-01-14T09:50:01Z</time>
      </trkpt>
      <trkpt lat="44.43643" lon="7.11934">
        <ele>1958.82</ele>
        <time>2021-01-14T09:50:13Z</time>
      </trkpt>
      <trkpt lat="44.43641" lon="7.11941">
        <ele>1961.71</ele>
        <time>2021-01-14T09:50:28Z</time>
      </trkpt>
      <trkpt lat="44.43632" lon="7.11953">
        <ele>1964.59</ele>
        <time>2021-01-14T09:50:49Z</time>
      </trkpt>
      <trkpt lat="44.43631" lon="7.1196">
        <ele>1967.96</ele>
        <time>2021-01-14T09:51:04Z</time>
      </trkpt>
      <trkpt lat="44.43623" lon="7.11965">
        <ele>1968.44</ele>
        <time>2021-01-14T09:51:19Z</time>
      </trkpt>
      <trkpt lat="44.43619" lon="7.11966">
        <ele>1969.88</ele>
        <time>2021-01-14T09:51:32Z</time>
      </trkpt>
      <trkpt lat="44.43615" lon="7.11969">
        <ele>1972.28</ele>
        <time>2021-01-14T09:51:46Z</time>
      </trkpt>
      <trkpt lat="44.43611" lon="7.11973">
        <ele>1974.69</ele>
        <time>2021-01-14T09:52:02Z</time>
      </trkpt>
      <trkpt lat="44.43607" lon="7.11981">
        <ele>1977.09</ele>
        <time>2021-01-14T09:52:18Z</time>
      </trkpt>
      <trkpt lat="44.43602" lon="7.11981">
        <ele>1979.97</ele>
        <time>2021-01-14T09:52:34Z</time>
      </trkpt>
      <trkpt lat="44.43601" lon="7.11992">
        <ele>1982.86</ele>
        <time>2021-01-14T09:52:50Z</time>
      </trkpt>
      <trkpt lat="44.43602" lon="7.12">
        <ele>1988.14</ele>
        <time>2021-01-14T09:53:07Z</time>
      </trkpt>
      <trkpt lat="44.43605" lon="7.11993">
        <ele>1990.55</ele>
        <time>2021-01-14T09:53:25Z</time>
      </trkpt>
      <trkpt lat="44.43596" lon="7.1199">
        <ele>1993.91</ele>
        <time>2021-01-14T09:53:39Z</time>
      </trkpt>
      <trkpt lat="44.43593" lon="7.11988">
        <ele>1994.39</ele>
        <time>2021-01-14T09:53:42Z</time>
      </trkpt>
      <trkpt lat="44.43593" lon="7.11983">
        <ele>1998.72</ele>
        <time>2021-01-14T09:53:54Z</time>
      </trkpt>
      <trkpt lat="44.43585" lon="7.11981">
        <ele>2001.6</ele>
        <time>2021-01-14T09:54:07Z</time>
      </trkpt>
      <trkpt lat="44.43593" lon="7.11991">
        <ele>2002.56</ele>
        <time>2021-01-14T09:54:22Z</time>
      </trkpt>
      <trkpt lat="44.43597" lon="7.11989">
        <ele>2004.49</ele>
        <time>2021-01-14T09:54:55Z</time>
      </trkpt>
      <trkpt lat="44.43587" lon="7.12001">
        <ele>2000.64</ele>
        <time>2021-01-14T09:55:15Z</time>
      </trkpt>
      <trkpt lat="44.4359" lon="7.12014">
        <ele>2004.01</ele>
        <time>2021-01-14T09:55:31Z</time>
      </trkpt>
      <trkpt lat="44.43594" lon="7.12026">
        <ele>2008.33</ele>
        <time>2021-01-14T09:55:48Z</time>
      </trkpt>
      <trkpt lat="44.43593" lon="7.12029">
        <ele>2008.33</ele>
        <time>2021-01-14T09:56:07Z</time>
      </trkpt>
      <trkpt lat="44.43597" lon="7.12036">
        <ele>2009.77</ele>
        <time>2021-01-14T09:56:20Z</time>
      </trkpt>
      <trkpt lat="44.43596" lon="7.12045">
        <ele>2006.89</ele>
        <time>2021-01-14T09:56:34Z</time>
      </trkpt>
      <trkpt lat="44.43601" lon="7.12051">
        <ele>2004.49</ele>
        <time>2021-01-14T09:56:48Z</time>
      </trkpt>
      <trkpt lat="44.43604" lon="7.12055">
        <ele>2003.52</ele>
        <time>2021-01-14T09:56:54Z</time>
      </trkpt>
      <trkpt lat="44.43607" lon="7.12062">
        <ele>2001.6</ele>
        <time>2021-01-14T09:57:10Z</time>
      </trkpt>
      <trkpt lat="44.43608" lon="7.12074">
        <ele>2002.08</ele>
        <time>2021-01-14T09:57:26Z</time>
      </trkpt>
      <trkpt lat="44.43605" lon="7.12089">
        <ele>2006.41</ele>
        <time>2021-01-14T09:57:45Z</time>
      </trkpt>
      <trkpt lat="44.43599" lon="7.12089">
        <ele>2006.89</ele>
        <time>2021-01-14T09:58:01Z</time>
      </trkpt>
      <trkpt lat="44.436" lon="7.12101">
        <ele>2007.85</ele>
        <time>2021-01-14T09:58:16Z</time>
      </trkpt>
      <trkpt lat="44.43601" lon="7.12115">
        <ele>2009.77</ele>
        <time>2021-01-14T09:58:34Z</time>
      </trkpt>
      <trkpt lat="44.43596" lon="7.12115">
        <ele>2011.22</ele>
        <time>2021-01-14T09:58:46Z</time>
      </trkpt>
      <trkpt lat="44.43599" lon="7.12122">
        <ele>2016.02</ele>
        <time>2021-01-14T09:59:01Z</time>
      </trkpt>
      <trkpt lat="44.436" lon="7.12133">
        <ele>2017.94</ele>
        <time>2021-01-14T09:59:14Z</time>
      </trkpt>
      <trkpt lat="44.436" lon="7.12145">
        <ele>2019.87</ele>
        <time>2021-01-14T09:59:27Z</time>
      </trkpt>
      <trkpt lat="44.43602" lon="7.12152">
        <ele>2020.83</ele>
        <time>2021-01-14T09:59:39Z</time>
      </trkpt>
      <trkpt lat="44.43608" lon="7.12166">
        <ele>2021.31</ele>
        <time>2021-01-14T09:59:52Z</time>
      </trkpt>
      <trkpt lat="44.43605" lon="7.1218">
        <ele>2020.83</ele>
        <time>2021-01-14T10:00:07Z</time>
      </trkpt>
      <trkpt lat="44.43604" lon="7.1219">
        <ele>2020.83</ele>
        <time>2021-01-14T10:00:20Z</time>
      </trkpt>
      <trkpt lat="44.43607" lon="7.122">
        <ele>2024.67</ele>
        <time>2021-01-14T10:00:36Z</time>
      </trkpt>
      <trkpt lat="44.43619" lon="7.12214">
        <ele>2026.12</ele>
        <time>2021-01-14T10:00:52Z</time>
      </trkpt>
      <trkpt lat="44.43621" lon="7.12223">
        <ele>2029</ele>
        <time>2021-01-14T10:01:10Z</time>
      </trkpt>
      <trkpt lat="44.43624" lon="7.12236">
        <ele>2033.33</ele>
        <time>2021-01-14T10:01:29Z</time>
      </trkpt>
      <trkpt lat="44.43627" lon="7.1225">
        <ele>2034.29</ele>
        <time>2021-01-14T10:01:45Z</time>
      </trkpt>
      <trkpt lat="44.43634" lon="7.12263">
        <ele>2034.77</ele>
        <time>2021-01-14T10:02:01Z</time>
      </trkpt>
      <trkpt lat="44.43638" lon="7.1228">
        <ele>2033.81</ele>
        <time>2021-01-14T10:02:17Z</time>
      </trkpt>
      <trkpt lat="44.43642" lon="7.12292">
        <ele>2034.77</ele>
        <time>2021-01-14T10:02:33Z</time>
      </trkpt>
      <trkpt lat="44.43647" lon="7.123">
        <ele>2039.57</ele>
        <time>2021-01-14T10:02:49Z</time>
      </trkpt>
      <trkpt lat="44.43654" lon="7.12306">
        <ele>2044.38</ele>
        <time>2021-01-14T10:03:05Z</time>
      </trkpt>
      <trkpt lat="44.43659" lon="7.12315">
        <ele>2045.82</ele>
        <time>2021-01-14T10:03:22Z</time>
      </trkpt>
      <trkpt lat="44.43661" lon="7.12319">
        <ele>2049.19</ele>
        <time>2021-01-14T10:03:40Z</time>
      </trkpt>
      <trkpt lat="44.43663" lon="7.12317">
        <ele>2053.03</ele>
        <time>2021-01-14T10:04:01Z</time>
      </trkpt>
      <trkpt lat="44.43668" lon="7.12319">
        <ele>2054.96</ele>
        <time>2021-01-14T10:04:31Z</time>
      </trkpt>
      <trkpt lat="44.43662" lon="7.12323">
        <ele>2051.59</ele>
        <time>2021-01-14T10:04:52Z</time>
      </trkpt>
      <trkpt lat="44.43662" lon="7.12329">
        <ele>2053.51</ele>
        <time>2021-01-14T10:05:09Z</time>
      </trkpt>
      <trkpt lat="44.43663" lon="7.12334">
        <ele>2053.51</ele>
        <time>2021-01-14T10:05:18Z</time>
      </trkpt>
      <trkpt lat="44.43669" lon="7.12346">
        <ele>2053.51</ele>
        <time>2021-01-14T10:05:33Z</time>
      </trkpt>
      <trkpt lat="44.43661" lon="7.12351">
        <ele>2056.4</ele>
        <time>2021-01-14T10:05:47Z</time>
      </trkpt>
      <trkpt lat="44.43659" lon="7.12351">
        <ele>2056.88</ele>
        <time>2021-01-14T10:05:58Z</time>
      </trkpt>
      <trkpt lat="44.43658" lon="7.12355">
        <ele>2058.32</ele>
        <time>2021-01-14T10:06:11Z</time>
      </trkpt>
      <trkpt lat="44.43657" lon="7.12365">
        <ele>2059.28</ele>
        <time>2021-01-14T10:06:25Z</time>
      </trkpt>
      <trkpt lat="44.43656" lon="7.12376">
        <ele>2060.24</ele>
        <time>2021-01-14T10:06:40Z</time>
      </trkpt>
      <trkpt lat="44.43655" lon="7.12387">
        <ele>2062.17</ele>
        <time>2021-01-14T10:06:52Z</time>
      </trkpt>
      <trkpt lat="44.43655" lon="7.12396">
        <ele>2063.13</ele>
        <time>2021-01-14T10:07:05Z</time>
      </trkpt>
      <trkpt lat="44.43653" lon="7.12407">
        <ele>2065.53</ele>
        <time>2021-01-14T10:07:18Z</time>
      </trkpt>
      <trkpt lat="44.4365" lon="7.12418">
        <ele>2067.45</ele>
        <time>2021-01-14T10:07:35Z</time>
      </trkpt>
      <trkpt lat="44.43649" lon="7.12429">
        <ele>2068.89</ele>
        <time>2021-01-14T10:07:50Z</time>
      </trkpt>
      <trkpt lat="44.43649" lon="7.12431">
        <ele>2069.38</ele>
        <time>2021-01-14T10:07:52Z</time>
      </trkpt>
      <trkpt lat="44.43648" lon="7.12446">
        <ele>2071.78</ele>
        <time>2021-01-14T10:08:06Z</time>
      </trkpt>
      <trkpt lat="44.43645" lon="7.12457">
        <ele>2073.22</ele>
        <time>2021-01-14T10:08:20Z</time>
      </trkpt>
      <trkpt lat="44.43642" lon="7.1247">
        <ele>2075.14</ele>
        <time>2021-01-14T10:08:34Z</time>
      </trkpt>
      <trkpt lat="44.4364" lon="7.12482">
        <ele>2077.07</ele>
        <time>2021-01-14T10:08:47Z</time>
      </trkpt>
      <trkpt lat="44.43638" lon="7.12495">
        <ele>2079.95</ele>
        <time>2021-01-14T10:09:02Z</time>
      </trkpt>
      <trkpt lat="44.43635" lon="7.12504">
        <ele>2080.43</ele>
        <time>2021-01-14T10:09:15Z</time>
      </trkpt>
      <trkpt lat="44.43632" lon="7.12512">
        <ele>2083.31</ele>
        <time>2021-01-14T10:09:29Z</time>
      </trkpt>
      <trkpt lat="44.43631" lon="7.12525">
        <ele>2088.6</ele>
        <time>2021-01-14T10:09:47Z</time>
      </trkpt>
      <trkpt lat="44.43625" lon="7.12537">
        <ele>2089.56</ele>
        <time>2021-01-14T10:10:03Z</time>
      </trkpt>
      <trkpt lat="44.43625" lon="7.12552">
        <ele>2091.97</ele>
        <time>2021-01-14T10:10:21Z</time>
      </trkpt>
      <trkpt lat="44.43622" lon="7.12564">
        <ele>2092.45</ele>
        <time>2021-01-14T10:10:36Z</time>
      </trkpt>
      <trkpt lat="44.43619" lon="7.12578">
        <ele>2093.41</ele>
        <time>2021-01-14T10:10:49Z</time>
      </trkpt>
      <trkpt lat="44.43615" lon="7.12589">
        <ele>2094.85</ele>
        <time>2021-01-14T10:11:04Z</time>
      </trkpt>
      <trkpt lat="44.4361" lon="7.12597">
        <ele>2097.25</ele>
        <time>2021-01-14T10:11:17Z</time>
      </trkpt>
      <trkpt lat="44.43605" lon="7.12607">
        <ele>2096.77</ele>
        <time>2021-01-14T10:11:31Z</time>
      </trkpt>
      <trkpt lat="44.43602" lon="7.12612">
        <ele>2097.25</ele>
        <time>2021-01-14T10:11:45Z</time>
      </trkpt>
      <trkpt lat="44.43594" lon="7.12616">
        <ele>2097.73</ele>
        <time>2021-01-14T10:12:01Z</time>
      </trkpt>
      <trkpt lat="44.43588" lon="7.12618">
        <ele>2100.62</ele>
        <time>2021-01-14T10:12:17Z</time>
      </trkpt>
      <trkpt lat="44.43587" lon="7.12623">
        <ele>2100.62</ele>
        <time>2021-01-14T10:12:31Z</time>
      </trkpt>
      <trkpt lat="44.43596" lon="7.12624">
        <ele>2097.73</ele>
        <time>2021-01-14T10:12:48Z</time>
      </trkpt>
      <trkpt lat="44.43597" lon="7.12627">
        <ele>2096.77</ele>
        <time>2021-01-14T10:13:09Z</time>
      </trkpt>
      <trkpt lat="44.43604" lon="7.12628">
        <ele>2097.73</ele>
        <time>2021-01-14T10:13:33Z</time>
      </trkpt>
      <trkpt lat="44.43604" lon="7.12634">
        <ele>2099.18</ele>
        <time>2021-01-14T10:13:45Z</time>
      </trkpt>
      <trkpt lat="44.43601" lon="7.12637">
        <ele>2106.87</ele>
        <time>2021-01-14T10:14:05Z</time>
      </trkpt>
      <trkpt lat="44.436" lon="7.12635">
        <ele>2109.27</ele>
        <time>2021-01-14T10:14:18Z</time>
      </trkpt>
      <trkpt lat="44.43599" lon="7.12635">
        <ele>2108.79</ele>
        <time>2021-01-14T10:14:43Z</time>
      </trkpt>
      <trkpt lat="44.43599" lon="7.12642">
        <ele>2109.75</ele>
        <time>2021-01-14T10:15:01Z</time>
      </trkpt>
      <trkpt lat="44.43598" lon="7.1265">
        <ele>2110.71</ele>
        <time>2021-01-14T10:15:14Z</time>
      </trkpt>
      <trkpt lat="44.43593" lon="7.12654">
        <ele>2110.71</ele>
        <time>2021-01-14T10:15:27Z</time>
      </trkpt>
      <trkpt lat="44.43586" lon="7.12657">
        <ele>2115.52</ele>
        <time>2021-01-14T10:15:44Z</time>
      </trkpt>
      <trkpt lat="44.43576" lon="7.1266">
        <ele>2116.48</ele>
        <time>2021-01-14T10:16:00Z</time>
      </trkpt>
      <trkpt lat="44.43565" lon="7.12657">
        <ele>2118.4</ele>
        <time>2021-01-14T10:16:15Z</time>
      </trkpt>
      <trkpt lat="44.4356" lon="7.12656">
        <ele>2119.84</ele>
        <time>2021-01-14T10:16:28Z</time>
      </trkpt>
      <trkpt lat="44.43559" lon="7.12671">
        <ele>2125.13</ele>
        <time>2021-01-14T10:16:46Z</time>
      </trkpt>
      <trkpt lat="44.43558" lon="7.12682">
        <ele>2129.46</ele>
        <time>2021-01-14T10:17:04Z</time>
      </trkpt>
      <trkpt lat="44.43551" lon="7.12679">
        <ele>2128.02</ele>
        <time>2021-01-14T10:17:18Z</time>
      </trkpt>
      <trkpt lat="44.43543" lon="7.12678">
        <ele>2129.46</ele>
        <time>2021-01-14T10:17:32Z</time>
      </trkpt>
      <trkpt lat="44.43535" lon="7.12675">
        <ele>2132.34</ele>
        <time>2021-01-14T10:17:49Z</time>
      </trkpt>
      <trkpt lat="44.43527" lon="7.12675">
        <ele>2133.3</ele>
        <time>2021-01-14T10:18:04Z</time>
      </trkpt>
      <trkpt lat="44.43517" lon="7.12676">
        <ele>2137.15</ele>
        <time>2021-01-14T10:18:22Z</time>
      </trkpt>
      <trkpt lat="44.43507" lon="7.12675">
        <ele>2140.03</ele>
        <time>2021-01-14T10:18:39Z</time>
      </trkpt>
      <trkpt lat="44.43497" lon="7.12672">
        <ele>2141.95</ele>
        <time>2021-01-14T10:18:54Z</time>
      </trkpt>
      <trkpt lat="44.4349" lon="7.12666">
        <ele>2141.95</ele>
        <time>2021-01-14T10:19:12Z</time>
      </trkpt>
      <trkpt lat="44.43484" lon="7.12661">
        <ele>2142.92</ele>
        <time>2021-01-14T10:19:26Z</time>
      </trkpt>
      <trkpt lat="44.4348" lon="7.12657">
        <ele>2143.4</ele>
        <time>2021-01-14T10:19:39Z</time>
      </trkpt>
      <trkpt lat="44.43487" lon="7.1265">
        <ele>2142.92</ele>
        <time>2021-01-14T10:19:51Z</time>
      </trkpt>
      <trkpt lat="44.43494" lon="7.12641">
        <ele>2142.44</ele>
        <time>2021-01-14T10:20:04Z</time>
      </trkpt>
      <trkpt lat="44.43495" lon="7.12631">
        <ele>2143.88</ele>
        <time>2021-01-14T10:20:18Z</time>
      </trkpt>
      <trkpt lat="44.4349" lon="7.12629">
        <ele>2143.4</ele>
        <time>2021-01-14T10:20:29Z</time>
      </trkpt>
      <trkpt lat="44.43482" lon="7.12634">
        <ele>2146.28</ele>
        <time>2021-01-14T10:20:43Z</time>
      </trkpt>
      <trkpt lat="44.43482" lon="7.12639">
        <ele>2150.13</ele>
        <time>2021-01-14T10:20:56Z</time>
      </trkpt>
      <trkpt lat="44.43478" lon="7.12641">
        <ele>2153.01</ele>
        <time>2021-01-14T10:21:09Z</time>
      </trkpt>
      <trkpt lat="44.4348" lon="7.12633">
        <ele>2152.05</ele>
        <time>2021-01-14T10:21:25Z</time>
      </trkpt>
      <trkpt lat="44.43487" lon="7.1262">
        <ele>2152.05</ele>
        <time>2021-01-14T10:21:39Z</time>
      </trkpt>
      <trkpt lat="44.43487" lon="7.12614">
        <ele>2154.93</ele>
        <time>2021-01-14T10:21:51Z</time>
      </trkpt>
      <trkpt lat="44.43481" lon="7.12616">
        <ele>2155.89</ele>
        <time>2021-01-14T10:22:05Z</time>
      </trkpt>
      <trkpt lat="44.43478" lon="7.12616">
        <ele>2157.82</ele>
        <time>2021-01-14T10:22:18Z</time>
      </trkpt>
      <trkpt lat="44.43476" lon="7.12602">
        <ele>2158.78</ele>
        <time>2021-01-14T10:22:32Z</time>
      </trkpt>
      <trkpt lat="44.43475" lon="7.12595">
        <ele>2162.62</ele>
        <time>2021-01-14T10:22:51Z</time>
      </trkpt>
      <trkpt lat="44.4347" lon="7.12593">
        <ele>2165.99</ele>
        <time>2021-01-14T10:23:07Z</time>
      </trkpt>
      <trkpt lat="44.43461" lon="7.12588">
        <ele>2166.95</ele>
        <time>2021-01-14T10:23:21Z</time>
      </trkpt>
      <trkpt lat="44.43459" lon="7.12579">
        <ele>2170.31</ele>
        <time>2021-01-14T10:23:37Z</time>
      </trkpt>
      <trkpt lat="44.43455" lon="7.12577">
        <ele>2170.79</ele>
        <time>2021-01-14T10:23:50Z</time>
      </trkpt>
      <trkpt lat="44.43452" lon="7.12588">
        <ele>2170.79</ele>
        <time>2021-01-14T10:24:01Z</time>
      </trkpt>
      <trkpt lat="44.43443" lon="7.12594">
        <ele>2172.24</ele>
        <time>2021-01-14T10:24:18Z</time>
      </trkpt>
      <trkpt lat="44.4344" lon="7.12588">
        <ele>2173.68</ele>
        <time>2021-01-14T10:24:34Z</time>
      </trkpt>
      <trkpt lat="44.43441" lon="7.12577">
        <ele>2175.12</ele>
        <time>2021-01-14T10:24:48Z</time>
      </trkpt>
      <trkpt lat="44.43435" lon="7.12569">
        <ele>2177.04</ele>
        <time>2021-01-14T10:25:04Z</time>
      </trkpt>
      <trkpt lat="44.43424" lon="7.12564">
        <ele>2182.81</ele>
        <time>2021-01-14T10:25:21Z</time>
      </trkpt>
      <trkpt lat="44.43419" lon="7.12553">
        <ele>2183.77</ele>
        <time>2021-01-14T10:25:36Z</time>
      </trkpt>
      <trkpt lat="44.43421" lon="7.12544">
        <ele>2184.25</ele>
        <time>2021-01-14T10:25:49Z</time>
      </trkpt>
      <trkpt lat="44.43423" lon="7.12533">
        <ele>2183.29</ele>
        <time>2021-01-14T10:26:02Z</time>
      </trkpt>
      <trkpt lat="44.4342" lon="7.12528">
        <ele>2183.29</ele>
        <time>2021-01-14T10:26:15Z</time>
      </trkpt>
      <trkpt lat="44.43412" lon="7.12544">
        <ele>2187.14</ele>
        <time>2021-01-14T10:26:34Z</time>
      </trkpt>
      <trkpt lat="44.43408" lon="7.12555">
        <ele>2190.5</ele>
        <time>2021-01-14T10:26:47Z</time>
      </trkpt>
      <trkpt lat="44.43405" lon="7.12564">
        <ele>2193.87</ele>
        <time>2021-01-14T10:27:03Z</time>
      </trkpt>
      <trkpt lat="44.43402" lon="7.12576">
        <ele>2194.35</ele>
        <time>2021-01-14T10:27:20Z</time>
      </trkpt>
      <trkpt lat="44.43397" lon="7.12584">
        <ele>2196.75</ele>
        <time>2021-01-14T10:27:38Z</time>
      </trkpt>
      <trkpt lat="44.43392" lon="7.1259">
        <ele>2198.67</ele>
        <time>2021-01-14T10:27:52Z</time>
      </trkpt>
      <trkpt lat="44.43385" lon="7.12593">
        <ele>2201.56</ele>
        <time>2021-01-14T10:28:10Z</time>
      </trkpt>
      <trkpt lat="44.43384" lon="7.12581">
        <ele>2203.96</ele>
        <time>2021-01-14T10:28:26Z</time>
      </trkpt>
      <trkpt lat="44.43379" lon="7.12584">
        <ele>2204.92</ele>
        <time>2021-01-14T10:28:39Z</time>
      </trkpt>
      <trkpt lat="44.43375" lon="7.12593">
        <ele>2209.73</ele>
        <time>2021-01-14T10:28:53Z</time>
      </trkpt>
      <trkpt lat="44.4337" lon="7.12599">
        <ele>2214.53</ele>
        <time>2021-01-14T10:29:08Z</time>
      </trkpt>
      <trkpt lat="44.43367" lon="7.12603">
        <ele>2213.09</ele>
        <time>2021-01-14T10:29:20Z</time>
      </trkpt>
      <trkpt lat="44.43361" lon="7.12597">
        <ele>2216.46</ele>
        <time>2021-01-14T10:29:38Z</time>
      </trkpt>
      <trkpt lat="44.4336" lon="7.12587">
        <ele>2216.46</ele>
        <time>2021-01-14T10:29:51Z</time>
      </trkpt>
      <trkpt lat="44.43353" lon="7.12588">
        <ele>2217.42</ele>
        <time>2021-01-14T10:30:04Z</time>
      </trkpt>
      <trkpt lat="44.43348" lon="7.1259">
        <ele>2217.9</ele>
        <time>2021-01-14T10:30:19Z</time>
      </trkpt>
      <trkpt lat="44.43341" lon="7.12589">
        <ele>2219.34</ele>
        <time>2021-01-14T10:30:34Z</time>
      </trkpt>
      <trkpt lat="44.43335" lon="7.12579">
        <ele>2222.71</ele>
        <time>2021-01-14T10:30:51Z</time>
      </trkpt>
      <trkpt lat="44.43329" lon="7.12576">
        <ele>2223.67</ele>
        <time>2021-01-14T10:31:04Z</time>
      </trkpt>
      <trkpt lat="44.43322" lon="7.1257">
        <ele>2226.55</ele>
        <time>2021-01-14T10:31:18Z</time>
      </trkpt>
      <trkpt lat="44.43316" lon="7.12567">
        <ele>2228.47</ele>
        <time>2021-01-14T10:31:33Z</time>
      </trkpt>
      <trkpt lat="44.43308" lon="7.12562">
        <ele>2233.76</ele>
        <time>2021-01-14T10:31:51Z</time>
      </trkpt>
      <trkpt lat="44.433" lon="7.12558">
        <ele>2237.13</ele>
        <time>2021-01-14T10:32:06Z</time>
      </trkpt>
      <trkpt lat="44.43297" lon="7.12555">
        <ele>2236.64</ele>
        <time>2021-01-14T10:32:25Z</time>
      </trkpt>
      <trkpt lat="44.43296" lon="7.12551">
        <ele>2237.61</ele>
        <time>2021-01-14T10:32:37Z</time>
      </trkpt>
      <trkpt lat="44.43295" lon="7.12549">
        <ele>2239.53</ele>
        <time>2021-01-14T10:32:51Z</time>
      </trkpt>
      <trkpt lat="44.43295" lon="7.12542">
        <ele>2241.45</ele>
        <time>2021-01-14T10:33:05Z</time>
      </trkpt>
      <trkpt lat="44.4329" lon="7.12543">
        <ele>2241.45</ele>
        <time>2021-01-14T10:33:19Z</time>
      </trkpt>
      <trkpt lat="44.43287" lon="7.12553">
        <ele>2244.33</ele>
        <time>2021-01-14T10:33:36Z</time>
      </trkpt>
      <trkpt lat="44.43282" lon="7.12559">
        <ele>2242.41</ele>
        <time>2021-01-14T10:33:49Z</time>
      </trkpt>
      <trkpt lat="44.43277" lon="7.12568">
        <ele>2246.74</ele>
        <time>2021-01-14T10:34:07Z</time>
      </trkpt>
      <trkpt lat="44.43275" lon="7.12576">
        <ele>2248.18</ele>
        <time>2021-01-14T10:34:21Z</time>
      </trkpt>
      <trkpt lat="44.43273" lon="7.12584">
        <ele>2249.62</ele>
        <time>2021-01-14T10:34:34Z</time>
      </trkpt>
      <trkpt lat="44.43271" lon="7.12593">
        <ele>2252.03</ele>
        <time>2021-01-14T10:34:48Z</time>
      </trkpt>
      <trkpt lat="44.43272" lon="7.12605">
        <ele>2255.87</ele>
        <time>2021-01-14T10:35:03Z</time>
      </trkpt>
      <trkpt lat="44.43273" lon="7.12611">
        <ele>2257.79</ele>
        <time>2021-01-14T10:35:18Z</time>
      </trkpt>
      <trkpt lat="44.43271" lon="7.12611">
        <ele>2257.31</ele>
        <time>2021-01-14T10:35:32Z</time>
      </trkpt>
      <trkpt lat="44.43268" lon="7.12608">
        <ele>2258.75</ele>
        <time>2021-01-14T10:35:43Z</time>
      </trkpt>
      <trkpt lat="44.43262" lon="7.12603">
        <ele>2260.2</ele>
        <time>2021-01-14T10:35:57Z</time>
      </trkpt>
      <trkpt lat="44.43254" lon="7.12601">
        <ele>2263.08</ele>
        <time>2021-01-14T10:36:11Z</time>
      </trkpt>
      <trkpt lat="44.4326" lon="7.12609">
        <ele>2264.52</ele>
        <time>2021-01-14T10:36:27Z</time>
      </trkpt>
      <trkpt lat="44.43261" lon="7.12619">
        <ele>2266.93</ele>
        <time>2021-01-14T10:36:41Z</time>
      </trkpt>
      <trkpt lat="44.43261" lon="7.12627">
        <ele>2268.37</ele>
        <time>2021-01-14T10:36:54Z</time>
      </trkpt>
      <trkpt lat="44.4326" lon="7.12627">
        <ele>2269.33</ele>
        <time>2021-01-14T10:37:07Z</time>
      </trkpt>
      <trkpt lat="44.43253" lon="7.12622">
        <ele>2271.73</ele>
        <time>2021-01-14T10:37:21Z</time>
      </trkpt>
      <trkpt lat="44.43254" lon="7.12634">
        <ele>2274.14</ele>
        <time>2021-01-14T10:37:34Z</time>
      </trkpt>
      <trkpt lat="44.43255" lon="7.12642">
        <ele>2275.58</ele>
        <time>2021-01-14T10:37:47Z</time>
      </trkpt>
      <trkpt lat="44.43253" lon="7.12644">
        <ele>2275.58</ele>
        <time>2021-01-14T10:37:59Z</time>
      </trkpt>
      <trkpt lat="44.43248" lon="7.12643">
        <ele>2277.98</ele>
        <time>2021-01-14T10:38:12Z</time>
      </trkpt>
      <trkpt lat="44.43251" lon="7.12653">
        <ele>2280.87</ele>
        <time>2021-01-14T10:38:26Z</time>
      </trkpt>
      <trkpt lat="44.43248" lon="7.12664">
        <ele>2280.87</ele>
        <time>2021-01-14T10:38:39Z</time>
      </trkpt>
      <trkpt lat="44.43247" lon="7.12672">
        <ele>2281.83</ele>
        <time>2021-01-14T10:38:53Z</time>
      </trkpt>
      <trkpt lat="44.43248" lon="7.12677">
        <ele>2284.71</ele>
        <time>2021-01-14T10:39:09Z</time>
      </trkpt>
      <trkpt lat="44.43249" lon="7.12686">
        <ele>2288.56</ele>
        <time>2021-01-14T10:39:31Z</time>
      </trkpt>
      <trkpt lat="44.43249" lon="7.12681">
        <ele>2291.92</ele>
        <time>2021-01-14T10:39:54Z</time>
      </trkpt>
      <trkpt lat="44.43249" lon="7.12685">
        <ele>2296.73</ele>
        <time>2021-01-14T10:40:25Z</time>
      </trkpt>
      <trkpt lat="44.43247" lon="7.12682">
        <ele>2297.69</ele>
        <time>2021-01-14T10:40:44Z</time>
      </trkpt>
      <trkpt lat="44.43245" lon="7.12676">
        <ele>2294.8</ele>
        <time>2021-01-14T10:40:59Z</time>
      </trkpt>
      <trkpt lat="44.43245" lon="7.12674">
        <ele>2293.84</ele>
        <time>2021-01-14T10:41:20Z</time>
      </trkpt>
      <trkpt lat="44.43242" lon="7.12678">
        <ele>2295.77</ele>
        <time>2021-01-14T10:41:44Z</time>
      </trkpt>
      <trkpt lat="44.43239" lon="7.12673">
        <ele>2290</ele>
        <time>2021-01-14T10:42:01Z</time>
      </trkpt>
      <trkpt lat="44.43232" lon="7.1267">
        <ele>2291.92</ele>
        <time>2021-01-14T10:42:15Z</time>
      </trkpt>
      <trkpt lat="44.43232" lon="7.12668">
        <ele>2296.25</ele>
        <time>2021-01-14T10:42:38Z</time>
      </trkpt>
      <trkpt lat="44.43229" lon="7.12675">
        <ele>2297.21</ele>
        <time>2021-01-14T10:42:53Z</time>
      </trkpt>
      <trkpt lat="44.43227" lon="7.12686">
        <ele>2299.61</ele>
        <time>2021-01-14T10:43:07Z</time>
      </trkpt>
      <trkpt lat="44.43227" lon="7.12694">
        <ele>2299.13</ele>
        <time>2021-01-14T10:43:18Z</time>
      </trkpt>
      <trkpt lat="44.43227" lon="7.12703">
        <ele>2299.61</ele>
        <time>2021-01-14T10:43:31Z</time>
      </trkpt>
      <trkpt lat="44.43229" lon="7.12707">
        <ele>2303.46</ele>
        <time>2021-01-14T10:43:51Z</time>
      </trkpt>
      <trkpt lat="44.43228" lon="7.12707">
        <ele>2306.34</ele>
        <time>2021-01-14T10:44:05Z</time>
      </trkpt>
      <trkpt lat="44.43229" lon="7.12701">
        <ele>2305.86</ele>
        <time>2021-01-14T10:44:21Z</time>
      </trkpt>
      <trkpt lat="44.43228" lon="7.12699">
        <ele>2309.22</ele>
        <time>2021-01-14T10:44:36Z</time>
      </trkpt>
      <trkpt lat="44.43226" lon="7.127">
        <ele>2309.22</ele>
        <time>2021-01-14T10:44:50Z</time>
      </trkpt>
      <trkpt lat="44.43224" lon="7.12702">
        <ele>2310.67</ele>
        <time>2021-01-14T10:45:10Z</time>
      </trkpt>
      <trkpt lat="44.4322" lon="7.12702">
        <ele>2314.03</ele>
        <time>2021-01-14T10:45:27Z</time>
      </trkpt>
      <trkpt lat="44.43218" lon="7.12699">
        <ele>2311.15</ele>
        <time>2021-01-14T10:45:42Z</time>
      </trkpt>
      <trkpt lat="44.43216" lon="7.12703">
        <ele>2311.63</ele>
        <time>2021-01-14T10:45:56Z</time>
      </trkpt>
      <trkpt lat="44.43218" lon="7.12714">
        <ele>2310.67</ele>
        <time>2021-01-14T10:46:12Z</time>
      </trkpt>
      <trkpt lat="44.43219" lon="7.1272">
        <ele>2312.11</ele>
        <time>2021-01-14T10:46:28Z</time>
      </trkpt>
      <trkpt lat="44.43219" lon="7.1272">
        <ele>2313.55</ele>
        <time>2021-01-14T10:46:47Z</time>
      </trkpt>
      <trkpt lat="44.43218" lon="7.12721">
        <ele>2318.84</ele>
        <time>2021-01-14T10:47:12Z</time>
      </trkpt>
      <trkpt lat="44.43218" lon="7.12721">
        <ele>2318.36</ele>
        <time>2021-01-14T10:47:31Z</time>
      </trkpt>
      <trkpt lat="44.43217" lon="7.12719">
        <ele>2318.36</ele>
        <time>2021-01-14T10:47:44Z</time>
      </trkpt>
      <trkpt lat="44.43214" lon="7.12718">
        <ele>2319.32</ele>
        <time>2021-01-14T10:47:56Z</time>
      </trkpt>
      <trkpt lat="44.43207" lon="7.12713">
        <ele>2319.32</ele>
        <time>2021-01-14T10:48:13Z</time>
      </trkpt>
      <trkpt lat="44.43203" lon="7.12716">
        <ele>2319.32</ele>
        <time>2021-01-14T10:48:30Z</time>
      </trkpt>
      <trkpt lat="44.43204" lon="7.12718">
        <ele>2321.72</ele>
        <time>2021-01-14T10:48:51Z</time>
      </trkpt>
      <trkpt lat="44.43204" lon="7.1272">
        <ele>2324.61</ele>
        <time>2021-01-14T10:49:18Z</time>
      </trkpt>
      <trkpt lat="44.43203" lon="7.12716">
        <ele>2327.49</ele>
        <time>2021-01-14T10:49:49Z</time>
      </trkpt>
      <trkpt lat="44.43202" lon="7.12719">
        <ele>2329.89</ele>
        <time>2021-01-14T10:50:15Z</time>
      </trkpt>
      <trkpt lat="44.43199" lon="7.12716">
        <ele>2327.01</ele>
        <time>2021-01-14T10:50:36Z</time>
      </trkpt>
      <trkpt lat="44.43196" lon="7.12718">
        <ele>2325.09</ele>
        <time>2021-01-14T10:50:49Z</time>
      </trkpt>
      <trkpt lat="44.43193" lon="7.12714">
        <ele>2325.09</ele>
        <time>2021-01-14T10:51:04Z</time>
      </trkpt>
      <trkpt lat="44.43189" lon="7.12712">
        <ele>2324.12</ele>
        <time>2021-01-14T10:51:20Z</time>
      </trkpt>
      <trkpt lat="44.43184" lon="7.1271">
        <ele>2323.16</ele>
        <time>2021-01-14T10:51:39Z</time>
      </trkpt>
      <trkpt lat="44.43181" lon="7.12709">
        <ele>2326.05</ele>
        <time>2021-01-14T10:51:53Z</time>
      </trkpt>
      <trkpt lat="44.43179" lon="7.12713">
        <ele>2327.49</ele>
        <time>2021-01-14T10:52:08Z</time>
      </trkpt>
      <trkpt lat="44.43181" lon="7.12726">
        <ele>2327.01</ele>
        <time>2021-01-14T10:52:24Z</time>
      </trkpt>
      <trkpt lat="44.43182" lon="7.1273">
        <ele>2327.97</ele>
        <time>2021-01-14T10:52:41Z</time>
      </trkpt>
      <trkpt lat="44.43183" lon="7.12733">
        <ele>2328.93</ele>
        <time>2021-01-14T10:53:00Z</time>
      </trkpt>
      <trkpt lat="44.4319" lon="7.12738">
        <ele>2327.97</ele>
        <time>2021-01-14T10:53:14Z</time>
      </trkpt>
      <trkpt lat="44.43196" lon="7.12745">
        <ele>2328.45</ele>
        <time>2021-01-14T10:53:30Z</time>
      </trkpt>
      <trkpt lat="44.43198" lon="7.12751">
        <ele>2329.89</ele>
        <time>2021-01-14T10:53:49Z</time>
      </trkpt>
      <trkpt lat="44.43202" lon="7.12758">
        <ele>2332.3</ele>
        <time>2021-01-14T10:54:05Z</time>
      </trkpt>
      <trkpt lat="44.43206" lon="7.12765">
        <ele>2335.18</ele>
        <time>2021-01-14T10:54:19Z</time>
      </trkpt>
      <trkpt lat="44.43205" lon="7.12769">
        <ele>2339.51</ele>
        <time>2021-01-14T10:54:35Z</time>
      </trkpt>
      <trkpt lat="44.43203" lon="7.12765">
        <ele>2340.95</ele>
        <time>2021-01-14T10:54:48Z</time>
      </trkpt>
      <trkpt lat="44.43199" lon="7.12767">
        <ele>2340.47</ele>
        <time>2021-01-14T10:55:00Z</time>
      </trkpt>
      <trkpt lat="44.432" lon="7.1277">
        <ele>2344.79</ele>
        <time>2021-01-14T10:55:18Z</time>
      </trkpt>
      <trkpt lat="44.43197" lon="7.1277">
        <ele>2347.2</ele>
        <time>2021-01-14T10:55:31Z</time>
      </trkpt>
      <trkpt lat="44.43198" lon="7.12772">
        <ele>2348.16</ele>
        <time>2021-01-14T10:55:52Z</time>
      </trkpt>
      <trkpt lat="44.43195" lon="7.12775">
        <ele>2349.12</ele>
        <time>2021-01-14T10:56:05Z</time>
      </trkpt>
      <trkpt lat="44.43194" lon="7.12786">
        <ele>2350.56</ele>
        <time>2021-01-14T10:56:19Z</time>
      </trkpt>
      <trkpt lat="44.43196" lon="7.12796">
        <ele>2356.33</ele>
        <time>2021-01-14T10:56:32Z</time>
      </trkpt>
      <trkpt lat="44.43199" lon="7.12802">
        <ele>2358.73</ele>
        <time>2021-01-14T10:56:46Z</time>
      </trkpt>
      <trkpt lat="44.43197" lon="7.12803">
        <ele>2356.81</ele>
        <time>2021-01-14T10:57:00Z</time>
      </trkpt>
      <trkpt lat="44.4319" lon="7.12804">
        <ele>2353.93</ele>
        <time>2021-01-14T10:57:15Z</time>
      </trkpt>
      <trkpt lat="44.43187" lon="7.12803">
        <ele>2354.41</ele>
        <time>2021-01-14T10:57:28Z</time>
      </trkpt>
      <trkpt lat="44.43182" lon="7.12798">
        <ele>2352.96</ele>
        <time>2021-01-14T10:57:43Z</time>
      </trkpt>
      <trkpt lat="44.43178" lon="7.12795">
        <ele>2354.41</ele>
        <time>2021-01-14T10:57:58Z</time>
      </trkpt>
      <trkpt lat="44.43175" lon="7.12796">
        <ele>2355.37</ele>
        <time>2021-01-14T10:58:12Z</time>
      </trkpt>
      <trkpt lat="44.43174" lon="7.12795">
        <ele>2357.29</ele>
        <time>2021-01-14T10:58:30Z</time>
      </trkpt>
      <trkpt lat="44.43176" lon="7.12801">
        <ele>2358.73</ele>
        <time>2021-01-14T10:58:44Z</time>
      </trkpt>
      <trkpt lat="44.43173" lon="7.12804">
        <ele>2358.25</ele>
        <time>2021-01-14T10:59:03Z</time>
      </trkpt>
      <trkpt lat="44.43167" lon="7.12798">
        <ele>2358.73</ele>
        <time>2021-01-14T10:59:18Z</time>
      </trkpt>
      <trkpt lat="44.43167" lon="7.12803">
        <ele>2359.69</ele>
        <time>2021-01-14T10:59:32Z</time>
      </trkpt>
      <trkpt lat="44.43171" lon="7.12813">
        <ele>2361.62</ele>
        <time>2021-01-14T10:59:44Z</time>
      </trkpt>
      <trkpt lat="44.43171" lon="7.12819">
        <ele>2364.98</ele>
        <time>2021-01-14T10:59:59Z</time>
      </trkpt>
      <trkpt lat="44.43171" lon="7.12822">
        <ele>2368.35</ele>
        <time>2021-01-14T11:00:12Z</time>
      </trkpt>
      <trkpt lat="44.4317" lon="7.12817">
        <ele>2369.31</ele>
        <time>2021-01-14T11:00:24Z</time>
      </trkpt>
      <trkpt lat="44.43164" lon="7.12815">
        <ele>2371.23</ele>
        <time>2021-01-14T11:00:40Z</time>
      </trkpt>
      <trkpt lat="44.43164" lon="7.12817">
        <ele>2374.11</ele>
        <time>2021-01-14T11:00:56Z</time>
      </trkpt>
      <trkpt lat="44.43165" lon="7.12826">
        <ele>2374.11</ele>
        <time>2021-01-14T11:01:10Z</time>
      </trkpt>
      <trkpt lat="44.43167" lon="7.12841">
        <ele>2372.19</ele>
        <time>2021-01-14T11:01:26Z</time>
      </trkpt>
      <trkpt lat="44.43168" lon="7.12847">
        <ele>2372.67</ele>
        <time>2021-01-14T11:01:34Z</time>
      </trkpt>
      <trkpt lat="44.43169" lon="7.12846">
        <ele>2375.55</ele>
        <time>2021-01-14T11:01:46Z</time>
      </trkpt>
      <trkpt lat="44.43165" lon="7.12841">
        <ele>2376.52</ele>
        <time>2021-01-14T11:01:59Z</time>
      </trkpt>
      <trkpt lat="44.43159" lon="7.12838">
        <ele>2377.96</ele>
        <time>2021-01-14T11:02:13Z</time>
      </trkpt>
      <trkpt lat="44.43152" lon="7.12838">
        <ele>2380.84</ele>
        <time>2021-01-14T11:02:28Z</time>
      </trkpt>
      <trkpt lat="44.43155" lon="7.12845">
        <ele>2383.73</ele>
        <time>2021-01-14T11:02:43Z</time>
      </trkpt>
      <trkpt lat="44.43153" lon="7.12843">
        <ele>2385.65</ele>
        <time>2021-01-14T11:02:57Z</time>
      </trkpt>
      <trkpt lat="44.43149" lon="7.1284">
        <ele>2385.65</ele>
        <time>2021-01-14T11:03:11Z</time>
      </trkpt>
      <trkpt lat="44.4315" lon="7.12846">
        <ele>2386.61</ele>
        <time>2021-01-14T11:03:23Z</time>
      </trkpt>
      <trkpt lat="44.43151" lon="7.12853">
        <ele>2387.57</ele>
        <time>2021-01-14T11:03:36Z</time>
      </trkpt>
      <trkpt lat="44.43152" lon="7.12862">
        <ele>2390.94</ele>
        <time>2021-01-14T11:03:52Z</time>
      </trkpt>
      <trkpt lat="44.43154" lon="7.12871">
        <ele>2392.38</ele>
        <time>2021-01-14T11:04:06Z</time>
      </trkpt>
      <trkpt lat="44.43154" lon="7.12872">
        <ele>2390.46</ele>
        <time>2021-01-14T11:04:18Z</time>
      </trkpt>
      <trkpt lat="44.43152" lon="7.12869">
        <ele>2389.49</ele>
        <time>2021-01-14T11:04:37Z</time>
      </trkpt>
      <trkpt lat="44.43148" lon="7.12868">
        <ele>2390.46</ele>
        <time>2021-01-14T11:04:51Z</time>
      </trkpt>
      <trkpt lat="44.43144" lon="7.12868">
        <ele>2392.38</ele>
        <time>2021-01-14T11:05:03Z</time>
      </trkpt>
      <trkpt lat="44.43145" lon="7.12872">
        <ele>2394.3</ele>
        <time>2021-01-14T11:05:16Z</time>
      </trkpt>
      <trkpt lat="44.43147" lon="7.12881">
        <ele>2396.22</ele>
        <time>2021-01-14T11:05:32Z</time>
      </trkpt>
      <trkpt lat="44.43151" lon="7.12887">
        <ele>2399.59</ele>
        <time>2021-01-14T11:05:46Z</time>
      </trkpt>
      <trkpt lat="44.43152" lon="7.12892">
        <ele>2403.43</ele>
        <time>2021-01-14T11:06:02Z</time>
      </trkpt>
      <trkpt lat="44.43152" lon="7.12894">
        <ele>2404.88</ele>
        <time>2021-01-14T11:06:18Z</time>
      </trkpt>
      <trkpt lat="44.43148" lon="7.12893">
        <ele>2401.99</ele>
        <time>2021-01-14T11:06:31Z</time>
      </trkpt>
      <trkpt lat="44.43145" lon="7.12894">
        <ele>2403.43</ele>
        <time>2021-01-14T11:06:46Z</time>
      </trkpt>
      <trkpt lat="44.43143" lon="7.12894">
        <ele>2405.84</ele>
        <time>2021-01-14T11:07:01Z</time>
      </trkpt>
      <trkpt lat="44.43145" lon="7.12904">
        <ele>2409.2</ele>
        <time>2021-01-14T11:07:15Z</time>
      </trkpt>
      <trkpt lat="44.43148" lon="7.12908">
        <ele>2414.49</ele>
        <time>2021-01-14T11:07:31Z</time>
      </trkpt>
      <trkpt lat="44.43151" lon="7.12912">
        <ele>2416.41</ele>
        <time>2021-01-14T11:07:46Z</time>
      </trkpt>
      <trkpt lat="44.43152" lon="7.12911">
        <ele>2418.33</ele>
        <time>2021-01-14T11:08:08Z</time>
      </trkpt>
      <trkpt lat="44.43153" lon="7.12913">
        <ele>2420.74</ele>
        <time>2021-01-14T11:08:35Z</time>
      </trkpt>
      <trkpt lat="44.43152" lon="7.12914">
        <ele>2418.33</ele>
        <time>2021-01-14T11:08:59Z</time>
      </trkpt>
      <trkpt lat="44.43151" lon="7.12915">
        <ele>2417.37</ele>
        <time>2021-01-14T11:09:12Z</time>
      </trkpt>
      <trkpt lat="44.43146" lon="7.12918">
        <ele>2416.41</ele>
        <time>2021-01-14T11:09:25Z</time>
      </trkpt>
      <trkpt lat="44.43141" lon="7.12921">
        <ele>2416.41</ele>
        <time>2021-01-14T11:09:39Z</time>
      </trkpt>
      <trkpt lat="44.43138" lon="7.12923">
        <ele>2416.89</ele>
        <time>2021-01-14T11:09:52Z</time>
      </trkpt>
      <trkpt lat="44.4314" lon="7.12925">
        <ele>2418.81</ele>
        <time>2021-01-14T11:10:05Z</time>
      </trkpt>
      <trkpt lat="44.43145" lon="7.12928">
        <ele>2421.22</ele>
        <time>2021-01-14T11:10:21Z</time>
      </trkpt>
      <trkpt lat="44.43146" lon="7.1293">
        <ele>2422.18</ele>
        <time>2021-01-14T11:10:38Z</time>
      </trkpt>
      <trkpt lat="44.43146" lon="7.12933">
        <ele>2420.74</ele>
        <time>2021-01-14T11:10:50Z</time>
      </trkpt>
      <trkpt lat="44.43142" lon="7.12935">
        <ele>2421.7</ele>
        <time>2021-01-14T11:11:02Z</time>
      </trkpt>
      <trkpt lat="44.43139" lon="7.12936">
        <ele>2427.47</ele>
        <time>2021-01-14T11:11:22Z</time>
      </trkpt>
      <trkpt lat="44.43136" lon="7.12936">
        <ele>2428.43</ele>
        <time>2021-01-14T11:11:26Z</time>
      </trkpt>
      <trkpt lat="44.43128" lon="7.12943">
        <ele>2432.27</ele>
        <time>2021-01-14T11:11:42Z</time>
      </trkpt>
      <trkpt lat="44.4312" lon="7.12948">
        <ele>2434.68</ele>
        <time>2021-01-14T11:12:01Z</time>
      </trkpt>
      <trkpt lat="44.43114" lon="7.12952">
        <ele>2438.04</ele>
        <time>2021-01-14T11:12:16Z</time>
      </trkpt>
      <trkpt lat="44.43107" lon="7.12958">
        <ele>2440.44</ele>
        <time>2021-01-14T11:12:32Z</time>
      </trkpt>
      <trkpt lat="44.43109" lon="7.12957">
        <ele>2444.29</ele>
        <time>2021-01-14T11:12:53Z</time>
      </trkpt>
      <trkpt lat="44.43105" lon="7.12959">
        <ele>2445.73</ele>
        <time>2021-01-14T11:13:10Z</time>
      </trkpt>
      <trkpt lat="44.43103" lon="7.12958">
        <ele>2446.21</ele>
        <time>2021-01-14T11:13:28Z</time>
      </trkpt>
      <trkpt lat="44.43103" lon="7.12958">
        <ele>2446.21</ele>
        <time>2021-01-14T11:13:52Z</time>
      </trkpt>
      <trkpt lat="44.431" lon="7.12957">
        <ele>2446.21</ele>
        <time>2021-01-14T11:14:08Z</time>
      </trkpt>
      <trkpt lat="44.43093" lon="7.12963">
        <ele>2444.77</ele>
        <time>2021-01-14T11:14:22Z</time>
      </trkpt>
      <trkpt lat="44.43088" lon="7.12966">
        <ele>2446.69</ele>
        <time>2021-01-14T11:14:38Z</time>
      </trkpt>
      <trkpt lat="44.43084" lon="7.12961">
        <ele>2447.65</ele>
        <time>2021-01-14T11:14:51Z</time>
      </trkpt>
      <trkpt lat="44.4308" lon="7.12959">
        <ele>2449.1</ele>
        <time>2021-01-14T11:15:06Z</time>
      </trkpt>
      <trkpt lat="44.43079" lon="7.12964">
        <ele>2450.06</ele>
        <time>2021-01-14T11:15:19Z</time>
      </trkpt>
      <trkpt lat="44.43079" lon="7.12963">
        <ele>2450.54</ele>
        <time>2021-01-14T11:15:36Z</time>
      </trkpt>
      <trkpt lat="44.43078" lon="7.12966">
        <ele>2451.98</ele>
        <time>2021-01-14T11:15:53Z</time>
      </trkpt>
      <trkpt lat="44.43079" lon="7.12969">
        <ele>2452.94</ele>
        <time>2021-01-14T11:16:16Z</time>
      </trkpt>
      <trkpt lat="44.43079" lon="7.12968">
        <ele>2454.86</ele>
        <time>2021-01-14T11:16:31Z</time>
      </trkpt>
      <trkpt lat="44.43078" lon="7.12976">
        <ele>2456.31</ele>
        <time>2021-01-14T11:16:52Z</time>
      </trkpt>
      <trkpt lat="44.43077" lon="7.12976">
        <ele>2457.75</ele>
        <time>2021-01-14T11:17:07Z</time>
      </trkpt>
      <trkpt lat="44.43072" lon="7.1297">
        <ele>2456.31</ele>
        <time>2021-01-14T11:17:20Z</time>
      </trkpt>
      <trkpt lat="44.43064" lon="7.12969">
        <ele>2459.19</ele>
        <time>2021-01-14T11:17:39Z</time>
      </trkpt>
      <trkpt lat="44.43065" lon="7.12976">
        <ele>2461.59</ele>
        <time>2021-01-14T11:17:53Z</time>
      </trkpt>
      <trkpt lat="44.43067" lon="7.12984">
        <ele>2465.92</ele>
        <time>2021-01-14T11:18:09Z</time>
      </trkpt>
      <trkpt lat="44.43068" lon="7.12988">
        <ele>2466.88</ele>
        <time>2021-01-14T11:18:22Z</time>
      </trkpt>
      <trkpt lat="44.43065" lon="7.12984">
        <ele>2465.44</ele>
        <time>2021-01-14T11:18:38Z</time>
      </trkpt>
      <trkpt lat="44.43062" lon="7.12982">
        <ele>2466.4</ele>
        <time>2021-01-14T11:18:51Z</time>
      </trkpt>
      <trkpt lat="44.43058" lon="7.12982">
        <ele>2467.84</ele>
        <time>2021-01-14T11:19:05Z</time>
      </trkpt>
      <trkpt lat="44.43059" lon="7.12992">
        <ele>2469.28</ele>
        <time>2021-01-14T11:19:20Z</time>
      </trkpt>
      <trkpt lat="44.43063" lon="7.13002">
        <ele>2473.13</ele>
        <time>2021-01-14T11:19:35Z</time>
      </trkpt>
      <trkpt lat="44.43064" lon="7.13002">
        <ele>2473.13</ele>
        <time>2021-01-14T11:19:36Z</time>
      </trkpt>
      <trkpt lat="44.4307" lon="7.13007">
        <ele>2477.45</ele>
        <time>2021-01-14T11:19:52Z</time>
      </trkpt>
      <trkpt lat="44.43073" lon="7.13011">
        <ele>2483.7</ele>
        <time>2021-01-14T11:20:06Z</time>
      </trkpt>
      <trkpt lat="44.4307" lon="7.1301">
        <ele>2484.66</ele>
        <time>2021-01-14T11:20:19Z</time>
      </trkpt>
      <trkpt lat="44.43065" lon="7.1301">
        <ele>2483.7</ele>
        <time>2021-01-14T11:20:35Z</time>
      </trkpt>
      <trkpt lat="44.43063" lon="7.13014">
        <ele>2484.18</ele>
        <time>2021-01-14T11:20:50Z</time>
      </trkpt>
      <trkpt lat="44.43059" lon="7.13016">
        <ele>2484.66</ele>
        <time>2021-01-14T11:21:05Z</time>
      </trkpt>
      <trkpt lat="44.43053" lon="7.13018">
        <ele>2484.66</ele>
        <time>2021-01-14T11:21:19Z</time>
      </trkpt>
      <trkpt lat="44.43047" lon="7.13019">
        <ele>2485.15</ele>
        <time>2021-01-14T11:21:33Z</time>
      </trkpt>
      <trkpt lat="44.43046" lon="7.13023">
        <ele>2485.63</ele>
        <time>2021-01-14T11:21:48Z</time>
      </trkpt>
      <trkpt lat="44.43047" lon="7.13036">
        <ele>2487.55</ele>
        <time>2021-01-14T11:22:04Z</time>
      </trkpt>
      <trkpt lat="44.43048" lon="7.13034">
        <ele>2489.95</ele>
        <time>2021-01-14T11:22:17Z</time>
      </trkpt>
      <trkpt lat="44.43041" lon="7.13029">
        <ele>2488.03</ele>
        <time>2021-01-14T11:22:29Z</time>
      </trkpt>
      <trkpt lat="44.43034" lon="7.13026">
        <ele>2486.59</ele>
        <time>2021-01-14T11:22:46Z</time>
      </trkpt>
      <trkpt lat="44.4303" lon="7.1302">
        <ele>2488.51</ele>
        <time>2021-01-14T11:22:59Z</time>
      </trkpt>
      <trkpt lat="44.43027" lon="7.13022">
        <ele>2490.91</ele>
        <time>2021-01-14T11:23:14Z</time>
      </trkpt>
      <trkpt lat="44.43025" lon="7.13025">
        <ele>2492.36</ele>
        <time>2021-01-14T11:23:30Z</time>
      </trkpt>
      <trkpt lat="44.43022" lon="7.13019">
        <ele>2493.32</ele>
        <time>2021-01-14T11:23:42Z</time>
      </trkpt>
      <trkpt lat="44.43018" lon="7.13016">
        <ele>2494.28</ele>
        <time>2021-01-14T11:23:55Z</time>
      </trkpt>
      <trkpt lat="44.43013" lon="7.1302">
        <ele>2496.2</ele>
        <time>2021-01-14T11:24:08Z</time>
      </trkpt>
      <trkpt lat="44.43009" lon="7.13023">
        <ele>2500.53</ele>
        <time>2021-01-14T11:24:22Z</time>
      </trkpt>
      <trkpt lat="44.43005" lon="7.13025">
        <ele>2501.97</ele>
        <time>2021-01-14T11:24:36Z</time>
      </trkpt>
      <trkpt lat="44.43003" lon="7.13034">
        <ele>2506.77</ele>
        <time>2021-01-14T11:24:52Z</time>
      </trkpt>
      <trkpt lat="44.43003" lon="7.13044">
        <ele>2510.14</ele>
        <time>2021-01-14T11:25:06Z</time>
      </trkpt>
      <trkpt lat="44.43004" lon="7.1305">
        <ele>2513.02</ele>
        <time>2021-01-14T11:25:19Z</time>
      </trkpt>
      <trkpt lat="44.43006" lon="7.13054">
        <ele>2515.91</ele>
        <time>2021-01-14T11:25:33Z</time>
      </trkpt>
      <trkpt lat="44.43006" lon="7.13059">
        <ele>2518.31</ele>
        <time>2021-01-14T11:25:47Z</time>
      </trkpt>
      <trkpt lat="44.43008" lon="7.13059">
        <ele>2519.27</ele>
        <time>2021-01-14T11:26:05Z</time>
      </trkpt>
      <trkpt lat="44.43009" lon="7.13063">
        <ele>2521.68</ele>
        <time>2021-01-14T11:26:17Z</time>
      </trkpt>
      <trkpt lat="44.43009" lon="7.13067">
        <ele>2522.16</ele>
        <time>2021-01-14T11:26:32Z</time>
      </trkpt>
      <trkpt lat="44.43008" lon="7.13071">
        <ele>2519.75</ele>
        <time>2021-01-14T11:26:47Z</time>
      </trkpt>
      <trkpt lat="44.43008" lon="7.13074">
        <ele>2521.19</ele>
        <time>2021-01-14T11:27:01Z</time>
      </trkpt>
      <trkpt lat="44.43009" lon="7.13075">
        <ele>2523.6</ele>
        <time>2021-01-14T11:27:15Z</time>
      </trkpt>
      <trkpt lat="44.43011" lon="7.13081">
        <ele>2524.56</ele>
        <time>2021-01-14T11:27:29Z</time>
      </trkpt>
      <trkpt lat="44.43011" lon="7.13077">
        <ele>2526.96</ele>
        <time>2021-01-14T11:27:43Z</time>
      </trkpt>
      <trkpt lat="44.43005" lon="7.13074">
        <ele>2525.52</ele>
        <time>2021-01-14T11:27:57Z</time>
      </trkpt>
      <trkpt lat="44.43" lon="7.13073">
        <ele>2525.52</ele>
        <time>2021-01-14T11:28:11Z</time>
      </trkpt>
      <trkpt lat="44.42995" lon="7.13074">
        <ele>2526</ele>
        <time>2021-01-14T11:28:26Z</time>
      </trkpt>
      <trkpt lat="44.4299" lon="7.13083">
        <ele>2525.52</ele>
        <time>2021-01-14T11:28:41Z</time>
      </trkpt>
      <trkpt lat="44.42988" lon="7.13091">
        <ele>2528.4</ele>
        <time>2021-01-14T11:28:56Z</time>
      </trkpt>
      <trkpt lat="44.42985" lon="7.131">
        <ele>2529.37</ele>
        <time>2021-01-14T11:29:12Z</time>
      </trkpt>
      <trkpt lat="44.42983" lon="7.13103">
        <ele>2530.33</ele>
        <time>2021-01-14T11:29:29Z</time>
      </trkpt>
      <trkpt lat="44.42981" lon="7.13111">
        <ele>2529.85</ele>
        <time>2021-01-14T11:29:48Z</time>
      </trkpt>
      <trkpt lat="44.42979" lon="7.13112">
        <ele>2532.25</ele>
        <time>2021-01-14T11:30:01Z</time>
      </trkpt>
      <trkpt lat="44.42973" lon="7.13125">
        <ele>2536.58</ele>
        <time>2021-01-14T11:30:20Z</time>
      </trkpt>
      <trkpt lat="44.42971" lon="7.13136">
        <ele>2540.42</ele>
        <time>2021-01-14T11:30:36Z</time>
      </trkpt>
      <trkpt lat="44.4297" lon="7.1314">
        <ele>2543.79</ele>
        <time>2021-01-14T11:30:51Z</time>
      </trkpt>
      <trkpt lat="44.42965" lon="7.1314">
        <ele>2544.75</ele>
        <time>2021-01-14T11:31:06Z</time>
      </trkpt>
      <trkpt lat="44.42956" lon="7.13137">
        <ele>2544.27</ele>
        <time>2021-01-14T11:31:24Z</time>
      </trkpt>
      <trkpt lat="44.42951" lon="7.13134">
        <ele>2545.71</ele>
        <time>2021-01-14T11:31:40Z</time>
      </trkpt>
      <trkpt lat="44.42948" lon="7.13136">
        <ele>2544.27</ele>
        <time>2021-01-14T11:32:01Z</time>
      </trkpt>
      <trkpt lat="44.42939" lon="7.1313">
        <ele>2546.19</ele>
        <time>2021-01-14T11:32:20Z</time>
      </trkpt>
      <trkpt lat="44.42933" lon="7.13126">
        <ele>2547.63</ele>
        <time>2021-01-14T11:32:33Z</time>
      </trkpt>
      <trkpt lat="44.42927" lon="7.13124">
        <ele>2551</ele>
        <time>2021-01-14T11:32:49Z</time>
      </trkpt>
      <trkpt lat="44.42925" lon="7.13123">
        <ele>2552.92</ele>
        <time>2021-01-14T11:33:06Z</time>
      </trkpt>
      <trkpt lat="44.42923" lon="7.13123">
        <ele>2552.44</ele>
        <time>2021-01-14T11:33:19Z</time>
      </trkpt>
      <trkpt lat="44.42922" lon="7.13124">
        <ele>2551.48</ele>
        <time>2021-01-14T11:33:32Z</time>
      </trkpt>
      <trkpt lat="44.42924" lon="7.13123">
        <ele>2550.51</ele>
        <time>2021-01-14T11:34:15Z</time>
      </trkpt>
      <trkpt lat="44.42925" lon="7.13123">
        <ele>2551</ele>
        <time>2021-01-14T11:35:00Z</time>
      </trkpt>
      <trkpt lat="44.42924" lon="7.13124">
        <ele>2548.11</ele>
        <time>2021-01-14T11:35:52Z</time>
      </trkpt>
      <trkpt lat="44.42924" lon="7.13124">
        <ele>2548.11</ele>
        <time>2021-01-14T11:36:38Z</time>
      </trkpt>
      <trkpt lat="44.42923" lon="7.13123">
        <ele>2551</ele>
        <time>2021-01-14T11:37:10Z</time>
      </trkpt>
      <trkpt lat="44.42921" lon="7.13125">
        <ele>2552.92</ele>
        <time>2021-01-14T11:37:25Z</time>
      </trkpt>
      <trkpt lat="44.42922" lon="7.13133">
        <ele>2555.32</ele>
        <time>2021-01-14T11:37:36Z</time>
      </trkpt>
      <trkpt lat="44.42926" lon="7.13141">
        <ele>2561.09</ele>
        <time>2021-01-14T11:37:50Z</time>
      </trkpt>
      <trkpt lat="44.42923" lon="7.1314">
        <ele>2562.05</ele>
        <time>2021-01-14T11:38:03Z</time>
      </trkpt>
      <trkpt lat="44.42915" lon="7.13138">
        <ele>2563.97</ele>
        <time>2021-01-14T11:38:18Z</time>
      </trkpt>
      <trkpt lat="44.42912" lon="7.13142">
        <ele>2564.93</ele>
        <time>2021-01-14T11:38:30Z</time>
      </trkpt>
      <trkpt lat="44.4291" lon="7.13147">
        <ele>2559.65</ele>
        <time>2021-01-14T11:38:50Z</time>
      </trkpt>
      <trkpt lat="44.42909" lon="7.13144">
        <ele>2559.17</ele>
        <time>2021-01-14T11:39:09Z</time>
      </trkpt>
      <trkpt lat="44.4291" lon="7.13144">
        <ele>2558.21</ele>
        <time>2021-01-14T11:39:29Z</time>
      </trkpt>
      <trkpt lat="44.42911" lon="7.13143">
        <ele>2558.21</ele>
        <time>2021-01-14T11:39:44Z</time>
      </trkpt>
      <trkpt lat="44.42911" lon="7.13141">
        <ele>2559.17</ele>
        <time>2021-01-14T11:40:06Z</time>
      </trkpt>
      <trkpt lat="44.42911" lon="7.13141">
        <ele>2559.17</ele>
        <time>2021-01-14T11:40:23Z</time>
      </trkpt>
      <trkpt lat="44.42909" lon="7.13139">
        <ele>2561.09</ele>
        <time>2021-01-14T11:40:38Z</time>
      </trkpt>
      <trkpt lat="44.42908" lon="7.13147">
        <ele>2560.61</ele>
        <time>2021-01-14T11:40:49Z</time>
      </trkpt>
      <trkpt lat="44.42909" lon="7.13147">
        <ele>2561.57</ele>
        <time>2021-01-14T11:41:09Z</time>
      </trkpt>
      <trkpt lat="44.42909" lon="7.13144">
        <ele>2562.53</ele>
        <time>2021-01-14T11:41:29Z</time>
      </trkpt>
      <trkpt lat="44.42909" lon="7.13144">
        <ele>2562.05</ele>
        <time>2021-01-14T11:41:41Z</time>
      </trkpt>
      <trkpt lat="44.42909" lon="7.13144">
        <ele>2563.49</ele>
        <time>2021-01-14T11:42:01Z</time>
      </trkpt>
      <trkpt lat="44.42908" lon="7.13144">
        <ele>2563.01</ele>
        <time>2021-01-14T11:42:21Z</time>
      </trkpt>
      <trkpt lat="44.42909" lon="7.13143">
        <ele>2562.53</ele>
        <time>2021-01-14T11:42:44Z</time>
      </trkpt>
      <trkpt lat="44.42908" lon="7.13144">
        <ele>2563.49</ele>
        <time>2021-01-14T11:43:09Z</time>
      </trkpt>
      <trkpt lat="44.42906" lon="7.13146">
        <ele>2563.97</ele>
        <time>2021-01-14T11:43:27Z</time>
      </trkpt>
      <trkpt lat="44.42907" lon="7.13145">
        <ele>2562.53</ele>
        <time>2021-01-14T11:43:45Z</time>
      </trkpt>
      <trkpt lat="44.42907" lon="7.13143">
        <ele>2561.57</ele>
        <time>2021-01-14T11:43:50Z</time>
      </trkpt>
      <trkpt lat="44.42901" lon="7.13138">
        <ele>2559.17</ele>
        <time>2021-01-14T11:44:00Z</time>
      </trkpt>
      <trkpt lat="44.42901" lon="7.13136">
        <ele>2559.17</ele>
        <time>2021-01-14T11:44:19Z</time>
      </trkpt>
      <trkpt lat="44.42853" lon="7.13096">
        <ele>2566.34375</ele>
      </trkpt>
      <trkpt lat="44.42835" lon="7.13057">
        <ele>2575.3203125</ele>
      </trkpt>
      <trkpt lat="44.42804" lon="7.13038">
        <ele>2577.55078125</ele>
      </trkpt>
      <trkpt lat="44.42901" lon="7.13135">
        <ele>2558.69</ele>
        <time>2021-01-14T11:44:36Z</time>
      </trkpt>
      <trkpt lat="44.42901" lon="7.13136">
        <ele>2557.24</ele>
        <time>2021-01-14T11:44:59Z</time>
      </trkpt>
      <trkpt lat="44.42903" lon="7.13137">
        <ele>2558.21</ele>
        <time>2021-01-14T11:45:13Z</time>
      </trkpt>
      <trkpt lat="44.42902" lon="7.13138">
        <ele>2557.73</ele>
        <time>2021-01-14T11:45:25Z</time>
      </trkpt>
      <trkpt lat="44.42902" lon="7.13137">
        <ele>2561.57</ele>
        <time>2021-01-14T11:45:46Z</time>
      </trkpt>
      <trkpt lat="44.42902" lon="7.13138">
        <ele>2563.97</ele>
        <time>2021-01-14T11:46:08Z</time>
      </trkpt>
      <trkpt lat="44.42902" lon="7.13138">
        <ele>2564.93</ele>
        <time>2021-01-14T11:46:37Z</time>
      </trkpt>
      <trkpt lat="44.42904" lon="7.13138">
        <ele>2566.38</ele>
        <time>2021-01-14T11:47:06Z</time>
      </trkpt>
      <trkpt lat="44.42904" lon="7.13139">
        <ele>2567.82</ele>
        <time>2021-01-14T11:47:28Z</time>
      </trkpt>
      <trkpt lat="44.42903" lon="7.13138">
        <ele>2567.82</ele>
        <time>2021-01-14T11:47:52Z</time>
      </trkpt>
      <trkpt lat="44.42901" lon="7.1314">
        <ele>2565.9</ele>
        <time>2021-01-14T11:48:09Z</time>
      </trkpt>
      <trkpt lat="44.42901" lon="7.13138">
        <ele>2563.97</ele>
        <time>2021-01-14T11:48:37Z</time>
      </trkpt>
      <trkpt lat="44.429" lon="7.13138">
        <ele>2564.93</ele>
        <time>2021-01-14T11:49:09Z</time>
      </trkpt>
      <trkpt lat="44.42901" lon="7.13137">
        <ele>2565.42</ele>
        <time>2021-01-14T11:49:30Z</time>
      </trkpt>
      <trkpt lat="44.42902" lon="7.13137">
        <ele>2565.42</ele>
        <time>2021-01-14T11:49:52Z</time>
      </trkpt>
      <trkpt lat="44.42901" lon="7.13137">
        <ele>2565.42</ele>
        <time>2021-01-14T11:50:28Z</time>
      </trkpt>
      <trkpt lat="44.42902" lon="7.13138">
        <ele>2565.42</ele>
        <time>2021-01-14T11:51:02Z</time>
      </trkpt>
      <trkpt lat="44.42901" lon="7.13138">
        <ele>2566.86</ele>
        <time>2021-01-14T11:51:37Z</time>
      </trkpt>
      <trkpt lat="44.42901" lon="7.13137">
        <ele>2566.86</ele>
        <time>2021-01-14T11:52:31Z</time>
      </trkpt>
      <trkpt lat="44.42901" lon="7.13137">
        <ele>2566.86</ele>
        <time>2021-01-14T11:53:17Z</time>
      </trkpt>
      <trkpt lat="44.429" lon="7.13138">
        <ele>2567.34</ele>
        <time>2021-01-14T11:53:50Z</time>
      </trkpt>
      <trkpt lat="44.42901" lon="7.13138">
        <ele>2567.34</ele>
        <time>2021-01-14T11:54:14Z</time>
      </trkpt>
      <trkpt lat="44.42902" lon="7.13137">
        <ele>2564.93</ele>
        <time>2021-01-14T11:54:56Z</time>
      </trkpt>
      <trkpt lat="44.42903" lon="7.13138">
        <ele>2563.97</ele>
        <time>2021-01-14T11:55:35Z</time>
      </trkpt>
      <trkpt lat="44.42901" lon="7.13138">
        <ele>2563.01</ele>
        <time>2021-01-14T11:56:13Z</time>
      </trkpt>
      <trkpt lat="44.42901" lon="7.13137">
        <ele>2562.05</ele>
        <time>2021-01-14T11:56:46Z</time>
      </trkpt>
      <trkpt lat="44.42902" lon="7.13137">
        <ele>2562.05</ele>
        <time>2021-01-14T11:57:19Z</time>
      </trkpt>
      <trkpt lat="44.42901" lon="7.13137">
        <ele>2561.57</ele>
        <time>2021-01-14T11:57:42Z</time>
      </trkpt>
      <trkpt lat="44.42902" lon="7.13137">
        <ele>2563.01</ele>
        <time>2021-01-14T11:58:08Z</time>
      </trkpt>
      <trkpt lat="44.42901" lon="7.13137">
        <ele>2563.01</ele>
        <time>2021-01-14T11:58:29Z</time>
      </trkpt>
      <trkpt lat="44.42902" lon="7.13137">
        <ele>2563.01</ele>
        <time>2021-01-14T11:58:49Z</time>
      </trkpt>
      <trkpt lat="44.42902" lon="7.13137">
        <ele>2563.01</ele>
        <time>2021-01-14T11:59:09Z</time>
      </trkpt>
      <trkpt lat="44.42902" lon="7.13137">
        <ele>2562.05</ele>
        <time>2021-01-14T11:59:31Z</time>
      </trkpt>
      <trkpt lat="44.42902" lon="7.13137">
        <ele>2562.05</ele>
        <time>2021-01-14T11:59:51Z</time>
      </trkpt>
      <trkpt lat="44.42903" lon="7.13137">
        <ele>2562.53</ele>
        <time>2021-01-14T12:00:14Z</time>
      </trkpt>
      <trkpt lat="44.42903" lon="7.13138">
        <ele>2562.53</ele>
        <time>2021-01-14T12:00:45Z</time>
      </trkpt>
      <trkpt lat="44.42903" lon="7.13138">
        <ele>2562.53</ele>
        <time>2021-01-14T12:01:01Z</time>
      </trkpt>
      <trkpt lat="44.42904" lon="7.13138">
        <ele>2563.01</ele>
        <time>2021-01-14T12:01:21Z</time>
      </trkpt>
      <trkpt lat="44.42903" lon="7.13138">
        <ele>2562.53</ele>
        <time>2021-01-14T12:01:44Z</time>
      </trkpt>
      <trkpt lat="44.42904" lon="7.13138">
        <ele>2563.01</ele>
        <time>2021-01-14T12:02:02Z</time>
      </trkpt>
      <trkpt lat="44.42905" lon="7.13138">
        <ele>2564.45</ele>
        <time>2021-01-14T12:02:22Z</time>
      </trkpt>
      <trkpt lat="44.42904" lon="7.13137">
        <ele>2564.45</ele>
        <time>2021-01-14T12:02:41Z</time>
      </trkpt>
      <trkpt lat="44.42903" lon="7.13139">
        <ele>2565.9</ele>
        <time>2021-01-14T12:03:00Z</time>
      </trkpt>
      <trkpt lat="44.42902" lon="7.13135">
        <ele>2566.86</ele>
        <time>2021-01-14T12:03:22Z</time>
      </trkpt>
      <trkpt lat="44.42902" lon="7.13137">
        <ele>2566.38</ele>
        <time>2021-01-14T12:03:45Z</time>
      </trkpt>
      <trkpt lat="44.42901" lon="7.13137">
        <ele>2565.9</ele>
        <time>2021-01-14T12:04:01Z</time>
      </trkpt>
      <trkpt lat="44.42901" lon="7.13137">
        <ele>2564.93</ele>
        <time>2021-01-14T12:04:19Z</time>
      </trkpt>
      <trkpt lat="44.42902" lon="7.13138">
        <ele>2563.01</ele>
        <time>2021-01-14T12:04:38Z</time>
      </trkpt>
      <trkpt lat="44.42902" lon="7.13137">
        <ele>2562.05</ele>
        <time>2021-01-14T12:04:59Z</time>
      </trkpt>
      <trkpt lat="44.42902" lon="7.13137">
        <ele>2562.05</ele>
        <time>2021-01-14T12:05:21Z</time>
      </trkpt>
      <trkpt lat="44.42903" lon="7.13136">
        <ele>2562.05</ele>
        <time>2021-01-14T12:05:40Z</time>
      </trkpt>
      <trkpt lat="44.42904" lon="7.13136">
        <ele>2561.57</ele>
        <time>2021-01-14T12:05:54Z</time>
      </trkpt>
      <trkpt lat="44.42903" lon="7.13136">
        <ele>2562.05</ele>
        <time>2021-01-14T12:06:12Z</time>
      </trkpt>
      <trkpt lat="44.42902" lon="7.13136">
        <ele>2561.57</ele>
        <time>2021-01-14T12:06:28Z</time>
      </trkpt>
      <trkpt lat="44.42902" lon="7.13137">
        <ele>2561.57</ele>
        <time>2021-01-14T12:06:42Z</time>
      </trkpt>
      <trkpt lat="44.42904" lon="7.13138">
        <ele>2562.05</ele>
        <time>2021-01-14T12:06:52Z</time>
      </trkpt>
      <trkpt lat="44.42906" lon="7.13141">
        <ele>2563.01</ele>
        <time>2021-01-14T12:07:05Z</time>
      </trkpt>
      <trkpt lat="44.42908" lon="7.13143">
        <ele>2563.97</ele>
        <time>2021-01-14T12:07:15Z</time>
      </trkpt>
      <trkpt lat="44.42909" lon="7.13144">
        <ele>2563.97</ele>
        <time>2021-01-14T12:07:21Z</time>
      </trkpt>
      <trkpt lat="44.42913" lon="7.13147">
        <ele>2564.93</ele>
        <time>2021-01-14T12:07:33Z</time>
      </trkpt>
      <trkpt lat="44.42913" lon="7.13146">
        <ele>2564.93</ele>
        <time>2021-01-14T12:07:52Z</time>
      </trkpt>
      <trkpt lat="44.42913" lon="7.13137">
        <ele>2563.97</ele>
        <time>2021-01-14T12:08:00Z</time>
      </trkpt>
      <trkpt lat="44.42913" lon="7.13137">
        <ele>2563.49</ele>
        <time>2021-01-14T12:08:01Z</time>
      </trkpt>
      <trkpt lat="44.42919" lon="7.13136">
        <ele>2561.57</ele>
        <time>2021-01-14T12:08:06Z</time>
      </trkpt>
      <trkpt lat="44.42924" lon="7.13138">
        <ele>2560.13</ele>
        <time>2021-01-14T12:08:11Z</time>
      </trkpt>
      <trkpt lat="44.42923" lon="7.13133">
        <ele>2559.17</ele>
        <time>2021-01-14T12:08:13Z</time>
      </trkpt>
      <trkpt lat="44.42921" lon="7.13126">
        <ele>2558.69</ele>
        <time>2021-01-14T12:08:20Z</time>
      </trkpt>
      <trkpt lat="44.42927" lon="7.13125">
        <ele>2557.24</ele>
        <time>2021-01-14T12:08:26Z</time>
      </trkpt>
      <trkpt lat="44.42943" lon="7.13132">
        <ele>2552.92</ele>
        <time>2021-01-14T12:08:34Z</time>
      </trkpt>
      <trkpt lat="44.42942" lon="7.13121">
        <ele>2550.03</ele>
        <time>2021-01-14T12:08:42Z</time>
      </trkpt>
      <trkpt lat="44.42942" lon="7.1312">
        <ele>2550.03</ele>
        <time>2021-01-14T12:08:45Z</time>
      </trkpt>
      <trkpt lat="44.42938" lon="7.1311">
        <ele>2549.07</ele>
        <time>2021-01-14T12:08:55Z</time>
      </trkpt>
      <trkpt lat="44.42961" lon="7.13117">
        <ele>2545.71</ele>
        <time>2021-01-14T12:09:06Z</time>
      </trkpt>
      <trkpt lat="44.42965" lon="7.1312">
        <ele>2543.79</ele>
        <time>2021-01-14T12:09:15Z</time>
      </trkpt>
      <trkpt lat="44.42974" lon="7.13125">
        <ele>2542.34</ele>
        <time>2021-01-14T12:09:26Z</time>
      </trkpt>
      <trkpt lat="44.42974" lon="7.13126">
        <ele>2541.38</ele>
        <time>2021-01-14T12:09:40Z</time>
      </trkpt>
      <trkpt lat="44.42974" lon="7.13126">
        <ele>2540.9</ele>
        <time>2021-01-14T12:09:58Z</time>
      </trkpt>
      <trkpt lat="44.42977" lon="7.13128">
        <ele>2539.94</ele>
        <time>2021-01-14T12:10:08Z</time>
      </trkpt>
      <trkpt lat="44.4298" lon="7.13119">
        <ele>2538.98</ele>
        <time>2021-01-14T12:10:12Z</time>
      </trkpt>
      <trkpt lat="44.42981" lon="7.1311">
        <ele>2537.54</ele>
        <time>2021-01-14T12:10:15Z</time>
      </trkpt>
      <trkpt lat="44.42984" lon="7.1308">
        <ele>2533.21</ele>
        <time>2021-01-14T12:10:24Z</time>
      </trkpt>
      <trkpt lat="44.4298" lon="7.13064">
        <ele>2530.33</ele>
        <time>2021-01-14T12:10:31Z</time>
      </trkpt>
      <trkpt lat="44.42982" lon="7.13061">
        <ele>2529.85</ele>
        <time>2021-01-14T12:10:34Z</time>
      </trkpt>
      <trkpt lat="44.42988" lon="7.13063">
        <ele>2527.92</ele>
        <time>2021-01-14T12:10:41Z</time>
      </trkpt>
      <trkpt lat="44.42983" lon="7.13041">
        <ele>2523.6</ele>
        <time>2021-01-14T12:10:50Z</time>
      </trkpt>
      <trkpt lat="44.42987" lon="7.1304">
        <ele>2520.71</ele>
        <time>2021-01-14T12:10:54Z</time>
      </trkpt>
      <trkpt lat="44.42993" lon="7.13042">
        <ele>2518.79</ele>
        <time>2021-01-14T12:10:58Z</time>
      </trkpt>
      <trkpt lat="44.42999" lon="7.1303">
        <ele>2515.43</ele>
        <time>2021-01-14T12:11:03Z</time>
      </trkpt>
      <trkpt lat="44.43006" lon="7.13033">
        <ele>2512.54</ele>
        <time>2021-01-14T12:11:08Z</time>
      </trkpt>
      <trkpt lat="44.43012" lon="7.13036">
        <ele>2510.62</ele>
        <time>2021-01-14T12:11:10Z</time>
      </trkpt>
      <trkpt lat="44.43026" lon="7.13035">
        <ele>2504.37</ele>
        <time>2021-01-14T12:11:18Z</time>
      </trkpt>
      <trkpt lat="44.43037" lon="7.1303">
        <ele>2499.08</ele>
        <time>2021-01-14T12:11:24Z</time>
      </trkpt>
      <trkpt lat="44.43037" lon="7.13027">
        <ele>2498.12</ele>
        <time>2021-01-14T12:11:26Z</time>
      </trkpt>
      <trkpt lat="44.43044" lon="7.13029">
        <ele>2493.32</ele>
        <time>2021-01-14T12:11:34Z</time>
      </trkpt>
      <trkpt lat="44.43044" lon="7.1302">
        <ele>2490.43</ele>
        <time>2021-01-14T12:11:43Z</time>
      </trkpt>
      <trkpt lat="44.43052" lon="7.1302">
        <ele>2486.59</ele>
        <time>2021-01-14T12:11:50Z</time>
      </trkpt>
      <trkpt lat="44.43052" lon="7.1302">
        <ele>2486.59</ele>
        <time>2021-01-14T12:11:51Z</time>
      </trkpt>
      <trkpt lat="44.43058" lon="7.13019">
        <ele>2483.7</ele>
        <time>2021-01-14T12:12:00Z</time>
      </trkpt>
      <trkpt lat="44.43064" lon="7.13019">
        <ele>2484.18</ele>
        <time>2021-01-14T12:12:20Z</time>
      </trkpt>
      <trkpt lat="44.43064" lon="7.13018">
        <ele>2484.18</ele>
        <time>2021-01-14T12:12:28Z</time>
      </trkpt>
      <trkpt lat="44.43072" lon="7.13016">
        <ele>2484.18</ele>
        <time>2021-01-14T12:12:32Z</time>
      </trkpt>
      <trkpt lat="44.43093" lon="7.13025">
        <ele>2478.42</ele>
        <time>2021-01-14T12:12:42Z</time>
      </trkpt>
      <trkpt lat="44.43095" lon="7.13015">
        <ele>2475.05</ele>
        <time>2021-01-14T12:12:48Z</time>
      </trkpt>
      <trkpt lat="44.431" lon="7.13008">
        <ele>2469.76</ele>
        <time>2021-01-14T12:12:53Z</time>
      </trkpt>
      <trkpt lat="44.43106" lon="7.13009">
        <ele>2467.84</ele>
        <time>2021-01-14T12:12:55Z</time>
      </trkpt>
      <trkpt lat="44.43117" lon="7.12992">
        <ele>2460.15</ele>
        <time>2021-01-14T12:13:02Z</time>
      </trkpt>
      <trkpt lat="44.43119" lon="7.12988">
        <ele>2459.19</ele>
        <time>2021-01-14T12:13:03Z</time>
      </trkpt>
      <trkpt lat="44.43139" lon="7.12976">
        <ele>2449.1</ele>
        <time>2021-01-14T12:13:10Z</time>
      </trkpt>
      <trkpt lat="44.43141" lon="7.12974">
        <ele>2439.96</ele>
        <time>2021-01-14T12:13:20Z</time>
      </trkpt>
      <trkpt lat="44.43139" lon="7.12976">
        <ele>2438.04</ele>
        <time>2021-01-14T12:13:38Z</time>
      </trkpt>
      <trkpt lat="44.4314" lon="7.12975">
        <ele>2439.96</ele>
        <time>2021-01-14T12:13:52Z</time>
      </trkpt>
      <trkpt lat="44.43141" lon="7.12975">
        <ele>2439</ele>
        <time>2021-01-14T12:14:06Z</time>
      </trkpt>
      <trkpt lat="44.43138" lon="7.12977">
        <ele>2437.56</ele>
        <time>2021-01-14T12:14:27Z</time>
      </trkpt>
      <trkpt lat="44.43145" lon="7.12968">
        <ele>2437.08</ele>
        <time>2021-01-14T12:14:31Z</time>
      </trkpt>
      <trkpt lat="44.43162" lon="7.12964">
        <ele>2433.23</ele>
        <time>2021-01-14T12:14:41Z</time>
      </trkpt>
      <trkpt lat="44.43162" lon="7.12964">
        <ele>2435.64</ele>
        <time>2021-01-14T12:15:02Z</time>
      </trkpt>
      <trkpt lat="44.43168" lon="7.12949">
        <ele>2431.79</ele>
        <time>2021-01-14T12:15:09Z</time>
      </trkpt>
      <trkpt lat="44.43169" lon="7.12951">
        <ele>2427.47</ele>
        <time>2021-01-14T12:15:36Z</time>
      </trkpt>
      <trkpt lat="44.43167" lon="7.12938">
        <ele>2426.5</ele>
        <time>2021-01-14T12:15:44Z</time>
      </trkpt>
      <trkpt lat="44.43167" lon="7.12938">
        <ele>2426.5</ele>
        <time>2021-01-14T12:15:51Z</time>
      </trkpt>
      <trkpt lat="44.43164" lon="7.12935">
        <ele>2423.62</ele>
        <time>2021-01-14T12:16:01Z</time>
      </trkpt>
      <trkpt lat="44.43164" lon="7.12933">
        <ele>2424.1</ele>
        <time>2021-01-14T12:16:10Z</time>
      </trkpt>
      <trkpt lat="44.43176" lon="7.1294">
        <ele>2421.22</ele>
        <time>2021-01-14T12:16:22Z</time>
      </trkpt>
      <trkpt lat="44.43176" lon="7.1294">
        <ele>2420.74</ele>
        <time>2021-01-14T12:16:23Z</time>
      </trkpt>
      <trkpt lat="44.43181" lon="7.12933">
        <ele>2418.33</ele>
        <time>2021-01-14T12:16:29Z</time>
      </trkpt>
      <trkpt lat="44.43181" lon="7.12929">
        <ele>2416.89</ele>
        <time>2021-01-14T12:16:31Z</time>
      </trkpt>
      <trkpt lat="44.43178" lon="7.12917">
        <ele>2413.05</ele>
        <time>2021-01-14T12:16:38Z</time>
      </trkpt>
      <trkpt lat="44.43173" lon="7.12906">
        <ele>2409.2</ele>
        <time>2021-01-14T12:16:48Z</time>
      </trkpt>
      <trkpt lat="44.43184" lon="7.12911">
        <ele>2406.32</ele>
        <time>2021-01-14T12:17:00Z</time>
      </trkpt>
      <trkpt lat="44.43185" lon="7.12911">
        <ele>2405.84</ele>
        <time>2021-01-14T12:17:03Z</time>
      </trkpt>
      <trkpt lat="44.43196" lon="7.1292">
        <ele>2403.43</ele>
        <time>2021-01-14T12:17:14Z</time>
      </trkpt>
      <trkpt lat="44.43196" lon="7.12921">
        <ele>2402.95</ele>
        <time>2021-01-14T12:17:15Z</time>
      </trkpt>
      <trkpt lat="44.43198" lon="7.12909">
        <ele>2400.55</ele>
        <time>2021-01-14T12:17:26Z</time>
      </trkpt>
      <trkpt lat="44.43208" lon="7.12908">
        <ele>2395.74</ele>
        <time>2021-01-14T12:17:33Z</time>
      </trkpt>
      <trkpt lat="44.43208" lon="7.12901">
        <ele>2392.38</ele>
        <time>2021-01-14T12:17:40Z</time>
      </trkpt>
      <trkpt lat="44.43209" lon="7.12888">
        <ele>2389.97</ele>
        <time>2021-01-14T12:17:44Z</time>
      </trkpt>
      <trkpt lat="44.43206" lon="7.1288">
        <ele>2386.13</ele>
        <time>2021-01-14T12:17:55Z</time>
      </trkpt>
      <trkpt lat="44.43205" lon="7.12852">
        <ele>2383.25</ele>
        <time>2021-01-14T12:18:04Z</time>
      </trkpt>
      <trkpt lat="44.43205" lon="7.12853">
        <ele>2383.25</ele>
        <time>2021-01-14T12:18:06Z</time>
      </trkpt>
      <trkpt lat="44.43213" lon="7.12855">
        <ele>2379.88</ele>
        <time>2021-01-14T12:18:12Z</time>
      </trkpt>
      <trkpt lat="44.43219" lon="7.1286">
        <ele>2376.52</ele>
        <time>2021-01-14T12:18:15Z</time>
      </trkpt>
      <trkpt lat="44.43225" lon="7.12854">
        <ele>2375.07</ele>
        <time>2021-01-14T12:18:19Z</time>
      </trkpt>
      <trkpt lat="44.4322" lon="7.12835">
        <ele>2369.31</ele>
        <time>2021-01-14T12:18:29Z</time>
      </trkpt>
      <trkpt lat="44.43222" lon="7.12835">
        <ele>2368.83</ele>
        <time>2021-01-14T12:18:48Z</time>
      </trkpt>
      <trkpt lat="44.43224" lon="7.12832">
        <ele>2367.86</ele>
        <time>2021-01-14T12:18:59Z</time>
      </trkpt>
      <trkpt lat="44.4323" lon="7.12833">
        <ele>2364.98</ele>
        <time>2021-01-14T12:19:03Z</time>
      </trkpt>
      <trkpt lat="44.43233" lon="7.12837">
        <ele>2364.02</ele>
        <time>2021-01-14T12:19:05Z</time>
      </trkpt>
      <trkpt lat="44.43238" lon="7.12823">
        <ele>2361.62</ele>
        <time>2021-01-14T12:19:09Z</time>
      </trkpt>
      <trkpt lat="44.43236" lon="7.12817">
        <ele>2360.65</ele>
        <time>2021-01-14T12:19:16Z</time>
      </trkpt>
      <trkpt lat="44.4324" lon="7.12807">
        <ele>2361.14</ele>
        <time>2021-01-14T12:19:23Z</time>
      </trkpt>
      <trkpt lat="44.43238" lon="7.12806">
        <ele>2359.69</ele>
        <time>2021-01-14T12:19:28Z</time>
      </trkpt>
      <trkpt lat="44.43257" lon="7.1281">
        <ele>2353.93</ele>
        <time>2021-01-14T12:19:37Z</time>
      </trkpt>
      <trkpt lat="44.43258" lon="7.12803">
        <ele>2352.96</ele>
        <time>2021-01-14T12:19:39Z</time>
      </trkpt>
      <trkpt lat="44.43258" lon="7.12796">
        <ele>2352.48</ele>
        <time>2021-01-14T12:19:41Z</time>
      </trkpt>
      <trkpt lat="44.43261" lon="7.12794">
        <ele>2352.48</ele>
        <time>2021-01-14T12:19:42Z</time>
      </trkpt>
      <trkpt lat="44.43272" lon="7.12804">
        <ele>2349.6</ele>
        <time>2021-01-14T12:19:47Z</time>
      </trkpt>
      <trkpt lat="44.43281" lon="7.12796">
        <ele>2347.68</ele>
        <time>2021-01-14T12:19:53Z</time>
      </trkpt>
      <trkpt lat="44.43281" lon="7.12796">
        <ele>2347.68</ele>
        <time>2021-01-14T12:19:54Z</time>
      </trkpt>
      <trkpt lat="44.43286" lon="7.12781">
        <ele>2346.23</ele>
        <time>2021-01-14T12:19:58Z</time>
      </trkpt>
      <trkpt lat="44.43286" lon="7.1277">
        <ele>2342.87</ele>
        <time>2021-01-14T12:20:08Z</time>
      </trkpt>
      <trkpt lat="44.43285" lon="7.12771">
        <ele>2341.43</ele>
        <time>2021-01-14T12:20:14Z</time>
      </trkpt>
      <trkpt lat="44.43286" lon="7.12775">
        <ele>2336.14</ele>
        <time>2021-01-14T12:20:19Z</time>
      </trkpt>
      <trkpt lat="44.43292" lon="7.12764">
        <ele>2334.7</ele>
        <time>2021-01-14T12:20:28Z</time>
      </trkpt>
      <trkpt lat="44.43289" lon="7.12765">
        <ele>2332.3</ele>
        <time>2021-01-14T12:20:34Z</time>
      </trkpt>
      <trkpt lat="44.43286" lon="7.12748">
        <ele>2327.49</ele>
        <time>2021-01-14T12:20:44Z</time>
      </trkpt>
      <trkpt lat="44.43277" lon="7.12742">
        <ele>2319.32</ele>
        <time>2021-01-14T12:20:57Z</time>
      </trkpt>
      <trkpt lat="44.43276" lon="7.1274">
        <ele>2316.91</ele>
        <time>2021-01-14T12:21:01Z</time>
      </trkpt>
      <trkpt lat="44.4327" lon="7.12736">
        <ele>2314.03</ele>
        <time>2021-01-14T12:21:07Z</time>
      </trkpt>
      <trkpt lat="44.43257" lon="7.12711">
        <ele>2310.67</ele>
        <time>2021-01-14T12:21:16Z</time>
      </trkpt>
      <trkpt lat="44.43251" lon="7.12712">
        <ele>2309.22</ele>
        <time>2021-01-14T12:21:30Z</time>
      </trkpt>
      <trkpt lat="44.43257" lon="7.12713">
        <ele>2305.86</ele>
        <time>2021-01-14T12:21:40Z</time>
      </trkpt>
      <trkpt lat="44.43256" lon="7.12712">
        <ele>2304.9</ele>
        <time>2021-01-14T12:21:43Z</time>
      </trkpt>
      <trkpt lat="44.43256" lon="7.12692">
        <ele>2302.98</ele>
        <time>2021-01-14T12:21:53Z</time>
      </trkpt>
      <trkpt lat="44.43257" lon="7.12692">
        <ele>2302.98</ele>
        <time>2021-01-14T12:21:59Z</time>
      </trkpt>
      <trkpt lat="44.43266" lon="7.1269">
        <ele>2299.13</ele>
        <time>2021-01-14T12:22:06Z</time>
      </trkpt>
      <trkpt lat="44.4327" lon="7.12668">
        <ele>2296.25</ele>
        <time>2021-01-14T12:22:13Z</time>
      </trkpt>
      <trkpt lat="44.43269" lon="7.12654">
        <ele>2292.88</ele>
        <time>2021-01-14T12:22:19Z</time>
      </trkpt>
      <trkpt lat="44.43268" lon="7.12651">
        <ele>2288.56</ele>
        <time>2021-01-14T12:22:28Z</time>
      </trkpt>
      <trkpt lat="44.43274" lon="7.12653">
        <ele>2286.15</ele>
        <time>2021-01-14T12:22:32Z</time>
      </trkpt>
      <trkpt lat="44.43276" lon="7.12653">
        <ele>2285.19</ele>
        <time>2021-01-14T12:22:37Z</time>
      </trkpt>
      <trkpt lat="44.43281" lon="7.1266">
        <ele>2281.83</ele>
        <time>2021-01-14T12:22:43Z</time>
      </trkpt>
      <trkpt lat="44.4328" lon="7.1266">
        <ele>2279.9</ele>
        <time>2021-01-14T12:22:48Z</time>
      </trkpt>
      <trkpt lat="44.43283" lon="7.12657">
        <ele>2280.87</ele>
        <time>2021-01-14T12:22:58Z</time>
      </trkpt>
      <trkpt lat="44.43283" lon="7.12657">
        <ele>2280.87</ele>
        <time>2021-01-14T12:23:00Z</time>
      </trkpt>
      <trkpt lat="44.43284" lon="7.12655">
        <ele>2280.38</ele>
        <time>2021-01-14T12:23:02Z</time>
      </trkpt>
      <trkpt lat="44.43287" lon="7.12653">
        <ele>2278.94</ele>
        <time>2021-01-14T12:23:19Z</time>
      </trkpt>
      <trkpt lat="44.43289" lon="7.12653">
        <ele>2278.94</ele>
        <time>2021-01-14T12:23:20Z</time>
      </trkpt>
      <trkpt lat="44.43294" lon="7.12624">
        <ele>2278.46</ele>
        <time>2021-01-14T12:23:29Z</time>
      </trkpt>
      <trkpt lat="44.43296" lon="7.1261">
        <ele>2278.46</ele>
        <time>2021-01-14T12:23:31Z</time>
      </trkpt>
      <trkpt lat="44.43296" lon="7.12589">
        <ele>2278.46</ele>
        <time>2021-01-14T12:23:38Z</time>
      </trkpt>
      <trkpt lat="44.43298" lon="7.12574">
        <ele>2277.98</ele>
        <time>2021-01-14T12:23:42Z</time>
      </trkpt>
      <trkpt lat="44.43299" lon="7.12555">
        <ele>2275.1</ele>
        <time>2021-01-14T12:23:50Z</time>
      </trkpt>
      <trkpt lat="44.43299" lon="7.12544">
        <ele>2265.96</ele>
        <time>2021-01-14T12:24:01Z</time>
      </trkpt>
      <trkpt lat="44.43298" lon="7.12554">
        <ele>2259.24</ele>
        <time>2021-01-14T12:24:10Z</time>
      </trkpt>
      <trkpt lat="44.43304" lon="7.12549">
        <ele>2255.39</ele>
        <time>2021-01-14T12:24:17Z</time>
      </trkpt>
      <trkpt lat="44.43315" lon="7.12559">
        <ele>2250.58</ele>
        <time>2021-01-14T12:24:23Z</time>
      </trkpt>
      <trkpt lat="44.43322" lon="7.12565">
        <ele>2243.37</ele>
        <time>2021-01-14T12:24:33Z</time>
      </trkpt>
      <trkpt lat="44.43324" lon="7.12569">
        <ele>2239.53</ele>
        <time>2021-01-14T12:24:43Z</time>
      </trkpt>
      <trkpt lat="44.43337" lon="7.12576">
        <ele>2238.57</ele>
        <time>2021-01-14T12:24:49Z</time>
      </trkpt>
      <trkpt lat="44.43339" lon="7.12586">
        <ele>2238.09</ele>
        <time>2021-01-14T12:24:59Z</time>
      </trkpt>
      <trkpt lat="44.43338" lon="7.12587">
        <ele>2235.68</ele>
        <time>2021-01-14T12:25:07Z</time>
      </trkpt>
      <trkpt lat="44.4334" lon="7.12593">
        <ele>2235.2</ele>
        <time>2021-01-14T12:25:10Z</time>
      </trkpt>
      <trkpt lat="44.43349" lon="7.12588">
        <ele>2233.76</ele>
        <time>2021-01-14T12:25:16Z</time>
      </trkpt>
      <trkpt lat="44.43351" lon="7.12589">
        <ele>2233.76</ele>
        <time>2021-01-14T12:25:17Z</time>
      </trkpt>
      <trkpt lat="44.43353" lon="7.12594">
        <ele>2233.76</ele>
        <time>2021-01-14T12:25:19Z</time>
      </trkpt>
      <trkpt lat="44.43353" lon="7.12596">
        <ele>2233.76</ele>
        <time>2021-01-14T12:25:20Z</time>
      </trkpt>
      <trkpt lat="44.43354" lon="7.12598">
        <ele>2233.76</ele>
        <time>2021-01-14T12:25:23Z</time>
      </trkpt>
      <trkpt lat="44.43354" lon="7.12596">
        <ele>2233.76</ele>
        <time>2021-01-14T12:25:26Z</time>
      </trkpt>
      <trkpt lat="44.43365" lon="7.12592">
        <ele>2233.76</ele>
        <time>2021-01-14T12:25:37Z</time>
      </trkpt>
      <trkpt lat="44.43368" lon="7.12593">
        <ele>2233.76</ele>
        <time>2021-01-14T12:25:39Z</time>
      </trkpt>
      <trkpt lat="44.4337" lon="7.12594">
        <ele>2233.76</ele>
        <time>2021-01-14T12:25:40Z</time>
      </trkpt>
      <trkpt lat="44.4337" lon="7.12603">
        <ele>2233.76</ele>
        <time>2021-01-14T12:25:46Z</time>
      </trkpt>
      <trkpt lat="44.43373" lon="7.12605">
        <ele>2233.76</ele>
        <time>2021-01-14T12:25:50Z</time>
      </trkpt>
      <trkpt lat="44.43377" lon="7.12604">
        <ele>2233.76</ele>
        <time>2021-01-14T12:25:52Z</time>
      </trkpt>
      <trkpt lat="44.43379" lon="7.12607">
        <ele>2233.76</ele>
        <time>2021-01-14T12:25:53Z</time>
      </trkpt>
      <trkpt lat="44.43383" lon="7.12614">
        <ele>2233.76</ele>
        <time>2021-01-14T12:26:05Z</time>
      </trkpt>
      <trkpt lat="44.43384" lon="7.12614">
        <ele>2233.76</ele>
        <time>2021-01-14T12:26:06Z</time>
      </trkpt>
      <trkpt lat="44.43387" lon="7.12621">
        <ele>2233.76</ele>
        <time>2021-01-14T12:26:10Z</time>
      </trkpt>
      <trkpt lat="44.43387" lon="7.12624">
        <ele>2234.24</ele>
        <time>2021-01-14T12:26:11Z</time>
      </trkpt>
      <trkpt lat="44.43388" lon="7.12627">
        <ele>2232.32</ele>
        <time>2021-01-14T12:26:21Z</time>
      </trkpt>
      <trkpt lat="44.4339" lon="7.12631">
        <ele>2232.32</ele>
        <time>2021-01-14T12:26:36Z</time>
      </trkpt>
      <trkpt lat="44.4339" lon="7.1263">
        <ele>2232.32</ele>
        <time>2021-01-14T12:26:37Z</time>
      </trkpt>
      <trkpt lat="44.43394" lon="7.12627">
        <ele>2232.32</ele>
        <time>2021-01-14T12:26:41Z</time>
      </trkpt>
      <trkpt lat="44.43406" lon="7.1262">
        <ele>2231.84</ele>
        <time>2021-01-14T12:26:50Z</time>
      </trkpt>
      <trkpt lat="44.43411" lon="7.12618">
        <ele>2231.84</ele>
        <time>2021-01-14T12:26:58Z</time>
      </trkpt>
      <trkpt lat="44.43413" lon="7.12619">
        <ele>2231.84</ele>
        <time>2021-01-14T12:26:59Z</time>
      </trkpt>
      <trkpt lat="44.43414" lon="7.12624">
        <ele>2231.36</ele>
        <time>2021-01-14T12:27:02Z</time>
      </trkpt>
      <trkpt lat="44.43415" lon="7.12626">
        <ele>2230.88</ele>
        <time>2021-01-14T12:27:07Z</time>
      </trkpt>
      <trkpt lat="44.43421" lon="7.12644">
        <ele>2229.43</ele>
        <time>2021-01-14T12:27:15Z</time>
      </trkpt>
      <trkpt lat="44.43421" lon="7.12644">
        <ele>2229.43</ele>
        <time>2021-01-14T12:27:17Z</time>
      </trkpt>
      <trkpt lat="44.43407" lon="7.12668">
        <ele>2200.59</ele>
        <time>2021-01-14T12:27:26Z</time>
      </trkpt>
      <trkpt lat="44.4341" lon="7.12683">
        <ele>2192.9</ele>
        <time>2021-01-14T12:27:30Z</time>
      </trkpt>
      <trkpt lat="44.43413" lon="7.12689">
        <ele>2188.1</ele>
        <time>2021-01-14T12:27:35Z</time>
      </trkpt>
      <trkpt lat="44.43422" lon="7.12691">
        <ele>2184.73</ele>
        <time>2021-01-14T12:27:39Z</time>
      </trkpt>
      <trkpt lat="44.43437" lon="7.12699">
        <ele>2180.41</ele>
        <time>2021-01-14T12:27:44Z</time>
      </trkpt>
      <trkpt lat="44.43447" lon="7.12707">
        <ele>2178.48</ele>
        <time>2021-01-14T12:27:47Z</time>
      </trkpt>
      <trkpt lat="44.43461" lon="7.12705">
        <ele>2176.56</ele>
        <time>2021-01-14T12:27:53Z</time>
      </trkpt>
      <trkpt lat="44.43453" lon="7.12704">
        <ele>2166.47</ele>
        <time>2021-01-14T12:28:17Z</time>
      </trkpt>
      <trkpt lat="44.43459" lon="7.12702">
        <ele>2164.06</ele>
        <time>2021-01-14T12:28:27Z</time>
      </trkpt>
      <trkpt lat="44.43459" lon="7.12706">
        <ele>2163.1</ele>
        <time>2021-01-14T12:28:30Z</time>
      </trkpt>
      <trkpt lat="44.43477" lon="7.12718">
        <ele>2160.22</ele>
        <time>2021-01-14T12:28:38Z</time>
      </trkpt>
      <trkpt lat="44.43493" lon="7.12734">
        <ele>2153.97</ele>
        <time>2021-01-14T12:28:48Z</time>
      </trkpt>
      <trkpt lat="44.43494" lon="7.12738">
        <ele>2150.13</ele>
        <time>2021-01-14T12:29:07Z</time>
      </trkpt>
      <trkpt lat="44.43496" lon="7.12738">
        <ele>2152.05</ele>
        <time>2021-01-14T12:29:17Z</time>
      </trkpt>
      <trkpt lat="44.43509" lon="7.12726">
        <ele>2149.65</ele>
        <time>2021-01-14T12:29:24Z</time>
      </trkpt>
      <trkpt lat="44.43524" lon="7.12706">
        <ele>2144.84</ele>
        <time>2021-01-14T12:29:30Z</time>
      </trkpt>
      <trkpt lat="44.43537" lon="7.12697">
        <ele>2139.07</ele>
        <time>2021-01-14T12:29:36Z</time>
      </trkpt>
      <trkpt lat="44.43545" lon="7.12675">
        <ele>2134.74</ele>
        <time>2021-01-14T12:29:41Z</time>
      </trkpt>
      <trkpt lat="44.43547" lon="7.12675">
        <ele>2133.3</ele>
        <time>2021-01-14T12:29:50Z</time>
      </trkpt>
      <trkpt lat="44.43547" lon="7.12673">
        <ele>2133.78</ele>
        <time>2021-01-14T12:29:58Z</time>
      </trkpt>
      <trkpt lat="44.43563" lon="7.12659">
        <ele>2132.34</ele>
        <time>2021-01-14T12:30:05Z</time>
      </trkpt>
      <trkpt lat="44.43567" lon="7.12662">
        <ele>2128.98</ele>
        <time>2021-01-14T12:30:15Z</time>
      </trkpt>
      <trkpt lat="44.4357" lon="7.12663">
        <ele>2128.5</ele>
        <time>2021-01-14T12:30:23Z</time>
      </trkpt>
      <trkpt lat="44.43588" lon="7.12652">
        <ele>2127.53</ele>
        <time>2021-01-14T12:30:29Z</time>
      </trkpt>
      <trkpt lat="44.43607" lon="7.12649">
        <ele>2126.09</ele>
        <time>2021-01-14T12:30:33Z</time>
      </trkpt>
      <trkpt lat="44.43618" lon="7.12629">
        <ele>2123.21</ele>
        <time>2021-01-14T12:30:40Z</time>
      </trkpt>
      <trkpt lat="44.43616" lon="7.12626">
        <ele>2118.88</ele>
        <time>2021-01-14T12:30:53Z</time>
      </trkpt>
      <trkpt lat="44.43621" lon="7.12613">
        <ele>2116.48</ele>
        <time>2021-01-14T12:30:57Z</time>
      </trkpt>
      <trkpt lat="44.43628" lon="7.12607">
        <ele>2115.04</ele>
        <time>2021-01-14T12:30:59Z</time>
      </trkpt>
      <trkpt lat="44.43631" lon="7.12598">
        <ele>2110.71</ele>
        <time>2021-01-14T12:31:06Z</time>
      </trkpt>
      <trkpt lat="44.4363" lon="7.12598">
        <ele>2109.75</ele>
        <time>2021-01-14T12:31:08Z</time>
      </trkpt>
      <trkpt lat="44.43627" lon="7.12589">
        <ele>2106.39</ele>
        <time>2021-01-14T12:31:16Z</time>
      </trkpt>
      <trkpt lat="44.43632" lon="7.12576">
        <ele>2104.46</ele>
        <time>2021-01-14T12:31:22Z</time>
      </trkpt>
      <trkpt lat="44.4364" lon="7.12543">
        <ele>2104.46</ele>
        <time>2021-01-14T12:31:34Z</time>
      </trkpt>
      <trkpt lat="44.43653" lon="7.12497">
        <ele>2103.5</ele>
        <time>2021-01-14T12:31:42Z</time>
      </trkpt>
      <trkpt lat="44.43663" lon="7.12465">
        <ele>2102.54</ele>
        <time>2021-01-14T12:31:46Z</time>
      </trkpt>
      <trkpt lat="44.43672" lon="7.12444">
        <ele>2099.66</ele>
        <time>2021-01-14T12:31:50Z</time>
      </trkpt>
      <trkpt lat="44.43674" lon="7.12423">
        <ele>2094.85</ele>
        <time>2021-01-14T12:31:54Z</time>
      </trkpt>
      <trkpt lat="44.43676" lon="7.12413">
        <ele>2092.45</ele>
        <time>2021-01-14T12:31:56Z</time>
      </trkpt>
      <trkpt lat="44.43677" lon="7.12364">
        <ele>2079.47</ele>
        <time>2021-01-14T12:32:04Z</time>
      </trkpt>
      <trkpt lat="44.43672" lon="7.12355">
        <ele>2071.78</ele>
        <time>2021-01-14T12:32:06Z</time>
      </trkpt>
      <trkpt lat="44.43676" lon="7.12342">
        <ele>2063.61</ele>
        <time>2021-01-14T12:32:10Z</time>
      </trkpt>
      <trkpt lat="44.43679" lon="7.12338">
        <ele>2058.8</ele>
        <time>2021-01-14T12:32:20Z</time>
      </trkpt>
      <trkpt lat="44.43679" lon="7.12337">
        <ele>2058.32</ele>
        <time>2021-01-14T12:32:25Z</time>
      </trkpt>
      <trkpt lat="44.43684" lon="7.12324">
        <ele>2055.44</ele>
        <time>2021-01-14T12:32:34Z</time>
      </trkpt>
      <trkpt lat="44.43685" lon="7.12319">
        <ele>2051.59</ele>
        <time>2021-01-14T12:32:50Z</time>
      </trkpt>
      <trkpt lat="44.43694" lon="7.12314">
        <ele>2051.59</ele>
        <time>2021-01-14T12:33:00Z</time>
      </trkpt>
      <trkpt lat="44.43702" lon="7.12312">
        <ele>2051.59</ele>
        <time>2021-01-14T12:33:18Z</time>
      </trkpt>
      <trkpt lat="44.4372" lon="7.12323">
        <ele>2050.63</ele>
        <time>2021-01-14T12:33:25Z</time>
      </trkpt>
      <trkpt lat="44.43727" lon="7.1233">
        <ele>2048.71</ele>
        <time>2021-01-14T12:33:29Z</time>
      </trkpt>
      <trkpt lat="44.43748" lon="7.1231">
        <ele>2044.38</ele>
        <time>2021-01-14T12:33:38Z</time>
      </trkpt>
      <trkpt lat="44.43744" lon="7.123">
        <ele>2042.46</ele>
        <time>2021-01-14T12:33:45Z</time>
      </trkpt>
      <trkpt lat="44.43741" lon="7.12298">
        <ele>2037.65</ele>
        <time>2021-01-14T12:33:58Z</time>
      </trkpt>
      <trkpt lat="44.43738" lon="7.12304">
        <ele>2040.54</ele>
        <time>2021-01-14T12:34:52Z</time>
      </trkpt>
      <trkpt lat="44.43737" lon="7.12309">
        <ele>2045.82</ele>
        <time>2021-01-14T12:35:21Z</time>
      </trkpt>
      <trkpt lat="44.43735" lon="7.12307">
        <ele>2044.38</ele>
        <time>2021-01-14T12:36:01Z</time>
      </trkpt>
      <trkpt lat="44.43734" lon="7.12307">
        <ele>2041.98</ele>
        <time>2021-01-14T12:36:32Z</time>
      </trkpt>
      <trkpt lat="44.43735" lon="7.12304">
        <ele>2043.9</ele>
        <time>2021-01-14T12:37:00Z</time>
      </trkpt>
      <trkpt lat="44.4374" lon="7.12294">
        <ele>2046.78</ele>
        <time>2021-01-14T12:37:18Z</time>
      </trkpt>
      <trkpt lat="44.43741" lon="7.12292">
        <ele>2039.09</ele>
        <time>2021-01-14T12:37:31Z</time>
      </trkpt>
      <trkpt lat="44.43741" lon="7.12292">
        <ele>2039.09</ele>
        <time>2021-01-14T12:37:32Z</time>
      </trkpt>
      <trkpt lat="44.43745" lon="7.12286">
        <ele>2038.61</ele>
        <time>2021-01-14T12:37:38Z</time>
      </trkpt>
      <trkpt lat="44.43745" lon="7.12281">
        <ele>2038.13</ele>
        <time>2021-01-14T12:37:41Z</time>
      </trkpt>
      <trkpt lat="44.43743" lon="7.12271">
        <ele>2034.77</ele>
        <time>2021-01-14T12:37:45Z</time>
      </trkpt>
      <trkpt lat="44.43727" lon="7.12242">
        <ele>2030.44</ele>
        <time>2021-01-14T12:37:52Z</time>
      </trkpt>
      <trkpt lat="44.43726" lon="7.12238">
        <ele>2030.44</ele>
        <time>2021-01-14T12:37:53Z</time>
      </trkpt>
      <trkpt lat="44.43715" lon="7.12225">
        <ele>2029.96</ele>
        <time>2021-01-14T12:38:02Z</time>
      </trkpt>
      <trkpt lat="44.43714" lon="7.12221">
        <ele>2029.96</ele>
        <time>2021-01-14T12:38:10Z</time>
      </trkpt>
      <trkpt lat="44.43715" lon="7.122">
        <ele>2029.96</ele>
        <time>2021-01-14T12:38:17Z</time>
      </trkpt>
      <trkpt lat="44.43718" lon="7.12186">
        <ele>2028.04</ele>
        <time>2021-01-14T12:38:26Z</time>
      </trkpt>
      <trkpt lat="44.43717" lon="7.12185">
        <ele>2029</ele>
        <time>2021-01-14T12:38:51Z</time>
      </trkpt>
      <trkpt lat="44.4372" lon="7.12185">
        <ele>2026.6</ele>
        <time>2021-01-14T12:39:13Z</time>
      </trkpt>
      <trkpt lat="44.43718" lon="7.12189">
        <ele>2026.12</ele>
        <time>2021-01-14T12:39:34Z</time>
      </trkpt>
      <trkpt lat="44.43717" lon="7.12185">
        <ele>2017.94</ele>
        <time>2021-01-14T12:40:02Z</time>
      </trkpt>
      <trkpt lat="44.43717" lon="7.12184">
        <ele>2017.94</ele>
        <time>2021-01-14T12:40:04Z</time>
      </trkpt>
      <trkpt lat="44.43718" lon="7.12177">
        <ele>2017.94</ele>
        <time>2021-01-14T12:40:08Z</time>
      </trkpt>
      <trkpt lat="44.43716" lon="7.12165">
        <ele>2016.02</ele>
        <time>2021-01-14T12:40:14Z</time>
      </trkpt>
      <trkpt lat="44.4371" lon="7.12153">
        <ele>2016.02</ele>
        <time>2021-01-14T12:40:23Z</time>
      </trkpt>
      <trkpt lat="44.43711" lon="7.12141">
        <ele>2014.1</ele>
        <time>2021-01-14T12:40:27Z</time>
      </trkpt>
      <trkpt lat="44.4371" lon="7.12133">
        <ele>2014.58</ele>
        <time>2021-01-14T12:40:31Z</time>
      </trkpt>
      <trkpt lat="44.43724" lon="7.12127">
        <ele>2020.35</ele>
        <time>2021-01-14T12:40:38Z</time>
      </trkpt>
      <trkpt lat="44.43731" lon="7.12131">
        <ele>2023.71</ele>
        <time>2021-01-14T12:40:41Z</time>
      </trkpt>
      <trkpt lat="44.43737" lon="7.1213">
        <ele>2026.6</ele>
        <time>2021-01-14T12:40:44Z</time>
      </trkpt>
      <trkpt lat="44.43745" lon="7.12117">
        <ele>2028.52</ele>
        <time>2021-01-14T12:40:48Z</time>
      </trkpt>
      <trkpt lat="44.43755" lon="7.12108">
        <ele>2026.6</ele>
        <time>2021-01-14T12:40:52Z</time>
      </trkpt>
      <trkpt lat="44.43755" lon="7.12098">
        <ele>2026.6</ele>
        <time>2021-01-14T12:40:55Z</time>
      </trkpt>
      <trkpt lat="44.43762" lon="7.12085">
        <ele>2026.6</ele>
        <time>2021-01-14T12:40:58Z</time>
      </trkpt>
      <trkpt lat="44.43763" lon="7.1208">
        <ele>2026.6</ele>
        <time>2021-01-14T12:40:59Z</time>
      </trkpt>
      <trkpt lat="44.43756" lon="7.12063">
        <ele>2025.15</ele>
        <time>2021-01-14T12:41:03Z</time>
      </trkpt>
      <trkpt lat="44.43759" lon="7.12037">
        <ele>2024.67</ele>
        <time>2021-01-14T12:41:08Z</time>
      </trkpt>
      <trkpt lat="44.43761" lon="7.12033">
        <ele>2023.71</ele>
        <time>2021-01-14T12:41:11Z</time>
      </trkpt>
      <trkpt lat="44.43764" lon="7.12008">
        <ele>2023.71</ele>
        <time>2021-01-14T12:41:18Z</time>
      </trkpt>
      <trkpt lat="44.43766" lon="7.11995">
        <ele>2023.23</ele>
        <time>2021-01-14T12:41:21Z</time>
      </trkpt>
      <trkpt lat="44.43768" lon="7.11989">
        <ele>2022.75</ele>
        <time>2021-01-14T12:41:30Z</time>
      </trkpt>
      <trkpt lat="44.43776" lon="7.11991">
        <ele>2021.79</ele>
        <time>2021-01-14T12:41:53Z</time>
      </trkpt>
      <trkpt lat="44.4379" lon="7.1198">
        <ele>2014.58</ele>
        <time>2021-01-14T12:41:59Z</time>
      </trkpt>
      <trkpt lat="44.43788" lon="7.11951">
        <ele>2010.73</ele>
        <time>2021-01-14T12:42:04Z</time>
      </trkpt>
      <trkpt lat="44.43783" lon="7.11924">
        <ele>1993.91</ele>
        <time>2021-01-14T12:42:13Z</time>
      </trkpt>
      <trkpt lat="44.43786" lon="7.11914">
        <ele>1986.7</ele>
        <time>2021-01-14T12:42:31Z</time>
      </trkpt>
      <trkpt lat="44.43784" lon="7.11906">
        <ele>1975.65</ele>
        <time>2021-01-14T12:42:43Z</time>
      </trkpt>
      <trkpt lat="44.43786" lon="7.11904">
        <ele>1973.72</ele>
        <time>2021-01-14T12:42:47Z</time>
      </trkpt>
      <trkpt lat="44.43783" lon="7.119">
        <ele>1970.84</ele>
        <time>2021-01-14T12:42:54Z</time>
      </trkpt>
      <trkpt lat="44.43784" lon="7.11894">
        <ele>1969.88</ele>
        <time>2021-01-14T12:42:57Z</time>
      </trkpt>
      <trkpt lat="44.43782" lon="7.11889">
        <ele>1969.4</ele>
        <time>2021-01-14T12:43:00Z</time>
      </trkpt>
      <trkpt lat="44.43782" lon="7.11887">
        <ele>1969.4</ele>
        <time>2021-01-14T12:43:01Z</time>
      </trkpt>
      <trkpt lat="44.43777" lon="7.11885">
        <ele>1966.03</ele>
        <time>2021-01-14T12:43:10Z</time>
      </trkpt>
      <trkpt lat="44.43763" lon="7.11886">
        <ele>1958.34</ele>
        <time>2021-01-14T12:43:18Z</time>
      </trkpt>
      <trkpt lat="44.43759" lon="7.11885">
        <ele>1953.54</ele>
        <time>2021-01-14T12:43:25Z</time>
      </trkpt>
      <trkpt lat="44.43761" lon="7.11884">
        <ele>1950.65</ele>
        <time>2021-01-14T12:43:33Z</time>
      </trkpt>
      <trkpt lat="44.43762" lon="7.11883">
        <ele>1949.21</ele>
        <time>2021-01-14T12:43:46Z</time>
      </trkpt>
      <trkpt lat="44.43765" lon="7.11884">
        <ele>1950.17</ele>
        <time>2021-01-14T12:43:51Z</time>
      </trkpt>
      <trkpt lat="44.43767" lon="7.11883">
        <ele>1950.65</ele>
        <time>2021-01-14T12:43:53Z</time>
      </trkpt>
      <trkpt lat="44.43781" lon="7.11879">
        <ele>1952.57</ele>
        <time>2021-01-14T12:43:59Z</time>
      </trkpt>
      <trkpt lat="44.43784" lon="7.11877">
        <ele>1953.54</ele>
        <time>2021-01-14T12:44:13Z</time>
      </trkpt>
      <trkpt lat="44.43787" lon="7.11878">
        <ele>1954.02</ele>
        <time>2021-01-14T12:44:29Z</time>
      </trkpt>
      <trkpt lat="44.4379" lon="7.1186">
        <ele>1945.36</ele>
        <time>2021-01-14T12:44:39Z</time>
      </trkpt>
      <trkpt lat="44.43788" lon="7.11853">
        <ele>1939.6</ele>
        <time>2021-01-14T12:44:47Z</time>
      </trkpt>
      <trkpt lat="44.43786" lon="7.11852">
        <ele>1934.79</ele>
        <time>2021-01-14T12:44:56Z</time>
      </trkpt>
      <trkpt lat="44.43786" lon="7.11852">
        <ele>1932.87</ele>
        <time>2021-01-14T12:44:59Z</time>
      </trkpt>
      <trkpt lat="44.43796" lon="7.11851">
        <ele>1930.46</ele>
        <time>2021-01-14T12:45:05Z</time>
      </trkpt>
      <trkpt lat="44.43803" lon="7.11852">
        <ele>1929.02</ele>
        <time>2021-01-14T12:45:15Z</time>
      </trkpt>
      <trkpt lat="44.43803" lon="7.11852">
        <ele>1929.02</ele>
        <time>2021-01-14T12:45:19Z</time>
      </trkpt>
      <trkpt lat="44.43806" lon="7.11851">
        <ele>1930.46</ele>
        <time>2021-01-14T12:45:30Z</time>
      </trkpt>
      <trkpt lat="44.43805" lon="7.11851">
        <ele>1927.1</ele>
        <time>2021-01-14T12:45:49Z</time>
      </trkpt>
      <trkpt lat="44.43803" lon="7.1185">
        <ele>1923.74</ele>
        <time>2021-01-14T12:46:03Z</time>
      </trkpt>
      <trkpt lat="44.43801" lon="7.11843">
        <ele>1918.93</ele>
        <time>2021-01-14T12:46:14Z</time>
      </trkpt>
      <trkpt lat="44.438" lon="7.11841">
        <ele>1917.97</ele>
        <time>2021-01-14T12:46:16Z</time>
      </trkpt>
      <trkpt lat="44.438" lon="7.11839">
        <ele>1915.56</ele>
        <time>2021-01-14T12:46:26Z</time>
      </trkpt>
      <trkpt lat="44.43803" lon="7.11835">
        <ele>1917.49</ele>
        <time>2021-01-14T12:46:40Z</time>
      </trkpt>
      <trkpt lat="44.43802" lon="7.11833">
        <ele>1916.53</ele>
        <time>2021-01-14T12:46:50Z</time>
      </trkpt>
      <trkpt lat="44.43804" lon="7.11826">
        <ele>1909.8</ele>
        <time>2021-01-14T12:47:02Z</time>
      </trkpt>
      <trkpt lat="44.43802" lon="7.11827">
        <ele>1907.39</ele>
        <time>2021-01-14T12:47:18Z</time>
      </trkpt>
      <trkpt lat="44.43802" lon="7.11825">
        <ele>1904.51</ele>
        <time>2021-01-14T12:47:26Z</time>
      </trkpt>
      <trkpt lat="44.43803" lon="7.11816">
        <ele>1903.55</ele>
        <time>2021-01-14T12:47:40Z</time>
      </trkpt>
      <trkpt lat="44.43805" lon="7.11805">
        <ele>1902.59</ele>
        <time>2021-01-14T12:47:56Z</time>
      </trkpt>
      <trkpt lat="44.43806" lon="7.11798">
        <ele>1901.14</ele>
        <time>2021-01-14T12:48:12Z</time>
      </trkpt>
      <trkpt lat="44.43805" lon="7.11799">
        <ele>1900.18</ele>
        <time>2021-01-14T12:48:32Z</time>
      </trkpt>
      <trkpt lat="44.43806" lon="7.11793">
        <ele>1898.74</ele>
        <time>2021-01-14T12:48:41Z</time>
      </trkpt>
      <trkpt lat="44.43812" lon="7.11791">
        <ele>1900.18</ele>
        <time>2021-01-14T12:48:57Z</time>
      </trkpt>
      <trkpt lat="44.43812" lon="7.11786">
        <ele>1895.86</ele>
        <time>2021-01-14T12:49:12Z</time>
      </trkpt>
      <trkpt lat="44.43818" lon="7.11778">
        <ele>1892.97</ele>
        <time>2021-01-14T12:49:23Z</time>
      </trkpt>
      <trkpt lat="44.43819" lon="7.11773">
        <ele>1890.57</ele>
        <time>2021-01-14T12:49:39Z</time>
      </trkpt>
      <trkpt lat="44.4382" lon="7.11767">
        <ele>1892.01</ele>
        <time>2021-01-14T12:49:55Z</time>
      </trkpt>
      <trkpt lat="44.43822" lon="7.11765">
        <ele>1890.09</ele>
        <time>2021-01-14T12:50:12Z</time>
      </trkpt>
      <trkpt lat="44.43822" lon="7.11761">
        <ele>1891.05</ele>
        <time>2021-01-14T12:50:24Z</time>
      </trkpt>
      <trkpt lat="44.43824" lon="7.11751">
        <ele>1886.72</ele>
        <time>2021-01-14T12:50:38Z</time>
      </trkpt>
      <trkpt lat="44.43828" lon="7.11741">
        <ele>1883.36</ele>
        <time>2021-01-14T12:50:57Z</time>
      </trkpt>
      <trkpt lat="44.43832" lon="7.11741">
        <ele>1885.76</ele>
        <time>2021-01-14T12:51:22Z</time>
      </trkpt>
      <trkpt lat="44.43831" lon="7.11739">
        <ele>1882.4</ele>
        <time>2021-01-14T12:51:41Z</time>
      </trkpt>
      <trkpt lat="44.43831" lon="7.11743">
        <ele>1883.84</ele>
        <time>2021-01-14T12:51:57Z</time>
      </trkpt>
      <trkpt lat="44.43825" lon="7.1175">
        <ele>1880</ele>
        <time>2021-01-14T12:52:15Z</time>
      </trkpt>
      <trkpt lat="44.43824" lon="7.11752">
        <ele>1878.55</ele>
        <time>2021-01-14T12:52:32Z</time>
      </trkpt>
      <trkpt lat="44.43825" lon="7.1175">
        <ele>1878.55</ele>
        <time>2021-01-14T12:52:48Z</time>
      </trkpt>
      <trkpt lat="44.43821" lon="7.1175">
        <ele>1878.55</ele>
        <time>2021-01-14T12:53:02Z</time>
      </trkpt>
      <trkpt lat="44.43823" lon="7.11746">
        <ele>1879.03</ele>
        <time>2021-01-14T12:53:20Z</time>
      </trkpt>
      <trkpt lat="44.43822" lon="7.11739">
        <ele>1876.63</ele>
        <time>2021-01-14T12:53:38Z</time>
      </trkpt>
      <trkpt lat="44.43822" lon="7.11737">
        <ele>1877.59</ele>
        <time>2021-01-14T12:53:59Z</time>
      </trkpt>
      <trkpt lat="44.43821" lon="7.11738">
        <ele>1878.07</ele>
        <time>2021-01-14T12:54:18Z</time>
      </trkpt>
      <trkpt lat="44.43821" lon="7.11742">
        <ele>1878.55</ele>
        <time>2021-01-14T12:54:32Z</time>
      </trkpt>
      <trkpt lat="44.43823" lon="7.11741">
        <ele>1879.51</ele>
        <time>2021-01-14T12:54:37Z</time>
      </trkpt>
      <trkpt lat="44.43825" lon="7.11735">
        <ele>1878.07</ele>
        <time>2021-01-14T12:54:48Z</time>
      </trkpt>
      <trkpt lat="44.43827" lon="7.11734">
        <ele>1876.15</ele>
        <time>2021-01-14T12:54:51Z</time>
      </trkpt>
      <trkpt lat="44.43828" lon="7.11744">
        <ele>1874.23</ele>
        <time>2021-01-14T12:54:56Z</time>
      </trkpt>
      <trkpt lat="44.43829" lon="7.11747">
        <ele>1874.23</ele>
        <time>2021-01-14T12:55:02Z</time>
      </trkpt>
      <trkpt lat="44.43829" lon="7.11749">
        <ele>1874.23</ele>
        <time>2021-01-14T12:55:04Z</time>
      </trkpt>
      <trkpt lat="44.43829" lon="7.11754">
        <ele>1872.79</ele>
        <time>2021-01-14T12:55:15Z</time>
      </trkpt>
      <trkpt lat="44.43829" lon="7.11755">
        <ele>1872.79</ele>
        <time>2021-01-14T12:55:18Z</time>
      </trkpt>
      <trkpt lat="44.43836" lon="7.11759">
        <ele>1872.3</ele>
        <time>2021-01-14T12:55:25Z</time>
      </trkpt>
      <trkpt lat="44.4384" lon="7.11756">
        <ele>1872.3</ele>
        <time>2021-01-14T12:55:30Z</time>
      </trkpt>
      <trkpt lat="44.43843" lon="7.11753">
        <ele>1872.79</ele>
        <time>2021-01-14T12:55:34Z</time>
      </trkpt>
      <trkpt lat="44.43846" lon="7.11742">
        <ele>1874.23</ele>
        <time>2021-01-14T12:55:42Z</time>
      </trkpt>
      <trkpt lat="44.43849" lon="7.11738">
        <ele>1875.19</ele>
        <time>2021-01-14T12:55:45Z</time>
      </trkpt>
      <trkpt lat="44.43849" lon="7.11736">
        <ele>1875.67</ele>
        <time>2021-01-14T12:55:47Z</time>
      </trkpt>
      <trkpt lat="44.43849" lon="7.11734">
        <ele>1875.67</ele>
        <time>2021-01-14T12:55:50Z</time>
      </trkpt>
      <trkpt lat="44.43854" lon="7.11726">
        <ele>1875.67</ele>
        <time>2021-01-14T12:55:58Z</time>
      </trkpt>
      <trkpt lat="44.43854" lon="7.11727">
        <ele>1875.67</ele>
        <time>2021-01-14T12:55:59Z</time>
      </trkpt>
      <trkpt lat="44.43858" lon="7.11723">
        <ele>1876.15</ele>
        <time>2021-01-14T12:56:07Z</time>
      </trkpt>
      <trkpt lat="44.43859" lon="7.1172">
        <ele>1875.19</ele>
        <time>2021-01-14T12:56:09Z</time>
      </trkpt>
      <trkpt lat="44.43859" lon="7.11716">
        <ele>1874.71</ele>
        <time>2021-01-14T12:56:18Z</time>
      </trkpt>
      <trkpt lat="44.43863" lon="7.11708">
        <ele>1874.71</ele>
        <time>2021-01-14T12:56:27Z</time>
      </trkpt>
      <trkpt lat="44.43863" lon="7.11708">
        <ele>1874.23</ele>
        <time>2021-01-14T12:56:30Z</time>
      </trkpt>
      <trkpt lat="44.43865" lon="7.11698">
        <ele>1870.86</ele>
        <time>2021-01-14T12:56:43Z</time>
      </trkpt>
      <trkpt lat="44.43869" lon="7.11695">
        <ele>1870.38</ele>
        <time>2021-01-14T12:56:51Z</time>
      </trkpt>
      <trkpt lat="44.43884" lon="7.11671">
        <ele>1875.19</ele>
        <time>2021-01-14T12:57:03Z</time>
      </trkpt>
      <trkpt lat="44.43886" lon="7.1166">
        <ele>1878.07</ele>
        <time>2021-01-14T12:57:08Z</time>
      </trkpt>
      <trkpt lat="44.439" lon="7.1163">
        <ele>1878.55</ele>
        <time>2021-01-14T12:57:19Z</time>
      </trkpt>
      <trkpt lat="44.43915" lon="7.11611">
        <ele>1879.03</ele>
        <time>2021-01-14T12:57:29Z</time>
      </trkpt>
      <trkpt lat="44.43919" lon="7.11603">
        <ele>1879.03</ele>
        <time>2021-01-14T12:57:42Z</time>
      </trkpt>
      <trkpt lat="44.43922" lon="7.11596">
        <ele>1878.55</ele>
        <time>2021-01-14T12:57:48Z</time>
      </trkpt>
      <trkpt lat="44.4393" lon="7.11558">
        <ele>1855.48</ele>
        <time>2021-01-14T12:57:58Z</time>
      </trkpt>
      <trkpt lat="44.43926" lon="7.11558">
        <ele>1849.23</ele>
        <time>2021-01-14T12:58:08Z</time>
      </trkpt>
      <trkpt lat="44.43922" lon="7.11557">
        <ele>1845.87</ele>
        <time>2021-01-14T12:58:21Z</time>
      </trkpt>
      <trkpt lat="44.4392" lon="7.11559">
        <ele>1844.91</ele>
        <time>2021-01-14T12:58:35Z</time>
      </trkpt>
      <trkpt lat="44.43921" lon="7.11553">
        <ele>1839.14</ele>
        <time>2021-01-14T12:58:48Z</time>
      </trkpt>
      <trkpt lat="44.4392" lon="7.11552">
        <ele>1838.18</ele>
        <time>2021-01-14T12:58:52Z</time>
      </trkpt>
      <trkpt lat="44.43918" lon="7.11545">
        <ele>1833.85</ele>
        <time>2021-01-14T12:59:03Z</time>
      </trkpt>
      <trkpt lat="44.43921" lon="7.11523">
        <ele>1826.16</ele>
        <time>2021-01-14T12:59:15Z</time>
      </trkpt>
      <trkpt lat="44.43916" lon="7.11506">
        <ele>1828.08</ele>
        <time>2021-01-14T12:59:28Z</time>
      </trkpt>
      <trkpt lat="44.43916" lon="7.11503">
        <ele>1832.41</ele>
        <time>2021-01-14T12:59:34Z</time>
      </trkpt>
      <trkpt lat="44.43926" lon="7.11487">
        <ele>1839.14</ele>
        <time>2021-01-14T12:59:42Z</time>
      </trkpt>
      <trkpt lat="44.43939" lon="7.11476">
        <ele>1845.39</ele>
        <time>2021-01-14T12:59:48Z</time>
      </trkpt>
      <trkpt lat="44.43951" lon="7.11455">
        <ele>1845.87</ele>
        <time>2021-01-14T12:59:53Z</time>
      </trkpt>
      <trkpt lat="44.43955" lon="7.11445">
        <ele>1843.47</ele>
        <time>2021-01-14T13:00:05Z</time>
      </trkpt>
      <trkpt lat="44.43955" lon="7.11417">
        <ele>1840.1</ele>
        <time>2021-01-14T13:00:20Z</time>
      </trkpt>
      <trkpt lat="44.43957" lon="7.11398">
        <ele>1827.12</ele>
        <time>2021-01-14T13:00:30Z</time>
      </trkpt>
      <trkpt lat="44.43958" lon="7.11399">
        <ele>1827.12</ele>
        <time>2021-01-14T13:00:37Z</time>
      </trkpt>
      <trkpt lat="44.43956" lon="7.11404">
        <ele>1830.01</ele>
        <time>2021-01-14T13:00:50Z</time>
      </trkpt>
      <trkpt lat="44.43957" lon="7.11408">
        <ele>1829.53</ele>
        <time>2021-01-14T13:01:08Z</time>
      </trkpt>
      <trkpt lat="44.43945" lon="7.1142">
        <ele>1820.87</ele>
        <time>2021-01-14T13:01:21Z</time>
      </trkpt>
      <trkpt lat="44.43939" lon="7.11421">
        <ele>1818.47</ele>
        <time>2021-01-14T13:01:31Z</time>
      </trkpt>
      <trkpt lat="44.4394" lon="7.11424">
        <ele>1817.99</ele>
        <time>2021-01-14T13:01:48Z</time>
      </trkpt>
      <trkpt lat="44.4394" lon="7.11424">
        <ele>1817.51</ele>
        <time>2021-01-14T13:01:58Z</time>
      </trkpt>
      <trkpt lat="44.43941" lon="7.11419">
        <ele>1819.43</ele>
        <time>2021-01-14T13:02:11Z</time>
      </trkpt>
      <trkpt lat="44.43945" lon="7.11406">
        <ele>1824.24</ele>
        <time>2021-01-14T13:02:27Z</time>
      </trkpt>
      <trkpt lat="44.43946" lon="7.11403">
        <ele>1825.2</ele>
        <time>2021-01-14T13:02:30Z</time>
      </trkpt>
      <trkpt lat="44.43944" lon="7.11391">
        <ele>1827.12</ele>
        <time>2021-01-14T13:02:35Z</time>
      </trkpt>
      <trkpt lat="44.43955" lon="7.11369">
        <ele>1829.05</ele>
        <time>2021-01-14T13:02:47Z</time>
      </trkpt>
      <trkpt lat="44.43954" lon="7.11339">
        <ele>1833.37</ele>
        <time>2021-01-14T13:02:59Z</time>
      </trkpt>
      <trkpt lat="44.43954" lon="7.11332">
        <ele>1833.37</ele>
        <time>2021-01-14T13:03:03Z</time>
      </trkpt>
      <trkpt lat="44.43947" lon="7.113">
        <ele>1834.81</ele>
        <time>2021-01-14T13:03:14Z</time>
      </trkpt>
      <trkpt lat="44.43952" lon="7.1129">
        <ele>1835.29</ele>
        <time>2021-01-14T13:03:17Z</time>
      </trkpt>
      <trkpt lat="44.43957" lon="7.1128">
        <ele>1835.77</ele>
        <time>2021-01-14T13:03:21Z</time>
      </trkpt>
      <trkpt lat="44.43955" lon="7.11265">
        <ele>1835.77</ele>
        <time>2021-01-14T13:03:24Z</time>
      </trkpt>
      <trkpt lat="44.43955" lon="7.11251">
        <ele>1833.85</ele>
        <time>2021-01-14T13:03:34Z</time>
      </trkpt>
      <trkpt lat="44.43955" lon="7.11237">
        <ele>1828.56</ele>
        <time>2021-01-14T13:03:50Z</time>
      </trkpt>
      <trkpt lat="44.43955" lon="7.1123">
        <ele>1830.01</ele>
        <time>2021-01-14T13:04:02Z</time>
      </trkpt>
      <trkpt lat="44.43952" lon="7.11191">
        <ele>1813.18</ele>
        <time>2021-01-14T13:04:16Z</time>
      </trkpt>
      <trkpt lat="44.43951" lon="7.11187">
        <ele>1811.26</ele>
        <time>2021-01-14T13:04:26Z</time>
      </trkpt>
      <trkpt lat="44.43949" lon="7.11182">
        <ele>1810.78</ele>
        <time>2021-01-14T13:04:30Z</time>
      </trkpt>
      <trkpt lat="44.43952" lon="7.11154">
        <ele>1809.82</ele>
        <time>2021-01-14T13:04:41Z</time>
      </trkpt>
      <trkpt lat="44.43947" lon="7.11146">
        <ele>1810.78</ele>
        <time>2021-01-14T13:04:51Z</time>
      </trkpt>
      <trkpt lat="44.43948" lon="7.11126">
        <ele>1804.53</ele>
        <time>2021-01-14T13:05:10Z</time>
      </trkpt>
      <trkpt lat="44.43947" lon="7.11119">
        <ele>1798.28</ele>
        <time>2021-01-14T13:05:27Z</time>
      </trkpt>
      <trkpt lat="44.43944" lon="7.11116">
        <ele>1796.36</ele>
        <time>2021-01-14T13:05:39Z</time>
      </trkpt>
      <trkpt lat="44.43942" lon="7.11115">
        <ele>1796.36</ele>
        <time>2021-01-14T13:05:42Z</time>
      </trkpt>
      <trkpt lat="44.43936" lon="7.1111">
        <ele>1795.88</ele>
        <time>2021-01-14T13:05:54Z</time>
      </trkpt>
      <trkpt lat="44.43934" lon="7.11103">
        <ele>1794.92</ele>
        <time>2021-01-14T13:06:01Z</time>
      </trkpt>
      <trkpt lat="44.43925" lon="7.11083">
        <ele>1792.03</ele>
        <time>2021-01-14T13:06:14Z</time>
      </trkpt>
      <trkpt lat="44.43923" lon="7.11079">
        <ele>1792.03</ele>
        <time>2021-01-14T13:06:16Z</time>
      </trkpt>
      <trkpt lat="44.43917" lon="7.11059">
        <ele>1790.59</ele>
        <time>2021-01-14T13:06:22Z</time>
      </trkpt>
      <trkpt lat="44.439" lon="7.1102">
        <ele>1790.59</ele>
        <time>2021-01-14T13:06:31Z</time>
      </trkpt>
      <trkpt lat="44.43879" lon="7.10972">
        <ele>1791.55</ele>
        <time>2021-01-14T13:06:41Z</time>
      </trkpt>
      <trkpt lat="44.43876" lon="7.10964">
        <ele>1790.11</ele>
        <time>2021-01-14T13:06:49Z</time>
      </trkpt>
      <trkpt lat="44.43879" lon="7.10961">
        <ele>1787.23</ele>
        <time>2021-01-14T13:07:03Z</time>
      </trkpt>
      <trkpt lat="44.43876" lon="7.10954">
        <ele>1786.27</ele>
        <time>2021-01-14T13:07:06Z</time>
      </trkpt>
      <trkpt lat="44.43883" lon="7.10942">
        <ele>1788.19</ele>
        <time>2021-01-14T13:07:11Z</time>
      </trkpt>
      <trkpt lat="44.43895" lon="7.10942">
        <ele>1787.71</ele>
        <time>2021-01-14T13:07:14Z</time>
      </trkpt>
      <trkpt lat="44.43898" lon="7.10937">
        <ele>1787.23</ele>
        <time>2021-01-14T13:07:16Z</time>
      </trkpt>
      <trkpt lat="44.43897" lon="7.10923">
        <ele>1786.75</ele>
        <time>2021-01-14T13:07:23Z</time>
      </trkpt>
      <trkpt lat="44.43899" lon="7.10924">
        <ele>1786.75</ele>
        <time>2021-01-14T13:07:25Z</time>
      </trkpt>
      <trkpt lat="44.43911" lon="7.10902">
        <ele>1787.71</ele>
        <time>2021-01-14T13:07:31Z</time>
      </trkpt>
      <trkpt lat="44.43915" lon="7.10898">
        <ele>1787.71</ele>
        <time>2021-01-14T13:07:32Z</time>
      </trkpt>
      <trkpt lat="44.43931" lon="7.10903">
        <ele>1785.79</ele>
        <time>2021-01-14T13:07:39Z</time>
      </trkpt>
      <trkpt lat="44.43932" lon="7.10882">
        <ele>1779.06</ele>
        <time>2021-01-14T13:07:55Z</time>
      </trkpt>
      <trkpt lat="44.43933" lon="7.10881">
        <ele>1778.1</ele>
        <time>2021-01-14T13:08:01Z</time>
      </trkpt>
      <trkpt lat="44.43928" lon="7.10867">
        <ele>1775.69</ele>
        <time>2021-01-14T13:08:08Z</time>
      </trkpt>
      <trkpt lat="44.43929" lon="7.10855">
        <ele>1775.21</ele>
        <time>2021-01-14T13:08:12Z</time>
      </trkpt>
      <trkpt lat="44.4393" lon="7.1085">
        <ele>1775.21</ele>
        <time>2021-01-14T13:08:14Z</time>
      </trkpt>
      <trkpt lat="44.43932" lon="7.10834">
        <ele>1775.69</ele>
        <time>2021-01-14T13:08:19Z</time>
      </trkpt>
      <trkpt lat="44.43942" lon="7.10831">
        <ele>1776.17</ele>
        <time>2021-01-14T13:08:22Z</time>
      </trkpt>
      <trkpt lat="44.43943" lon="7.10817">
        <ele>1774.73</ele>
        <time>2021-01-14T13:08:26Z</time>
      </trkpt>
      <trkpt lat="44.4394" lon="7.10803">
        <ele>1772.81</ele>
        <time>2021-01-14T13:08:30Z</time>
      </trkpt>
      <trkpt lat="44.43932" lon="7.10765">
        <ele>1771.85</ele>
        <time>2021-01-14T13:08:37Z</time>
      </trkpt>
      <trkpt lat="44.43942" lon="7.10742">
        <ele>1770.89</ele>
        <time>2021-01-14T13:08:44Z</time>
      </trkpt>
      <trkpt lat="44.4394" lon="7.10725">
        <ele>1769.92</ele>
        <time>2021-01-14T13:08:49Z</time>
      </trkpt>
      <trkpt lat="44.43941" lon="7.10721">
        <ele>1767.52</ele>
        <time>2021-01-14T13:08:59Z</time>
      </trkpt>
      <trkpt lat="44.43944" lon="7.10708">
        <ele>1765.12</ele>
        <time>2021-01-14T13:09:04Z</time>
      </trkpt>
      <trkpt lat="44.43938" lon="7.10687">
        <ele>1762.23</ele>
        <time>2021-01-14T13:09:10Z</time>
      </trkpt>
      <trkpt lat="44.43932" lon="7.10666">
        <ele>1761.27</ele>
        <time>2021-01-14T13:09:17Z</time>
      </trkpt>
      <trkpt lat="44.43931" lon="7.10659">
        <ele>1757.91</ele>
        <time>2021-01-14T13:09:20Z</time>
      </trkpt>
      <trkpt lat="44.43918" lon="7.10633">
        <ele>1750.22</ele>
        <time>2021-01-14T13:09:28Z</time>
      </trkpt>
      <trkpt lat="44.43919" lon="7.10624">
        <ele>1743.01</ele>
        <time>2021-01-14T13:09:41Z</time>
      </trkpt>
      <trkpt lat="44.43918" lon="7.10619">
        <ele>1740.6</ele>
        <time>2021-01-14T13:09:46Z</time>
      </trkpt>
      <trkpt lat="44.43903" lon="7.10597">
        <ele>1732.91</ele>
        <time>2021-01-14T13:09:55Z</time>
      </trkpt>
      <trkpt lat="44.43906" lon="7.10593">
        <ele>1728.59</ele>
        <time>2021-01-14T13:09:59Z</time>
      </trkpt>
      <trkpt lat="44.43901" lon="7.10585">
        <ele>1726.18</ele>
        <time>2021-01-14T13:10:02Z</time>
      </trkpt>
      <trkpt lat="44.43897" lon="7.10574">
        <ele>1722.34</ele>
        <time>2021-01-14T13:10:05Z</time>
      </trkpt>
      <trkpt lat="44.43913" lon="7.10571">
        <ele>1719.94</ele>
        <time>2021-01-14T13:10:13Z</time>
      </trkpt>
      <trkpt lat="44.43912" lon="7.10557">
        <ele>1705.52</ele>
        <time>2021-01-14T13:10:24Z</time>
      </trkpt>
      <trkpt lat="44.43913" lon="7.10554">
        <ele>1704.07</ele>
        <time>2021-01-14T13:10:26Z</time>
      </trkpt>
      <trkpt lat="44.43919" lon="7.10552">
        <ele>1700.23</ele>
        <time>2021-01-14T13:10:34Z</time>
      </trkpt>
      <trkpt lat="44.43921" lon="7.10553">
        <ele>1698.79</ele>
        <time>2021-01-14T13:10:42Z</time>
      </trkpt>
      <trkpt lat="44.43916" lon="7.10529">
        <ele>1691.58</ele>
        <time>2021-01-14T13:10:49Z</time>
      </trkpt>
      <trkpt lat="44.439" lon="7.10488">
        <ele>1683.41</ele>
        <time>2021-01-14T13:10:58Z</time>
      </trkpt>
      <trkpt lat="44.43895" lon="7.10468">
        <ele>1682.44</ele>
        <time>2021-01-14T13:11:02Z</time>
      </trkpt>
      <trkpt lat="44.43893" lon="7.10462">
        <ele>1680.52</ele>
        <time>2021-01-14T13:11:05Z</time>
      </trkpt>
      <trkpt lat="44.43912" lon="7.10432">
        <ele>1654.57</ele>
        <time>2021-01-14T13:11:14Z</time>
      </trkpt>
      <trkpt lat="44.43918" lon="7.10426">
        <ele>1649.76</ele>
        <time>2021-01-14T13:11:16Z</time>
      </trkpt>
      <trkpt lat="44.43921" lon="7.10425">
        <ele>1647.36</ele>
        <time>2021-01-14T13:11:17Z</time>
      </trkpt>
      <trkpt lat="44.43923" lon="7.10424">
        <ele>1645.43</ele>
        <time>2021-01-14T13:11:18Z</time>
      </trkpt>
      <trkpt lat="44.43924" lon="7.10425">
        <ele>1644.47</ele>
        <time>2021-01-14T13:11:19Z</time>
      </trkpt>
      <trkpt lat="44.43926" lon="7.10421">
        <ele>1640.15</ele>
        <time>2021-01-14T13:11:21Z</time>
      </trkpt>
      <trkpt lat="44.43928" lon="7.1042">
        <ele>1638.22</ele>
        <time>2021-01-14T13:11:22Z</time>
      </trkpt>
      <trkpt lat="44.43929" lon="7.10418">
        <ele>1635.34</ele>
        <time>2021-01-14T13:11:23Z</time>
      </trkpt>
      <trkpt lat="44.43931" lon="7.10417">
        <ele>1632.46</ele>
        <time>2021-01-14T13:11:24Z</time>
      </trkpt>
      <trkpt lat="44.43932" lon="7.10416">
        <ele>1630.05</ele>
        <time>2021-01-14T13:11:25Z</time>
      </trkpt>
      <trkpt lat="44.43933" lon="7.10416">
        <ele>1621.4</ele>
        <time>2021-01-14T13:11:29Z</time>
      </trkpt>
      <trkpt lat="44.43935" lon="7.10414">
        <ele>1619</ele>
        <time>2021-01-14T13:11:30Z</time>
      </trkpt>
      <trkpt lat="44.43939" lon="7.10412">
        <ele>1617.07</ele>
        <time>2021-01-14T13:11:31Z</time>
      </trkpt>
      <trkpt lat="44.43942" lon="7.1041">
        <ele>1614.67</ele>
        <time>2021-01-14T13:11:32Z</time>
      </trkpt>
      <trkpt lat="44.43945" lon="7.10409">
        <ele>1612.75</ele>
        <time>2021-01-14T13:11:33Z</time>
      </trkpt>
      <trkpt lat="44.43948" lon="7.10409">
        <ele>1610.83</ele>
        <time>2021-01-14T13:11:34Z</time>
      </trkpt>
      <trkpt lat="44.43976" lon="7.1041">
        <ele>1579.58</ele>
        <time>2021-01-14T13:11:45Z</time>
      </trkpt>
      <trkpt lat="44.4399" lon="7.10414">
        <ele>1574.3</ele>
        <time>2021-01-14T13:11:52Z</time>
      </trkpt>
      <trkpt lat="44.43993" lon="7.10414">
        <ele>1571.89</ele>
        <time>2021-01-14T13:11:55Z</time>
      </trkpt>
      <trkpt lat="44.43995" lon="7.10414">
        <ele>1570.45</ele>
        <time>2021-01-14T13:11:56Z</time>
      </trkpt>
      <trkpt lat="44.4404" lon="7.10427">
        <ele>1560.84</ele>
        <time>2021-01-14T13:12:11Z</time>
      </trkpt>
      <trkpt lat="44.44064" lon="7.10431">
        <ele>1557.47</ele>
        <time>2021-01-14T13:12:17Z</time>
      </trkpt>
      <trkpt lat="44.44105" lon="7.1043">
        <ele>1550.26</ele>
        <time>2021-01-14T13:12:30Z</time>
      </trkpt>
      <trkpt lat="44.44134" lon="7.10444">
        <ele>1546.42</ele>
        <time>2021-01-14T13:12:44Z</time>
      </trkpt>
      <trkpt lat="44.44154" lon="7.10472">
        <ele>1543.53</ele>
        <time>2021-01-14T13:12:57Z</time>
      </trkpt>
      <trkpt lat="44.44195" lon="7.10504">
        <ele>1538.73</ele>
        <time>2021-01-14T13:13:11Z</time>
      </trkpt>
      <trkpt lat="44.44206" lon="7.10506">
        <ele>1536.32</ele>
        <time>2021-01-14T13:13:21Z</time>
      </trkpt>
      <trkpt lat="44.4421" lon="7.10505">
        <ele>1536.8</ele>
        <time>2021-01-14T13:13:34Z</time>
      </trkpt>
      <trkpt lat="44.4421" lon="7.10504">
        <ele>1536.8</ele>
        <time>2021-01-14T13:13:46Z</time>
      </trkpt>
      <trkpt lat="44.44215" lon="7.10504">
        <ele>1536.32</ele>
        <time>2021-01-14T13:13:56Z</time>
      </trkpt>
      <trkpt lat="44.44214" lon="7.10501">
        <ele>1535.84</ele>
        <time>2021-01-14T13:13:57Z</time>
      </trkpt>
      <trkpt lat="44.44213" lon="7.10496">
        <ele>1535.36</ele>
        <time>2021-01-14T13:13:58Z</time>
      </trkpt>
      <trkpt lat="44.44207" lon="7.10488">
        <ele>1533.44</ele>
        <time>2021-01-14T13:14:01Z</time>
      </trkpt>
      <trkpt lat="44.44213" lon="7.10471">
        <ele>1528.63</ele>
        <time>2021-01-14T13:14:10Z</time>
      </trkpt>
      <trkpt lat="44.44212" lon="7.10468">
        <ele>1528.15</ele>
        <time>2021-01-14T13:14:11Z</time>
      </trkpt>
      <trkpt lat="44.44211" lon="7.10463">
        <ele>1527.67</ele>
        <time>2021-01-14T13:14:12Z</time>
      </trkpt>
      <trkpt lat="44.44209" lon="7.10458">
        <ele>1527.19</ele>
        <time>2021-01-14T13:14:13Z</time>
      </trkpt>
      <trkpt lat="44.44206" lon="7.10455">
        <ele>1526.71</ele>
        <time>2021-01-14T13:14:14Z</time>
      </trkpt>
      <trkpt lat="44.44204" lon="7.10454">
        <ele>1525.27</ele>
        <time>2021-01-14T13:14:21Z</time>
      </trkpt>
      <trkpt lat="44.44204" lon="7.10454">
        <ele>1524.79</ele>
        <time>2021-01-14T13:14:23Z</time>
      </trkpt>
      <trkpt lat="44.44203" lon="7.10449">
        <ele>1524.79</ele>
        <time>2021-01-14T13:14:34Z</time>
      </trkpt>
      <trkpt lat="44.44204" lon="7.10449">
        <ele>1526.71</ele>
        <time>2021-01-14T13:14:50Z</time>
      </trkpt>
      <trkpt lat="44.44209" lon="7.10449">
        <ele>1526.23</ele>
        <time>2021-01-14T13:15:01Z</time>
      </trkpt>
      <trkpt lat="44.44207" lon="7.10451">
        <ele>1528.63</ele>
        <time>2021-01-14T13:15:12Z</time>
      </trkpt>
      <trkpt lat="44.44209" lon="7.10449">
        <ele>1528.15</ele>
        <time>2021-01-14T13:15:18Z</time>
      </trkpt>
      <trkpt lat="44.4421" lon="7.10446">
        <ele>1528.15</ele>
        <time>2021-01-14T13:15:28Z</time>
      </trkpt>
      <trkpt lat="44.44211" lon="7.1045">
        <ele>1528.63</ele>
        <time>2021-01-14T13:15:40Z</time>
      </trkpt>
      <trkpt lat="44.44213" lon="7.10451">
        <ele>1528.15</ele>
        <time>2021-01-14T13:15:52Z</time>
      </trkpt>
      <trkpt lat="44.44214" lon="7.10449">
        <ele>1525.27</ele>
        <time>2021-01-14T13:16:06Z</time>
      </trkpt>
      <trkpt lat="44.44213" lon="7.1045">
        <ele>1525.27</ele>
        <time>2021-01-14T13:16:49Z</time>
      </trkpt>
      <trkpt lat="44.44212" lon="7.10456">
        <ele>1524.31</ele>
        <time>2021-01-14T13:17:30Z</time>
      </trkpt>
      <trkpt lat="44.44214" lon="7.10454">
        <ele>1524.31</ele>
        <time>2021-01-14T13:18:07Z</time>
      </trkpt>
      <trkpt lat="44.44217" lon="7.1045">
        <ele>1532</ele>
        <time>2021-01-14T13:18:51Z</time>
      </trkpt>
      <trkpt lat="44.44218" lon="7.10449">
        <ele>1531.52</ele>
        <time>2021-01-14T13:19:34Z</time>
      </trkpt>
      <trkpt lat="44.44217" lon="7.10446">
        <ele>1531.04</ele>
        <time>2021-01-14T13:20:11Z</time>
      </trkpt>
      <trkpt lat="44.44217" lon="7.10448">
        <ele>1537.29</ele>
        <time>2021-01-14T13:20:46Z</time>
      </trkpt>
      <trkpt lat="44.44216" lon="7.10451">
        <ele>1536.32</ele>
        <time>2021-01-14T13:21:18Z</time>
      </trkpt>
      <trkpt lat="44.44216" lon="7.10451">
        <ele>1539.21</ele>
        <time>2021-01-14T13:22:03Z</time>
      </trkpt>
      <trkpt lat="44.44218" lon="7.10455">
        <ele>1544.98</ele>
        <time>2021-01-14T13:22:37Z</time>
      </trkpt>
      <trkpt lat="44.44217" lon="7.10449">
        <ele>1544.01</ele>
        <time>2021-01-14T13:23:19Z</time>
      </trkpt>
      <trkpt lat="44.44217" lon="7.10448">
        <ele>1538.25</ele>
        <time>2021-01-14T13:24:02Z</time>
      </trkpt>
      <trkpt lat="44.44217" lon="7.10449">
        <ele>1540.17</ele>
        <time>2021-01-14T13:24:44Z</time>
      </trkpt>
      <trkpt lat="44.44217" lon="7.1045">
        <ele>1537.29</ele>
        <time>2021-01-14T13:25:28Z</time>
      </trkpt>
      <trkpt lat="44.44216" lon="7.10448">
        <ele>1532.96</ele>
        <time>2021-01-14T13:26:05Z</time>
      </trkpt>
      <trkpt lat="44.44216" lon="7.10447">
        <ele>1530.56</ele>
        <time>2021-01-14T13:26:48Z</time>
      </trkpt>
      <trkpt lat="44.44215" lon="7.10449">
        <ele>1532.48</ele>
        <time>2021-01-14T13:27:30Z</time>
      </trkpt>
      <trkpt lat="44.44214" lon="7.10445">
        <ele>1529.59</ele>
        <time>2021-01-14T13:28:03Z</time>
      </trkpt>
      <trkpt lat="44.44211" lon="7.10443">
        <ele>1525.27</ele>
        <time>2021-01-14T13:28:22Z</time>
      </trkpt>
      <trkpt lat="44.44208" lon="7.10443">
        <ele>1523.83</ele>
        <time>2021-01-14T13:28:35Z</time>
      </trkpt>
      <trkpt lat="44.44212" lon="7.10441">
        <ele>1530.56</ele>
        <time>2021-01-14T13:29:10Z</time>
      </trkpt>
      <trkpt lat="44.44209" lon="7.10439">
        <ele>1532.48</ele>
        <time>2021-01-14T13:29:43Z</time>
      </trkpt>
      <trkpt lat="44.4421" lon="7.10444">
        <ele>1526.23</ele>
        <time>2021-01-14T13:30:03Z</time>
      </trkpt>
      <trkpt lat="44.44236" lon="7.10471">
        <ele>1529.59</ele>
        <time>2021-01-14T13:30:12Z</time>
      </trkpt>
      <trkpt lat="44.44239" lon="7.10477">
        <ele>1530.08</ele>
        <time>2021-01-14T13:30:13Z</time>
      </trkpt>
      <trkpt lat="44.44242" lon="7.10483">
        <ele>1530.08</ele>
        <time>2021-01-14T13:30:14Z</time>
      </trkpt>
      <trkpt lat="44.44247" lon="7.10495">
        <ele>1530.56</ele>
        <time>2021-01-14T13:30:16Z</time>
      </trkpt>
      <trkpt lat="44.44251" lon="7.105">
        <ele>1530.56</ele>
        <time>2021-01-14T13:30:17Z</time>
      </trkpt>
      <trkpt lat="44.44256" lon="7.10504">
        <ele>1530.56</ele>
        <time>2021-01-14T13:30:18Z</time>
      </trkpt>
      <trkpt lat="44.44268" lon="7.10512">
        <ele>1531.04</ele>
        <time>2021-01-14T13:30:20Z</time>
      </trkpt>
      <trkpt lat="44.44273" lon="7.10517">
        <ele>1531.04</ele>
        <time>2021-01-14T13:30:21Z</time>
      </trkpt>
      <trkpt lat="44.44278" lon="7.10522">
        <ele>1531.52</ele>
        <time>2021-01-14T13:30:22Z</time>
      </trkpt>
      <trkpt lat="44.44282" lon="7.10528">
        <ele>1531.52</ele>
        <time>2021-01-14T13:30:23Z</time>
      </trkpt>
      <trkpt lat="44.44286" lon="7.10534">
        <ele>1532</ele>
        <time>2021-01-14T13:30:24Z</time>
      </trkpt>
      <trkpt lat="44.44289" lon="7.1054">
        <ele>1532.48</ele>
        <time>2021-01-14T13:30:25Z</time>
      </trkpt>
      <trkpt lat="44.44291" lon="7.10546">
        <ele>1532.48</ele>
        <time>2021-01-14T13:30:26Z</time>
      </trkpt>
      <trkpt lat="44.44296" lon="7.10556">
        <ele>1532.48</ele>
        <time>2021-01-14T13:30:28Z</time>
      </trkpt>
      <trkpt lat="44.44297" lon="7.10562">
        <ele>1532.48</ele>
        <time>2021-01-14T13:30:29Z</time>
      </trkpt>
      <trkpt lat="44.44298" lon="7.10569">
        <ele>1532</ele>
        <time>2021-01-14T13:30:30Z</time>
      </trkpt>
      <trkpt lat="44.44298" lon="7.1059">
        <ele>1531.52</ele>
        <time>2021-01-14T13:30:33Z</time>
      </trkpt>
      <trkpt lat="44.44298" lon="7.10627">
        <ele>1530.56</ele>
        <time>2021-01-14T13:30:38Z</time>
      </trkpt>
      <trkpt lat="44.443" lon="7.10634">
        <ele>1530.56</ele>
        <time>2021-01-14T13:30:39Z</time>
      </trkpt>
      <trkpt lat="44.44302" lon="7.10641">
        <ele>1530.56</ele>
        <time>2021-01-14T13:30:40Z</time>
      </trkpt>
      <trkpt lat="44.44306" lon="7.10648">
        <ele>1530.56</ele>
        <time>2021-01-14T13:30:41Z</time>
      </trkpt>
    </trkseg>
  </trk>
</gpx>